<?xml version="1.0" encoding="UTF-8" standalone="no" ?>
<gpx xmlns="http://www.topografix.com/GPX/1/1" xmlns:xsi="http://www.w3.org/2001/XMLSchema-instance" xsi:schemaLocation="http://www.topografix.com/GPX/1/1 http://www.topografix.com/GPX/1/1/gpx.xsd" version="1.1" creator="VisuGPX - https://www.visugpx.com">
  <metadata>
    <name>boucle 34km au départ de Pourrieres</name>
    <desc><![CDATA[Hormis le départ un peu pénible, sur une piste raide et caillouteuse, le reste du parcours est sans difficultés, en grande partie sur de larges pistes.]]></desc>
  </metadata>
  <trk>
    <name><![CDATA[2020-10-18 08:34]]></name>
    <extensions>
      <line xmlns="http://www.topografix.com/GPX/gpx_style/0/2">
        <color>0000FF</color>
        <width>4</width>
      </line>
    </extensions>
    <trkseg>
      <trkpt lat="43.50744" lon="5.73512">
        <ele>302.3</ele>
      </trkpt>
      <trkpt lat="43.50728" lon="5.735">
        <ele>246.9</ele>
        <time>2020-10-18T06:42:15Z</time>
      </trkpt>
      <trkpt lat="43.5071" lon="5.73488">
        <ele>246.05</ele>
        <time>2020-10-18T06:42:21Z</time>
      </trkpt>
      <trkpt lat="43.50692" lon="5.73475">
        <ele>245.77</ele>
        <time>2020-10-18T06:42:27Z</time>
      </trkpt>
      <trkpt lat="43.50675" lon="5.73464">
        <ele>246.27</ele>
        <time>2020-10-18T06:42:33Z</time>
      </trkpt>
      <trkpt lat="43.50659" lon="5.73454">
        <ele>246.58</ele>
        <time>2020-10-18T06:42:39Z</time>
      </trkpt>
      <trkpt lat="43.50662" lon="5.73429">
        <ele>247.8</ele>
        <time>2020-10-18T06:42:54Z</time>
      </trkpt>
      <trkpt lat="43.50679" lon="5.73418">
        <ele>248.78</ele>
        <time>2020-10-18T06:43:01Z</time>
      </trkpt>
      <trkpt lat="43.50698" lon="5.73406">
        <ele>252.07</ele>
        <time>2020-10-18T06:43:09Z</time>
      </trkpt>
      <trkpt lat="43.50716" lon="5.73394">
        <ele>254.66</ele>
        <time>2020-10-18T06:43:16Z</time>
      </trkpt>
      <trkpt lat="43.50733" lon="5.73384">
        <ele>256.29</ele>
        <time>2020-10-18T06:43:22Z</time>
      </trkpt>
      <trkpt lat="43.5075" lon="5.73373">
        <ele>258.19</ele>
        <time>2020-10-18T06:43:28Z</time>
      </trkpt>
      <trkpt lat="43.5077" lon="5.73361">
        <ele>259.14</ele>
        <time>2020-10-18T06:43:34Z</time>
      </trkpt>
      <trkpt lat="43.5079" lon="5.7335">
        <ele>258.68</ele>
        <time>2020-10-18T06:43:40Z</time>
      </trkpt>
      <trkpt lat="43.50808" lon="5.73341">
        <ele>256.37</ele>
        <time>2020-10-18T06:43:45Z</time>
      </trkpt>
      <trkpt lat="43.50826" lon="5.7333">
        <ele>255</ele>
        <time>2020-10-18T06:43:50Z</time>
      </trkpt>
      <trkpt lat="43.50844" lon="5.7332">
        <ele>254.17</ele>
        <time>2020-10-18T06:43:55Z</time>
      </trkpt>
      <trkpt lat="43.50863" lon="5.73313">
        <ele>254.23</ele>
        <time>2020-10-18T06:44:00Z</time>
      </trkpt>
      <trkpt lat="43.50881" lon="5.73309">
        <ele>254.71</ele>
        <time>2020-10-18T06:44:05Z</time>
      </trkpt>
      <trkpt lat="43.509" lon="5.73308">
        <ele>256.33</ele>
        <time>2020-10-18T06:44:10Z</time>
      </trkpt>
      <trkpt lat="43.50919" lon="5.73309">
        <ele>257.31</ele>
        <time>2020-10-18T06:44:15Z</time>
      </trkpt>
      <trkpt lat="43.50939" lon="5.73311">
        <ele>259.72</ele>
        <time>2020-10-18T06:44:21Z</time>
      </trkpt>
      <trkpt lat="43.50958" lon="5.73315">
        <ele>261.62</ele>
        <time>2020-10-18T06:44:26Z</time>
      </trkpt>
      <trkpt lat="43.50978" lon="5.73318">
        <ele>264.29</ele>
        <time>2020-10-18T06:44:31Z</time>
      </trkpt>
      <trkpt lat="43.50998" lon="5.7332">
        <ele>265.46</ele>
        <time>2020-10-18T06:44:36Z</time>
      </trkpt>
      <trkpt lat="43.51017" lon="5.73318">
        <ele>262.07</ele>
        <time>2020-10-18T06:44:40Z</time>
      </trkpt>
      <trkpt lat="43.51034" lon="5.73311">
        <ele>261.1</ele>
        <time>2020-10-18T06:44:45Z</time>
      </trkpt>
      <trkpt lat="43.51053" lon="5.73302">
        <ele>263.25</ele>
        <time>2020-10-18T06:44:52Z</time>
      </trkpt>
      <trkpt lat="43.51071" lon="5.73293">
        <ele>265.7</ele>
        <time>2020-10-18T06:44:59Z</time>
      </trkpt>
      <trkpt lat="43.51088" lon="5.73284">
        <ele>267.27</ele>
        <time>2020-10-18T06:45:05Z</time>
      </trkpt>
      <trkpt lat="43.51107" lon="5.73278">
        <ele>268.65</ele>
        <time>2020-10-18T06:45:12Z</time>
      </trkpt>
      <trkpt lat="43.51125" lon="5.73272">
        <ele>268.87</ele>
        <time>2020-10-18T06:45:19Z</time>
      </trkpt>
      <trkpt lat="43.51144" lon="5.73267">
        <ele>270.67</ele>
        <time>2020-10-18T06:45:27Z</time>
      </trkpt>
      <trkpt lat="43.51162" lon="5.73265">
        <ele>273.35</ele>
        <time>2020-10-18T06:45:35Z</time>
      </trkpt>
      <trkpt lat="43.51179" lon="5.73256">
        <ele>276.31</ele>
        <time>2020-10-18T06:45:43Z</time>
      </trkpt>
      <trkpt lat="43.51195" lon="5.73243">
        <ele>276.01</ele>
        <time>2020-10-18T06:45:51Z</time>
      </trkpt>
      <trkpt lat="43.51212" lon="5.73231">
        <ele>276.6</ele>
        <time>2020-10-18T06:46:00Z</time>
      </trkpt>
      <trkpt lat="43.5123" lon="5.7322">
        <ele>275.7</ele>
        <time>2020-10-18T06:46:08Z</time>
      </trkpt>
      <trkpt lat="43.51246" lon="5.73208">
        <ele>276.31</ele>
        <time>2020-10-18T06:46:18Z</time>
      </trkpt>
      <trkpt lat="43.51264" lon="5.73197">
        <ele>278.67</ele>
        <time>2020-10-18T06:46:27Z</time>
      </trkpt>
      <trkpt lat="43.51281" lon="5.73187">
        <ele>283.07</ele>
        <time>2020-10-18T06:46:39Z</time>
      </trkpt>
      <trkpt lat="43.51298" lon="5.73177">
        <ele>284.93</ele>
        <time>2020-10-18T06:46:49Z</time>
      </trkpt>
      <trkpt lat="43.51314" lon="5.73165">
        <ele>287.56</ele>
        <time>2020-10-18T06:46:59Z</time>
      </trkpt>
      <trkpt lat="43.51331" lon="5.73157">
        <ele>286.38</ele>
        <time>2020-10-18T06:47:05Z</time>
      </trkpt>
      <trkpt lat="43.51349" lon="5.73145">
        <ele>286.91</ele>
        <time>2020-10-18T06:47:13Z</time>
      </trkpt>
      <trkpt lat="43.51363" lon="5.73129">
        <ele>288.07</ele>
        <time>2020-10-18T06:47:23Z</time>
      </trkpt>
      <trkpt lat="43.51379" lon="5.73115">
        <ele>289.42</ele>
        <time>2020-10-18T06:47:32Z</time>
      </trkpt>
      <trkpt lat="43.51396" lon="5.73104">
        <ele>290.19</ele>
        <time>2020-10-18T06:47:41Z</time>
      </trkpt>
      <trkpt lat="43.51414" lon="5.73094">
        <ele>292.73</ele>
        <time>2020-10-18T06:47:50Z</time>
      </trkpt>
      <trkpt lat="43.51433" lon="5.73086">
        <ele>292.55</ele>
        <time>2020-10-18T06:47:59Z</time>
      </trkpt>
      <trkpt lat="43.5145" lon="5.73076">
        <ele>292.19</ele>
        <time>2020-10-18T06:48:07Z</time>
      </trkpt>
      <trkpt lat="43.51465" lon="5.73061">
        <ele>291.15</ele>
        <time>2020-10-18T06:48:16Z</time>
      </trkpt>
      <trkpt lat="43.5148" lon="5.73044">
        <ele>291.24</ele>
        <time>2020-10-18T06:48:26Z</time>
      </trkpt>
      <trkpt lat="43.51494" lon="5.73028">
        <ele>291.98</ele>
        <time>2020-10-18T06:48:34Z</time>
      </trkpt>
      <trkpt lat="43.51509" lon="5.73011">
        <ele>292.75</ele>
        <time>2020-10-18T06:48:43Z</time>
      </trkpt>
      <trkpt lat="43.51524" lon="5.72995">
        <ele>292.06</ele>
        <time>2020-10-18T06:48:51Z</time>
      </trkpt>
      <trkpt lat="43.51536" lon="5.72975">
        <ele>293.02</ele>
        <time>2020-10-18T06:49:00Z</time>
      </trkpt>
      <trkpt lat="43.51551" lon="5.72961">
        <ele>293.73</ele>
        <time>2020-10-18T06:49:10Z</time>
      </trkpt>
      <trkpt lat="43.51571" lon="5.72956">
        <ele>295.08</ele>
        <time>2020-10-18T06:49:21Z</time>
      </trkpt>
      <trkpt lat="43.5159" lon="5.72946">
        <ele>296.18</ele>
        <time>2020-10-18T06:49:27Z</time>
      </trkpt>
      <trkpt lat="43.51608" lon="5.72935">
        <ele>294.07</ele>
        <time>2020-10-18T06:49:32Z</time>
      </trkpt>
      <trkpt lat="43.51628" lon="5.72925">
        <ele>294.89</ele>
        <time>2020-10-18T06:49:38Z</time>
      </trkpt>
      <trkpt lat="43.51647" lon="5.72923">
        <ele>296.26</ele>
        <time>2020-10-18T06:49:42Z</time>
      </trkpt>
      <trkpt lat="43.51668" lon="5.72922">
        <ele>297.68</ele>
        <time>2020-10-18T06:49:46Z</time>
      </trkpt>
      <trkpt lat="43.51687" lon="5.72918">
        <ele>296.44</ele>
        <time>2020-10-18T06:49:50Z</time>
      </trkpt>
      <trkpt lat="43.51705" lon="5.72916">
        <ele>295.91</ele>
        <time>2020-10-18T06:49:54Z</time>
      </trkpt>
      <trkpt lat="43.51724" lon="5.72913">
        <ele>295.19</ele>
        <time>2020-10-18T06:49:59Z</time>
      </trkpt>
      <trkpt lat="43.51743" lon="5.72911">
        <ele>295.25</ele>
        <time>2020-10-18T06:50:04Z</time>
      </trkpt>
      <trkpt lat="43.51761" lon="5.7291">
        <ele>295.53</ele>
        <time>2020-10-18T06:50:09Z</time>
      </trkpt>
      <trkpt lat="43.51782" lon="5.72907">
        <ele>293.86</ele>
        <time>2020-10-18T06:50:15Z</time>
      </trkpt>
      <trkpt lat="43.518" lon="5.72904">
        <ele>291.6</ele>
        <time>2020-10-18T06:50:20Z</time>
      </trkpt>
      <trkpt lat="43.51821" lon="5.72902">
        <ele>289.59</ele>
        <time>2020-10-18T06:50:26Z</time>
      </trkpt>
      <trkpt lat="43.5184" lon="5.72898">
        <ele>286.85</ele>
        <time>2020-10-18T06:50:31Z</time>
      </trkpt>
      <trkpt lat="43.5186" lon="5.72895">
        <ele>286.64</ele>
        <time>2020-10-18T06:50:37Z</time>
      </trkpt>
      <trkpt lat="43.51878" lon="5.72893">
        <ele>287.7</ele>
        <time>2020-10-18T06:50:43Z</time>
      </trkpt>
      <trkpt lat="43.51899" lon="5.72891">
        <ele>290.12</ele>
        <time>2020-10-18T06:50:50Z</time>
      </trkpt>
      <trkpt lat="43.51918" lon="5.72887">
        <ele>290.93</ele>
        <time>2020-10-18T06:50:59Z</time>
      </trkpt>
      <trkpt lat="43.51936" lon="5.72888">
        <ele>294.97</ele>
        <time>2020-10-18T06:51:10Z</time>
      </trkpt>
      <trkpt lat="43.51954" lon="5.72895">
        <ele>299.4</ele>
        <time>2020-10-18T06:51:24Z</time>
      </trkpt>
      <trkpt lat="43.51973" lon="5.72897">
        <ele>304.47</ele>
        <time>2020-10-18T06:51:40Z</time>
      </trkpt>
      <trkpt lat="43.5199" lon="5.72907">
        <ele>307.38</ele>
        <time>2020-10-18T06:51:54Z</time>
      </trkpt>
      <trkpt lat="43.52008" lon="5.72907">
        <ele>311.82</ele>
        <time>2020-10-18T06:52:06Z</time>
      </trkpt>
      <trkpt lat="43.52027" lon="5.72899">
        <ele>314.79</ele>
        <time>2020-10-18T06:52:18Z</time>
      </trkpt>
      <trkpt lat="43.52046" lon="5.72897">
        <ele>316.66</ele>
        <time>2020-10-18T06:52:28Z</time>
      </trkpt>
      <trkpt lat="43.52064" lon="5.72904">
        <ele>316.75</ele>
        <time>2020-10-18T06:52:39Z</time>
      </trkpt>
      <trkpt lat="43.52079" lon="5.72918">
        <ele>317.9</ele>
        <time>2020-10-18T06:52:53Z</time>
      </trkpt>
      <trkpt lat="43.52094" lon="5.72934">
        <ele>319.5</ele>
        <time>2020-10-18T06:53:06Z</time>
      </trkpt>
      <trkpt lat="43.52112" lon="5.72942">
        <ele>321.22</ele>
        <time>2020-10-18T06:53:20Z</time>
      </trkpt>
      <trkpt lat="43.52131" lon="5.72945">
        <ele>323.95</ele>
        <time>2020-10-18T06:53:35Z</time>
      </trkpt>
      <trkpt lat="43.52149" lon="5.72944">
        <ele>324.45</ele>
        <time>2020-10-18T06:53:57Z</time>
      </trkpt>
      <trkpt lat="43.52168" lon="5.72943">
        <ele>329.33</ele>
        <time>2020-10-18T06:54:22Z</time>
      </trkpt>
      <trkpt lat="43.52186" lon="5.7294">
        <ele>332.8</ele>
        <time>2020-10-18T06:54:40Z</time>
      </trkpt>
      <trkpt lat="43.52204" lon="5.72933">
        <ele>335.5</ele>
        <time>2020-10-18T06:54:56Z</time>
      </trkpt>
      <trkpt lat="43.52221" lon="5.72923">
        <ele>337.12</ele>
        <time>2020-10-18T06:55:10Z</time>
      </trkpt>
      <trkpt lat="43.5224" lon="5.72915">
        <ele>338.6</ele>
        <time>2020-10-18T06:55:23Z</time>
      </trkpt>
      <trkpt lat="43.52259" lon="5.7291">
        <ele>341.85</ele>
        <time>2020-10-18T06:55:37Z</time>
      </trkpt>
      <trkpt lat="43.52278" lon="5.72909">
        <ele>345.17</ele>
        <time>2020-10-18T06:55:51Z</time>
      </trkpt>
      <trkpt lat="43.52297" lon="5.72909">
        <ele>346.41</ele>
        <time>2020-10-18T06:56:04Z</time>
      </trkpt>
      <trkpt lat="43.52316" lon="5.72905">
        <ele>349.03</ele>
        <time>2020-10-18T06:56:17Z</time>
      </trkpt>
      <trkpt lat="43.52334" lon="5.72898">
        <ele>348.11</ele>
        <time>2020-10-18T06:59:39Z</time>
      </trkpt>
      <trkpt lat="43.52352" lon="5.72899">
        <ele>348.07</ele>
        <time>2020-10-18T06:59:51Z</time>
      </trkpt>
      <trkpt lat="43.52371" lon="5.72896">
        <ele>347.75</ele>
        <time>2020-10-18T06:59:57Z</time>
      </trkpt>
      <trkpt lat="43.5239" lon="5.72894">
        <ele>347.73</ele>
        <time>2020-10-18T07:00:04Z</time>
      </trkpt>
      <trkpt lat="43.52408" lon="5.72895">
        <ele>348.82</ele>
        <time>2020-10-18T07:00:13Z</time>
      </trkpt>
      <trkpt lat="43.52425" lon="5.72902">
        <ele>350.41</ele>
        <time>2020-10-18T07:00:23Z</time>
      </trkpt>
      <trkpt lat="43.52444" lon="5.72905">
        <ele>352.41</ele>
        <time>2020-10-18T07:00:35Z</time>
      </trkpt>
      <trkpt lat="43.52461" lon="5.72912">
        <ele>355.84</ele>
        <time>2020-10-18T07:00:50Z</time>
      </trkpt>
      <trkpt lat="43.52479" lon="5.72919">
        <ele>360.08</ele>
        <time>2020-10-18T07:01:09Z</time>
      </trkpt>
      <trkpt lat="43.52498" lon="5.72922">
        <ele>364.62</ele>
        <time>2020-10-18T07:01:29Z</time>
      </trkpt>
      <trkpt lat="43.52516" lon="5.72924">
        <ele>367.1</ele>
        <time>2020-10-18T07:01:48Z</time>
      </trkpt>
      <trkpt lat="43.52525" lon="5.72947">
        <ele>368.95</ele>
        <time>2020-10-18T07:02:06Z</time>
      </trkpt>
      <trkpt lat="43.52524" lon="5.72972">
        <ele>370.34</ele>
        <time>2020-10-18T07:02:21Z</time>
      </trkpt>
      <trkpt lat="43.52525" lon="5.72998">
        <ele>371.62</ele>
        <time>2020-10-18T07:02:36Z</time>
      </trkpt>
      <trkpt lat="43.52526" lon="5.73024">
        <ele>373.8</ele>
        <time>2020-10-18T07:02:52Z</time>
      </trkpt>
      <trkpt lat="43.52524" lon="5.7305">
        <ele>374.35</ele>
        <time>2020-10-18T07:03:11Z</time>
      </trkpt>
      <trkpt lat="43.52522" lon="5.73075">
        <ele>376.57</ele>
        <time>2020-10-18T07:03:24Z</time>
      </trkpt>
      <trkpt lat="43.5252" lon="5.73101">
        <ele>379.52</ele>
        <time>2020-10-18T07:03:38Z</time>
      </trkpt>
      <trkpt lat="43.52521" lon="5.73127">
        <ele>381.7</ele>
        <time>2020-10-18T07:03:53Z</time>
      </trkpt>
      <trkpt lat="43.5252" lon="5.73153">
        <ele>384.58</ele>
        <time>2020-10-18T07:04:08Z</time>
      </trkpt>
      <trkpt lat="43.52524" lon="5.73179">
        <ele>387.87</ele>
        <time>2020-10-18T07:04:23Z</time>
      </trkpt>
      <trkpt lat="43.52528" lon="5.73204">
        <ele>392.06</ele>
        <time>2020-10-18T07:04:39Z</time>
      </trkpt>
      <trkpt lat="43.52534" lon="5.73229">
        <ele>394.6</ele>
        <time>2020-10-18T07:04:53Z</time>
      </trkpt>
      <trkpt lat="43.52539" lon="5.73254">
        <ele>396.72</ele>
        <time>2020-10-18T07:05:07Z</time>
      </trkpt>
      <trkpt lat="43.52554" lon="5.73266">
        <ele>401.07</ele>
        <time>2020-10-18T07:05:22Z</time>
      </trkpt>
      <trkpt lat="43.52573" lon="5.73261">
        <ele>403.43</ele>
        <time>2020-10-18T07:05:35Z</time>
      </trkpt>
      <trkpt lat="43.52589" lon="5.7325">
        <ele>405.36</ele>
        <time>2020-10-18T07:05:49Z</time>
      </trkpt>
      <trkpt lat="43.52607" lon="5.73241">
        <ele>407.02</ele>
        <time>2020-10-18T07:06:03Z</time>
      </trkpt>
      <trkpt lat="43.52623" lon="5.73229">
        <ele>408.86</ele>
        <time>2020-10-18T07:06:17Z</time>
      </trkpt>
      <trkpt lat="43.52642" lon="5.73224">
        <ele>405</ele>
        <time>2020-10-18T07:08:46Z</time>
      </trkpt>
      <trkpt lat="43.52661" lon="5.73221">
        <ele>407.76</ele>
        <time>2020-10-18T07:08:58Z</time>
      </trkpt>
      <trkpt lat="43.52681" lon="5.73222">
        <ele>409.5</ele>
        <time>2020-10-18T07:09:08Z</time>
      </trkpt>
      <trkpt lat="43.52699" lon="5.73226">
        <ele>410.7</ele>
        <time>2020-10-18T07:09:16Z</time>
      </trkpt>
      <trkpt lat="43.52718" lon="5.7323">
        <ele>408.93</ele>
        <time>2020-10-18T07:09:23Z</time>
      </trkpt>
      <trkpt lat="43.52738" lon="5.73235">
        <ele>407.98</ele>
        <time>2020-10-18T07:09:30Z</time>
      </trkpt>
      <trkpt lat="43.52758" lon="5.73238">
        <ele>407.61</ele>
        <time>2020-10-18T07:09:36Z</time>
      </trkpt>
      <trkpt lat="43.52777" lon="5.73242">
        <ele>407.63</ele>
        <time>2020-10-18T07:09:42Z</time>
      </trkpt>
      <trkpt lat="43.52795" lon="5.73243">
        <ele>407.87</ele>
        <time>2020-10-18T07:09:49Z</time>
      </trkpt>
      <trkpt lat="43.52814" lon="5.73235">
        <ele>407.32</ele>
        <time>2020-10-18T07:09:55Z</time>
      </trkpt>
      <trkpt lat="43.52831" lon="5.73227">
        <ele>406.43</ele>
        <time>2020-10-18T07:10:01Z</time>
      </trkpt>
      <trkpt lat="43.52851" lon="5.73217">
        <ele>406.93</ele>
        <time>2020-10-18T07:10:08Z</time>
      </trkpt>
      <trkpt lat="43.52869" lon="5.73211">
        <ele>406.49</ele>
        <time>2020-10-18T07:10:15Z</time>
      </trkpt>
      <trkpt lat="43.52889" lon="5.73215">
        <ele>406.94</ele>
        <time>2020-10-18T07:10:22Z</time>
      </trkpt>
      <trkpt lat="43.52906" lon="5.73225">
        <ele>407.66</ele>
        <time>2020-10-18T07:10:27Z</time>
      </trkpt>
      <trkpt lat="43.52923" lon="5.73237">
        <ele>408.64</ele>
        <time>2020-10-18T07:10:34Z</time>
      </trkpt>
      <trkpt lat="43.52943" lon="5.73243">
        <ele>409.92</ele>
        <time>2020-10-18T07:10:43Z</time>
      </trkpt>
      <trkpt lat="43.52961" lon="5.73239">
        <ele>410.91</ele>
        <time>2020-10-18T07:10:51Z</time>
      </trkpt>
      <trkpt lat="43.52978" lon="5.73228">
        <ele>411.21</ele>
        <time>2020-10-18T07:10:59Z</time>
      </trkpt>
      <trkpt lat="43.52995" lon="5.73216">
        <ele>410.45</ele>
        <time>2020-10-18T07:11:07Z</time>
      </trkpt>
      <trkpt lat="43.5301" lon="5.73198">
        <ele>409.69</ele>
        <time>2020-10-18T07:11:14Z</time>
      </trkpt>
      <trkpt lat="43.5302" lon="5.73174">
        <ele>410.39</ele>
        <time>2020-10-18T07:11:22Z</time>
      </trkpt>
      <trkpt lat="43.53027" lon="5.7315">
        <ele>411.11</ele>
        <time>2020-10-18T07:11:29Z</time>
      </trkpt>
      <trkpt lat="43.53032" lon="5.73125">
        <ele>410.38</ele>
        <time>2020-10-18T07:11:36Z</time>
      </trkpt>
      <trkpt lat="43.53042" lon="5.73103">
        <ele>411.36</ele>
        <time>2020-10-18T07:11:43Z</time>
      </trkpt>
      <trkpt lat="43.53051" lon="5.73081">
        <ele>411.82</ele>
        <time>2020-10-18T07:11:50Z</time>
      </trkpt>
      <trkpt lat="43.53061" lon="5.73056">
        <ele>413.32</ele>
        <time>2020-10-18T07:11:58Z</time>
      </trkpt>
      <trkpt lat="43.5307" lon="5.73032">
        <ele>413.96</ele>
        <time>2020-10-18T07:12:06Z</time>
      </trkpt>
      <trkpt lat="43.53079" lon="5.73009">
        <ele>414.82</ele>
        <time>2020-10-18T07:12:13Z</time>
      </trkpt>
      <trkpt lat="43.53086" lon="5.72983">
        <ele>415.2</ele>
        <time>2020-10-18T07:12:20Z</time>
      </trkpt>
      <trkpt lat="43.53092" lon="5.72956">
        <ele>414.76</ele>
        <time>2020-10-18T07:12:27Z</time>
      </trkpt>
      <trkpt lat="43.53096" lon="5.72929">
        <ele>414.01</ele>
        <time>2020-10-18T07:12:34Z</time>
      </trkpt>
      <trkpt lat="43.53099" lon="5.72902">
        <ele>413.7</ele>
        <time>2020-10-18T07:12:41Z</time>
      </trkpt>
      <trkpt lat="43.531" lon="5.72875">
        <ele>413.18</ele>
        <time>2020-10-18T07:12:48Z</time>
      </trkpt>
      <trkpt lat="43.53102" lon="5.7285">
        <ele>413.84</ele>
        <time>2020-10-18T07:12:55Z</time>
      </trkpt>
      <trkpt lat="43.53106" lon="5.72825">
        <ele>414.25</ele>
        <time>2020-10-18T07:13:02Z</time>
      </trkpt>
      <trkpt lat="43.5311" lon="5.728">
        <ele>414.35</ele>
        <time>2020-10-18T07:13:09Z</time>
      </trkpt>
      <trkpt lat="43.53115" lon="5.72776">
        <ele>415</ele>
        <time>2020-10-18T07:13:16Z</time>
      </trkpt>
      <trkpt lat="43.53121" lon="5.72751">
        <ele>415.84</ele>
        <time>2020-10-18T07:13:23Z</time>
      </trkpt>
      <trkpt lat="43.53134" lon="5.72731">
        <ele>416.25</ele>
        <time>2020-10-18T07:13:30Z</time>
      </trkpt>
      <trkpt lat="43.5315" lon="5.72717">
        <ele>416.26</ele>
        <time>2020-10-18T07:13:36Z</time>
      </trkpt>
      <trkpt lat="43.53169" lon="5.72706">
        <ele>417.11</ele>
        <time>2020-10-18T07:13:42Z</time>
      </trkpt>
      <trkpt lat="43.53187" lon="5.72694">
        <ele>417.62</ele>
        <time>2020-10-18T07:13:48Z</time>
      </trkpt>
      <trkpt lat="43.53199" lon="5.72674">
        <ele>418.29</ele>
        <time>2020-10-18T07:13:54Z</time>
      </trkpt>
      <trkpt lat="43.53212" lon="5.72657">
        <ele>419.8</ele>
        <time>2020-10-18T07:14:00Z</time>
      </trkpt>
      <trkpt lat="43.53229" lon="5.72642">
        <ele>420.37</ele>
        <time>2020-10-18T07:14:06Z</time>
      </trkpt>
      <trkpt lat="43.53245" lon="5.72629">
        <ele>420.57</ele>
        <time>2020-10-18T07:14:13Z</time>
      </trkpt>
      <trkpt lat="43.53262" lon="5.72614">
        <ele>420.45</ele>
        <time>2020-10-18T07:14:20Z</time>
      </trkpt>
      <trkpt lat="43.53276" lon="5.72597">
        <ele>421.1</ele>
        <time>2020-10-18T07:14:27Z</time>
      </trkpt>
      <trkpt lat="43.5329" lon="5.72578">
        <ele>422.67</ele>
        <time>2020-10-18T07:14:34Z</time>
      </trkpt>
      <trkpt lat="43.53302" lon="5.72558">
        <ele>424.04</ele>
        <time>2020-10-18T07:14:41Z</time>
      </trkpt>
      <trkpt lat="43.53315" lon="5.72541">
        <ele>424.83</ele>
        <time>2020-10-18T07:14:47Z</time>
      </trkpt>
      <trkpt lat="43.53331" lon="5.72523">
        <ele>424.98</ele>
        <time>2020-10-18T07:14:53Z</time>
      </trkpt>
      <trkpt lat="43.53348" lon="5.7251">
        <ele>422.42</ele>
        <time>2020-10-18T07:14:59Z</time>
      </trkpt>
      <trkpt lat="43.53366" lon="5.72496">
        <ele>420.82</ele>
        <time>2020-10-18T07:15:05Z</time>
      </trkpt>
      <trkpt lat="43.53377" lon="5.72476">
        <ele>419.57</ele>
        <time>2020-10-18T07:15:12Z</time>
      </trkpt>
      <trkpt lat="43.53381" lon="5.7245">
        <ele>418.97</ele>
        <time>2020-10-18T07:15:19Z</time>
      </trkpt>
      <trkpt lat="43.53379" lon="5.72425">
        <ele>418.08</ele>
        <time>2020-10-18T07:15:26Z</time>
      </trkpt>
      <trkpt lat="43.53373" lon="5.724">
        <ele>416.58</ele>
        <time>2020-10-18T07:15:33Z</time>
      </trkpt>
      <trkpt lat="43.53366" lon="5.72376">
        <ele>415.34</ele>
        <time>2020-10-18T07:15:40Z</time>
      </trkpt>
      <trkpt lat="43.5336" lon="5.72352">
        <ele>414.44</ele>
        <time>2020-10-18T07:15:47Z</time>
      </trkpt>
      <trkpt lat="43.53354" lon="5.72325">
        <ele>413.44</ele>
        <time>2020-10-18T07:15:54Z</time>
      </trkpt>
      <trkpt lat="43.53346" lon="5.72299">
        <ele>412.48</ele>
        <time>2020-10-18T07:16:02Z</time>
      </trkpt>
      <trkpt lat="43.53337" lon="5.72277">
        <ele>412.96</ele>
        <time>2020-10-18T07:16:08Z</time>
      </trkpt>
      <trkpt lat="43.53333" lon="5.7225">
        <ele>414.16</ele>
        <time>2020-10-18T07:16:15Z</time>
      </trkpt>
      <trkpt lat="43.53327" lon="5.72223">
        <ele>415.02</ele>
        <time>2020-10-18T07:16:23Z</time>
      </trkpt>
      <trkpt lat="43.53321" lon="5.72196">
        <ele>416.59</ele>
        <time>2020-10-18T07:16:29Z</time>
      </trkpt>
      <trkpt lat="43.53317" lon="5.72171">
        <ele>417.29</ele>
        <time>2020-10-18T07:16:35Z</time>
      </trkpt>
      <trkpt lat="43.53316" lon="5.72144">
        <ele>417.65</ele>
        <time>2020-10-18T07:16:41Z</time>
      </trkpt>
      <trkpt lat="43.53315" lon="5.72118">
        <ele>418.15</ele>
        <time>2020-10-18T07:16:47Z</time>
      </trkpt>
      <trkpt lat="43.5332" lon="5.72091">
        <ele>419.18</ele>
        <time>2020-10-18T07:16:54Z</time>
      </trkpt>
      <trkpt lat="43.53328" lon="5.72065">
        <ele>420.2</ele>
        <time>2020-10-18T07:17:01Z</time>
      </trkpt>
      <trkpt lat="43.53332" lon="5.72037">
        <ele>421.1</ele>
        <time>2020-10-18T07:17:08Z</time>
      </trkpt>
      <trkpt lat="43.53336" lon="5.72012">
        <ele>422.99</ele>
        <time>2020-10-18T07:17:15Z</time>
      </trkpt>
      <trkpt lat="43.53341" lon="5.71987">
        <ele>424.59</ele>
        <time>2020-10-18T07:17:21Z</time>
      </trkpt>
      <trkpt lat="43.53344" lon="5.71962">
        <ele>425.47</ele>
        <time>2020-10-18T07:17:26Z</time>
      </trkpt>
      <trkpt lat="43.53348" lon="5.71937">
        <ele>426.5</ele>
        <time>2020-10-18T07:17:32Z</time>
      </trkpt>
      <trkpt lat="43.53355" lon="5.71914">
        <ele>427.48</ele>
        <time>2020-10-18T07:17:38Z</time>
      </trkpt>
      <trkpt lat="43.53364" lon="5.71891">
        <ele>429.28</ele>
        <time>2020-10-18T07:17:45Z</time>
      </trkpt>
      <trkpt lat="43.53372" lon="5.71866">
        <ele>430.68</ele>
        <time>2020-10-18T07:17:52Z</time>
      </trkpt>
      <trkpt lat="43.53383" lon="5.71845">
        <ele>431.97</ele>
        <time>2020-10-18T07:17:57Z</time>
      </trkpt>
      <trkpt lat="43.53395" lon="5.71823">
        <ele>434.17</ele>
        <time>2020-10-18T07:18:04Z</time>
      </trkpt>
      <trkpt lat="43.53406" lon="5.71802">
        <ele>434.95</ele>
        <time>2020-10-18T07:18:11Z</time>
      </trkpt>
      <trkpt lat="43.53416" lon="5.71778">
        <ele>435.44</ele>
        <time>2020-10-18T07:18:19Z</time>
      </trkpt>
      <trkpt lat="43.53426" lon="5.71756">
        <ele>435.91</ele>
        <time>2020-10-18T07:18:27Z</time>
      </trkpt>
      <trkpt lat="43.53437" lon="5.71733">
        <ele>436.94</ele>
        <time>2020-10-18T07:18:34Z</time>
      </trkpt>
      <trkpt lat="43.5345" lon="5.71712">
        <ele>437.98</ele>
        <time>2020-10-18T07:18:42Z</time>
      </trkpt>
      <trkpt lat="43.53463" lon="5.7169">
        <ele>438.22</ele>
        <time>2020-10-18T07:18:50Z</time>
      </trkpt>
      <trkpt lat="43.53476" lon="5.71672">
        <ele>438.87</ele>
        <time>2020-10-18T07:18:58Z</time>
      </trkpt>
      <trkpt lat="43.53492" lon="5.71661">
        <ele>439.33</ele>
        <time>2020-10-18T07:19:05Z</time>
      </trkpt>
      <trkpt lat="43.53508" lon="5.71647">
        <ele>439.41</ele>
        <time>2020-10-18T07:19:13Z</time>
      </trkpt>
      <trkpt lat="43.53524" lon="5.7163">
        <ele>439.41</ele>
        <time>2020-10-18T07:19:22Z</time>
      </trkpt>
      <trkpt lat="43.5354" lon="5.71616">
        <ele>440.7</ele>
        <time>2020-10-18T07:19:31Z</time>
      </trkpt>
      <trkpt lat="43.53558" lon="5.71603">
        <ele>440.54</ele>
        <time>2020-10-18T07:19:41Z</time>
      </trkpt>
      <trkpt lat="43.53574" lon="5.71591">
        <ele>440.32</ele>
        <time>2020-10-18T07:19:50Z</time>
      </trkpt>
      <trkpt lat="43.53591" lon="5.7158">
        <ele>440.94</ele>
        <time>2020-10-18T07:20:01Z</time>
      </trkpt>
      <trkpt lat="43.53609" lon="5.7157">
        <ele>442.68</ele>
        <time>2020-10-18T07:20:10Z</time>
      </trkpt>
      <trkpt lat="43.53627" lon="5.71566">
        <ele>444.04</ele>
        <time>2020-10-18T07:20:20Z</time>
      </trkpt>
      <trkpt lat="43.53646" lon="5.71564">
        <ele>447.91</ele>
        <time>2020-10-18T07:20:31Z</time>
      </trkpt>
      <trkpt lat="43.53665" lon="5.7156">
        <ele>451.33</ele>
        <time>2020-10-18T07:20:43Z</time>
      </trkpt>
      <trkpt lat="43.53684" lon="5.7156">
        <ele>453.42</ele>
        <time>2020-10-18T07:20:56Z</time>
      </trkpt>
      <trkpt lat="43.53702" lon="5.71561">
        <ele>450.15</ele>
        <time>2020-10-18T07:21:18Z</time>
      </trkpt>
      <trkpt lat="43.53721" lon="5.71566">
        <ele>450.41</ele>
        <time>2020-10-18T07:21:30Z</time>
      </trkpt>
      <trkpt lat="43.5374" lon="5.71569">
        <ele>453.57</ele>
        <time>2020-10-18T07:21:45Z</time>
      </trkpt>
      <trkpt lat="43.53758" lon="5.71567">
        <ele>455.48</ele>
        <time>2020-10-18T07:21:55Z</time>
      </trkpt>
      <trkpt lat="43.53778" lon="5.71564">
        <ele>458.21</ele>
        <time>2020-10-18T07:22:07Z</time>
      </trkpt>
      <trkpt lat="43.53797" lon="5.7156">
        <ele>458.89</ele>
        <time>2020-10-18T07:22:17Z</time>
      </trkpt>
      <trkpt lat="43.53816" lon="5.71557">
        <ele>458.58</ele>
        <time>2020-10-18T07:22:27Z</time>
      </trkpt>
      <trkpt lat="43.53836" lon="5.71554">
        <ele>461.46</ele>
        <time>2020-10-18T07:22:38Z</time>
      </trkpt>
      <trkpt lat="43.53854" lon="5.71553">
        <ele>460.16</ele>
        <time>2020-10-18T07:22:47Z</time>
      </trkpt>
      <trkpt lat="43.53872" lon="5.71551">
        <ele>460.53</ele>
        <time>2020-10-18T07:22:56Z</time>
      </trkpt>
      <trkpt lat="43.53892" lon="5.71549">
        <ele>459.59</ele>
        <time>2020-10-18T07:23:06Z</time>
      </trkpt>
      <trkpt lat="43.5391" lon="5.71545">
        <ele>460.77</ele>
        <time>2020-10-18T07:23:16Z</time>
      </trkpt>
      <trkpt lat="43.53929" lon="5.71543">
        <ele>461.47</ele>
        <time>2020-10-18T07:23:25Z</time>
      </trkpt>
      <trkpt lat="43.53947" lon="5.7154">
        <ele>464.98</ele>
        <time>2020-10-18T07:23:35Z</time>
      </trkpt>
      <trkpt lat="43.53965" lon="5.71537">
        <ele>466.61</ele>
        <time>2020-10-18T07:23:45Z</time>
      </trkpt>
      <trkpt lat="43.53984" lon="5.71529">
        <ele>467.2</ele>
        <time>2020-10-18T07:23:53Z</time>
      </trkpt>
      <trkpt lat="43.54002" lon="5.71517">
        <ele>467.82</ele>
        <time>2020-10-18T07:23:59Z</time>
      </trkpt>
      <trkpt lat="43.54019" lon="5.71504">
        <ele>469.29</ele>
        <time>2020-10-18T07:24:05Z</time>
      </trkpt>
      <trkpt lat="43.54033" lon="5.71488">
        <ele>470.52</ele>
        <time>2020-10-18T07:24:11Z</time>
      </trkpt>
      <trkpt lat="43.54047" lon="5.71471">
        <ele>471.12</ele>
        <time>2020-10-18T07:24:17Z</time>
      </trkpt>
      <trkpt lat="43.54063" lon="5.71455">
        <ele>471.35</ele>
        <time>2020-10-18T07:24:22Z</time>
      </trkpt>
      <trkpt lat="43.5408" lon="5.7144">
        <ele>470.78</ele>
        <time>2020-10-18T07:24:26Z</time>
      </trkpt>
      <trkpt lat="43.54097" lon="5.71421">
        <ele>469.8</ele>
        <time>2020-10-18T07:24:30Z</time>
      </trkpt>
      <trkpt lat="43.54114" lon="5.71401">
        <ele>469.67</ele>
        <time>2020-10-18T07:24:34Z</time>
      </trkpt>
      <trkpt lat="43.5413" lon="5.71385">
        <ele>469.27</ele>
        <time>2020-10-18T07:24:37Z</time>
      </trkpt>
      <trkpt lat="43.54144" lon="5.71366">
        <ele>468.85</ele>
        <time>2020-10-18T07:24:40Z</time>
      </trkpt>
      <trkpt lat="43.54159" lon="5.71346">
        <ele>467.95</ele>
        <time>2020-10-18T07:24:43Z</time>
      </trkpt>
      <trkpt lat="43.54173" lon="5.71325">
        <ele>467.1</ele>
        <time>2020-10-18T07:24:46Z</time>
      </trkpt>
      <trkpt lat="43.54188" lon="5.71302">
        <ele>466.03</ele>
        <time>2020-10-18T07:24:49Z</time>
      </trkpt>
      <trkpt lat="43.54202" lon="5.71278">
        <ele>465.02</ele>
        <time>2020-10-18T07:24:52Z</time>
      </trkpt>
      <trkpt lat="43.54217" lon="5.71254">
        <ele>464</ele>
        <time>2020-10-18T07:24:55Z</time>
      </trkpt>
      <trkpt lat="43.54233" lon="5.71228">
        <ele>462.65</ele>
        <time>2020-10-18T07:24:58Z</time>
      </trkpt>
      <trkpt lat="43.54247" lon="5.71205">
        <ele>461.25</ele>
        <time>2020-10-18T07:25:01Z</time>
      </trkpt>
      <trkpt lat="43.54263" lon="5.71181">
        <ele>458.85</ele>
        <time>2020-10-18T07:25:05Z</time>
      </trkpt>
      <trkpt lat="43.54277" lon="5.71155">
        <ele>456.12</ele>
        <time>2020-10-18T07:25:09Z</time>
      </trkpt>
      <trkpt lat="43.54288" lon="5.71134">
        <ele>454.56</ele>
        <time>2020-10-18T07:25:12Z</time>
      </trkpt>
      <trkpt lat="43.543" lon="5.71112">
        <ele>453.7</ele>
        <time>2020-10-18T07:25:15Z</time>
      </trkpt>
      <trkpt lat="43.54314" lon="5.71087">
        <ele>452.82</ele>
        <time>2020-10-18T07:25:18Z</time>
      </trkpt>
      <trkpt lat="43.5433" lon="5.71062">
        <ele>451.58</ele>
        <time>2020-10-18T07:25:21Z</time>
      </trkpt>
      <trkpt lat="43.54344" lon="5.71042">
        <ele>450.25</ele>
        <time>2020-10-18T07:25:24Z</time>
      </trkpt>
      <trkpt lat="43.54357" lon="5.71021">
        <ele>449.14</ele>
        <time>2020-10-18T07:25:27Z</time>
      </trkpt>
      <trkpt lat="43.54371" lon="5.71001">
        <ele>448.24</ele>
        <time>2020-10-18T07:25:30Z</time>
      </trkpt>
      <trkpt lat="43.54385" lon="5.70983">
        <ele>447.59</ele>
        <time>2020-10-18T07:25:33Z</time>
      </trkpt>
      <trkpt lat="43.54401" lon="5.7096">
        <ele>446.7</ele>
        <time>2020-10-18T07:25:37Z</time>
      </trkpt>
      <trkpt lat="43.54415" lon="5.70936">
        <ele>445.98</ele>
        <time>2020-10-18T07:25:41Z</time>
      </trkpt>
      <trkpt lat="43.54426" lon="5.70916">
        <ele>445.19</ele>
        <time>2020-10-18T07:25:45Z</time>
      </trkpt>
      <trkpt lat="43.54436" lon="5.70893">
        <ele>444.1</ele>
        <time>2020-10-18T07:25:50Z</time>
      </trkpt>
      <trkpt lat="43.5445" lon="5.70871">
        <ele>444.06</ele>
        <time>2020-10-18T07:25:56Z</time>
      </trkpt>
      <trkpt lat="43.54463" lon="5.70853">
        <ele>443.88</ele>
        <time>2020-10-18T07:26:00Z</time>
      </trkpt>
      <trkpt lat="43.54476" lon="5.70829">
        <ele>444.02</ele>
        <time>2020-10-18T07:26:06Z</time>
      </trkpt>
      <trkpt lat="43.54489" lon="5.7081">
        <ele>445.27</ele>
        <time>2020-10-18T07:26:12Z</time>
      </trkpt>
      <trkpt lat="43.54502" lon="5.70791">
        <ele>446.65</ele>
        <time>2020-10-18T07:26:17Z</time>
      </trkpt>
      <trkpt lat="43.54515" lon="5.70772">
        <ele>448.42</ele>
        <time>2020-10-18T07:26:24Z</time>
      </trkpt>
      <trkpt lat="43.54527" lon="5.70749">
        <ele>449.8</ele>
        <time>2020-10-18T07:26:31Z</time>
      </trkpt>
      <trkpt lat="43.54537" lon="5.70728">
        <ele>451.01</ele>
        <time>2020-10-18T07:26:37Z</time>
      </trkpt>
      <trkpt lat="43.5455" lon="5.70709">
        <ele>453.1</ele>
        <time>2020-10-18T07:26:45Z</time>
      </trkpt>
      <trkpt lat="43.54562" lon="5.70687">
        <ele>453.8</ele>
        <time>2020-10-18T07:26:54Z</time>
      </trkpt>
      <trkpt lat="43.54575" lon="5.70667">
        <ele>454.74</ele>
        <time>2020-10-18T07:27:00Z</time>
      </trkpt>
      <trkpt lat="43.54586" lon="5.70644">
        <ele>454.79</ele>
        <time>2020-10-18T07:27:07Z</time>
      </trkpt>
      <trkpt lat="43.546" lon="5.70627">
        <ele>455.58</ele>
        <time>2020-10-18T07:27:13Z</time>
      </trkpt>
      <trkpt lat="43.54614" lon="5.7061">
        <ele>457.27</ele>
        <time>2020-10-18T07:27:19Z</time>
      </trkpt>
      <trkpt lat="43.54628" lon="5.70592">
        <ele>458.44</ele>
        <time>2020-10-18T07:27:25Z</time>
      </trkpt>
      <trkpt lat="43.54639" lon="5.70572">
        <ele>459.57</ele>
        <time>2020-10-18T07:27:32Z</time>
      </trkpt>
      <trkpt lat="43.54655" lon="5.70559">
        <ele>457.79</ele>
        <time>2020-10-18T07:27:39Z</time>
      </trkpt>
      <trkpt lat="43.54673" lon="5.70558">
        <ele>456.67</ele>
        <time>2020-10-18T07:27:47Z</time>
      </trkpt>
      <trkpt lat="43.54691" lon="5.70566">
        <ele>458.13</ele>
        <time>2020-10-18T07:27:54Z</time>
      </trkpt>
      <trkpt lat="43.54709" lon="5.70573">
        <ele>461.27</ele>
        <time>2020-10-18T07:28:01Z</time>
      </trkpt>
      <trkpt lat="43.54729" lon="5.70576">
        <ele>462.42</ele>
        <time>2020-10-18T07:28:07Z</time>
      </trkpt>
      <trkpt lat="43.54749" lon="5.7058">
        <ele>464.55</ele>
        <time>2020-10-18T07:28:13Z</time>
      </trkpt>
      <trkpt lat="43.54766" lon="5.70586">
        <ele>464.66</ele>
        <time>2020-10-18T07:28:18Z</time>
      </trkpt>
      <trkpt lat="43.54788" lon="5.70591">
        <ele>463.94</ele>
        <time>2020-10-18T07:28:23Z</time>
      </trkpt>
      <trkpt lat="43.54806" lon="5.70594">
        <ele>464.97</ele>
        <time>2020-10-18T07:28:27Z</time>
      </trkpt>
      <trkpt lat="43.54824" lon="5.70594">
        <ele>464.82</ele>
        <time>2020-10-18T07:28:31Z</time>
      </trkpt>
      <trkpt lat="43.54843" lon="5.7059">
        <ele>465.27</ele>
        <time>2020-10-18T07:28:35Z</time>
      </trkpt>
      <trkpt lat="43.54863" lon="5.70586">
        <ele>466.02</ele>
        <time>2020-10-18T07:28:40Z</time>
      </trkpt>
      <trkpt lat="43.54882" lon="5.70589">
        <ele>466.11</ele>
        <time>2020-10-18T07:28:44Z</time>
      </trkpt>
      <trkpt lat="43.54903" lon="5.70594">
        <ele>465.72</ele>
        <time>2020-10-18T07:28:49Z</time>
      </trkpt>
      <trkpt lat="43.54924" lon="5.70595">
        <ele>465.47</ele>
        <time>2020-10-18T07:28:55Z</time>
      </trkpt>
      <trkpt lat="43.54943" lon="5.70595">
        <ele>466.74</ele>
        <time>2020-10-18T07:29:00Z</time>
      </trkpt>
      <trkpt lat="43.54963" lon="5.70597">
        <ele>467.26</ele>
        <time>2020-10-18T07:29:05Z</time>
      </trkpt>
      <trkpt lat="43.54984" lon="5.70598">
        <ele>468.32</ele>
        <time>2020-10-18T07:29:11Z</time>
      </trkpt>
      <trkpt lat="43.55004" lon="5.70599">
        <ele>470.36</ele>
        <time>2020-10-18T07:29:17Z</time>
      </trkpt>
      <trkpt lat="43.55022" lon="5.70601">
        <ele>469.84</ele>
        <time>2020-10-18T07:29:22Z</time>
      </trkpt>
      <trkpt lat="43.55042" lon="5.70607">
        <ele>469.32</ele>
        <time>2020-10-18T07:29:29Z</time>
      </trkpt>
      <trkpt lat="43.55063" lon="5.70611">
        <ele>470.3</ele>
        <time>2020-10-18T07:29:34Z</time>
      </trkpt>
      <trkpt lat="43.55084" lon="5.70619">
        <ele>470.48</ele>
        <time>2020-10-18T07:29:39Z</time>
      </trkpt>
      <trkpt lat="43.55102" lon="5.70624">
        <ele>469.48</ele>
        <time>2020-10-18T07:29:43Z</time>
      </trkpt>
      <trkpt lat="43.5512" lon="5.70628">
        <ele>467.88</ele>
        <time>2020-10-18T07:29:47Z</time>
      </trkpt>
      <trkpt lat="43.55139" lon="5.70634">
        <ele>467.05</ele>
        <time>2020-10-18T07:29:51Z</time>
      </trkpt>
      <trkpt lat="43.5516" lon="5.7064">
        <ele>465.32</ele>
        <time>2020-10-18T07:29:56Z</time>
      </trkpt>
      <trkpt lat="43.5518" lon="5.70642">
        <ele>464.87</ele>
        <time>2020-10-18T07:30:01Z</time>
      </trkpt>
      <trkpt lat="43.55199" lon="5.70646">
        <ele>463.62</ele>
        <time>2020-10-18T07:30:06Z</time>
      </trkpt>
      <trkpt lat="43.5522" lon="5.70652">
        <ele>461.74</ele>
        <time>2020-10-18T07:30:12Z</time>
      </trkpt>
      <trkpt lat="43.5524" lon="5.70657">
        <ele>460.87</ele>
        <time>2020-10-18T07:30:18Z</time>
      </trkpt>
      <trkpt lat="43.55261" lon="5.7066">
        <ele>459.84</ele>
        <time>2020-10-18T07:30:24Z</time>
      </trkpt>
      <trkpt lat="43.55281" lon="5.70663">
        <ele>458.17</ele>
        <time>2020-10-18T07:30:30Z</time>
      </trkpt>
      <trkpt lat="43.55301" lon="5.70664">
        <ele>457.51</ele>
        <time>2020-10-18T07:30:36Z</time>
      </trkpt>
      <trkpt lat="43.55322" lon="5.70666">
        <ele>457.34</ele>
        <time>2020-10-18T07:30:42Z</time>
      </trkpt>
      <trkpt lat="43.55342" lon="5.70668">
        <ele>457.98</ele>
        <time>2020-10-18T07:30:48Z</time>
      </trkpt>
      <trkpt lat="43.55363" lon="5.70668">
        <ele>458.32</ele>
        <time>2020-10-18T07:30:54Z</time>
      </trkpt>
      <trkpt lat="43.55382" lon="5.70666">
        <ele>458.39</ele>
        <time>2020-10-18T07:30:59Z</time>
      </trkpt>
      <trkpt lat="43.55401" lon="5.7066">
        <ele>458.81</ele>
        <time>2020-10-18T07:31:04Z</time>
      </trkpt>
      <trkpt lat="43.55418" lon="5.70652">
        <ele>459.16</ele>
        <time>2020-10-18T07:31:09Z</time>
      </trkpt>
      <trkpt lat="43.55437" lon="5.70645">
        <ele>459.05</ele>
        <time>2020-10-18T07:31:14Z</time>
      </trkpt>
      <trkpt lat="43.55456" lon="5.70636">
        <ele>458.47</ele>
        <time>2020-10-18T07:31:19Z</time>
      </trkpt>
      <trkpt lat="43.55476" lon="5.70627">
        <ele>457.78</ele>
        <time>2020-10-18T07:31:24Z</time>
      </trkpt>
      <trkpt lat="43.55493" lon="5.70618">
        <ele>458.18</ele>
        <time>2020-10-18T07:31:29Z</time>
      </trkpt>
      <trkpt lat="43.55512" lon="5.7061">
        <ele>459.68</ele>
        <time>2020-10-18T07:31:35Z</time>
      </trkpt>
      <trkpt lat="43.5553" lon="5.70602">
        <ele>461.92</ele>
        <time>2020-10-18T07:31:41Z</time>
      </trkpt>
      <trkpt lat="43.55549" lon="5.70598">
        <ele>463.51</ele>
        <time>2020-10-18T07:31:47Z</time>
      </trkpt>
      <trkpt lat="43.55568" lon="5.70591">
        <ele>464.48</ele>
        <time>2020-10-18T07:31:53Z</time>
      </trkpt>
      <trkpt lat="43.55586" lon="5.70582">
        <ele>465.6</ele>
        <time>2020-10-18T07:32:00Z</time>
      </trkpt>
      <trkpt lat="43.55604" lon="5.70571">
        <ele>464.23</ele>
        <time>2020-10-18T07:32:08Z</time>
      </trkpt>
      <trkpt lat="43.55621" lon="5.70582">
        <ele>462.67</ele>
        <time>2020-10-18T07:32:18Z</time>
      </trkpt>
      <trkpt lat="43.55624" lon="5.70607">
        <ele>458.45</ele>
        <time>2020-10-18T07:32:23Z</time>
      </trkpt>
      <trkpt lat="43.55627" lon="5.70632">
        <ele>455.26</ele>
        <time>2020-10-18T07:32:27Z</time>
      </trkpt>
      <trkpt lat="43.55628" lon="5.70665">
        <ele>452.44</ele>
        <time>2020-10-18T07:32:31Z</time>
      </trkpt>
      <trkpt lat="43.55629" lon="5.70694">
        <ele>451.01</ele>
        <time>2020-10-18T07:32:34Z</time>
      </trkpt>
      <trkpt lat="43.55628" lon="5.70721">
        <ele>449.58</ele>
        <time>2020-10-18T07:32:37Z</time>
      </trkpt>
      <trkpt lat="43.55625" lon="5.70746">
        <ele>448.54</ele>
        <time>2020-10-18T07:32:40Z</time>
      </trkpt>
      <trkpt lat="43.55622" lon="5.70771">
        <ele>448.2</ele>
        <time>2020-10-18T07:32:44Z</time>
      </trkpt>
      <trkpt lat="43.55637" lon="5.70755">
        <ele>448.61</ele>
        <time>2020-10-18T07:33:01Z</time>
      </trkpt>
      <trkpt lat="43.55651" lon="5.70736">
        <ele>450.18</ele>
        <time>2020-10-18T07:33:10Z</time>
      </trkpt>
      <trkpt lat="43.55664" lon="5.70718">
        <ele>453.09</ele>
        <time>2020-10-18T07:33:20Z</time>
      </trkpt>
      <trkpt lat="43.55678" lon="5.707">
        <ele>455.5</ele>
        <time>2020-10-18T07:33:31Z</time>
      </trkpt>
      <trkpt lat="43.55692" lon="5.70683">
        <ele>457.4</ele>
        <time>2020-10-18T07:33:41Z</time>
      </trkpt>
      <trkpt lat="43.55707" lon="5.70667">
        <ele>458.92</ele>
        <time>2020-10-18T07:33:51Z</time>
      </trkpt>
      <trkpt lat="43.55723" lon="5.70653">
        <ele>460.54</ele>
        <time>2020-10-18T07:34:02Z</time>
      </trkpt>
      <trkpt lat="43.55741" lon="5.70645">
        <ele>462.1</ele>
        <time>2020-10-18T07:34:13Z</time>
      </trkpt>
      <trkpt lat="43.55759" lon="5.70642">
        <ele>465.37</ele>
        <time>2020-10-18T07:34:25Z</time>
      </trkpt>
      <trkpt lat="43.55777" lon="5.70648">
        <ele>473.09</ele>
        <time>2020-10-18T07:34:38Z</time>
      </trkpt>
      <trkpt lat="43.55795" lon="5.70656">
        <ele>479.67</ele>
        <time>2020-10-18T07:34:49Z</time>
      </trkpt>
      <trkpt lat="43.5581" lon="5.70669">
        <ele>483.8</ele>
        <time>2020-10-18T07:35:00Z</time>
      </trkpt>
      <trkpt lat="43.55828" lon="5.7066">
        <ele>482.95</ele>
        <time>2020-10-18T07:35:11Z</time>
      </trkpt>
      <trkpt lat="43.55836" lon="5.70635">
        <ele>485.49</ele>
        <time>2020-10-18T07:35:23Z</time>
      </trkpt>
      <trkpt lat="43.55847" lon="5.70615">
        <ele>487.62</ele>
        <time>2020-10-18T07:35:34Z</time>
      </trkpt>
      <trkpt lat="43.55861" lon="5.706">
        <ele>489.48</ele>
        <time>2020-10-18T07:35:44Z</time>
      </trkpt>
      <trkpt lat="43.55877" lon="5.70586">
        <ele>491.88</ele>
        <time>2020-10-18T07:35:55Z</time>
      </trkpt>
      <trkpt lat="43.55895" lon="5.70587">
        <ele>493.96</ele>
        <time>2020-10-18T07:36:07Z</time>
      </trkpt>
      <trkpt lat="43.55914" lon="5.70592">
        <ele>497.39</ele>
        <time>2020-10-18T07:36:19Z</time>
      </trkpt>
      <trkpt lat="43.55931" lon="5.70605">
        <ele>500.23</ele>
        <time>2020-10-18T07:36:30Z</time>
      </trkpt>
      <trkpt lat="43.55947" lon="5.70618">
        <ele>502.48</ele>
        <time>2020-10-18T07:36:41Z</time>
      </trkpt>
      <trkpt lat="43.55965" lon="5.70609">
        <ele>502.63</ele>
        <time>2020-10-18T07:36:51Z</time>
      </trkpt>
      <trkpt lat="43.55981" lon="5.70592">
        <ele>503.6</ele>
        <time>2020-10-18T07:37:01Z</time>
      </trkpt>
      <trkpt lat="43.55998" lon="5.70583">
        <ele>505.52</ele>
        <time>2020-10-18T07:37:11Z</time>
      </trkpt>
      <trkpt lat="43.56013" lon="5.70565">
        <ele>505.72</ele>
        <time>2020-10-18T07:37:22Z</time>
      </trkpt>
      <trkpt lat="43.56017" lon="5.7054">
        <ele>505.52</ele>
        <time>2020-10-18T07:37:34Z</time>
      </trkpt>
      <trkpt lat="43.56015" lon="5.70513">
        <ele>504.59</ele>
        <time>2020-10-18T07:37:46Z</time>
      </trkpt>
      <trkpt lat="43.56009" lon="5.70488">
        <ele>504.17</ele>
        <time>2020-10-18T07:37:57Z</time>
      </trkpt>
      <trkpt lat="43.56" lon="5.70465">
        <ele>504.33</ele>
        <time>2020-10-18T07:38:08Z</time>
      </trkpt>
      <trkpt lat="43.55992" lon="5.7044">
        <ele>504.55</ele>
        <time>2020-10-18T07:38:19Z</time>
      </trkpt>
      <trkpt lat="43.55988" lon="5.70414">
        <ele>504.65</ele>
        <time>2020-10-18T07:38:28Z</time>
      </trkpt>
      <trkpt lat="43.5599" lon="5.70388">
        <ele>505.14</ele>
        <time>2020-10-18T07:38:37Z</time>
      </trkpt>
      <trkpt lat="43.55991" lon="5.70361">
        <ele>505.15</ele>
        <time>2020-10-18T07:38:45Z</time>
      </trkpt>
      <trkpt lat="43.55986" lon="5.70334">
        <ele>504.85</ele>
        <time>2020-10-18T07:38:53Z</time>
      </trkpt>
      <trkpt lat="43.55979" lon="5.7031">
        <ele>503.97</ele>
        <time>2020-10-18T07:39:01Z</time>
      </trkpt>
      <trkpt lat="43.55968" lon="5.70288">
        <ele>502.77</ele>
        <time>2020-10-18T07:39:11Z</time>
      </trkpt>
      <trkpt lat="43.55953" lon="5.70271">
        <ele>503.02</ele>
        <time>2020-10-18T07:39:19Z</time>
      </trkpt>
      <trkpt lat="43.55938" lon="5.70255">
        <ele>502.95</ele>
        <time>2020-10-18T07:39:26Z</time>
      </trkpt>
      <trkpt lat="43.55923" lon="5.70237">
        <ele>503.36</ele>
        <time>2020-10-18T07:39:34Z</time>
      </trkpt>
      <trkpt lat="43.5591" lon="5.70218">
        <ele>504.02</ele>
        <time>2020-10-18T07:39:42Z</time>
      </trkpt>
      <trkpt lat="43.55918" lon="5.70195">
        <ele>504.52</ele>
        <time>2020-10-18T07:39:51Z</time>
      </trkpt>
      <trkpt lat="43.55921" lon="5.70169">
        <ele>505.5</ele>
        <time>2020-10-18T07:40:00Z</time>
      </trkpt>
      <trkpt lat="43.55921" lon="5.70144">
        <ele>506.82</ele>
        <time>2020-10-18T07:40:11Z</time>
      </trkpt>
      <trkpt lat="43.55932" lon="5.70123">
        <ele>507.34</ele>
        <time>2020-10-18T07:40:18Z</time>
      </trkpt>
      <trkpt lat="43.55941" lon="5.701">
        <ele>507.64</ele>
        <time>2020-10-18T07:40:24Z</time>
      </trkpt>
      <trkpt lat="43.55952" lon="5.70078">
        <ele>507.27</ele>
        <time>2020-10-18T07:40:30Z</time>
      </trkpt>
      <trkpt lat="43.55962" lon="5.70053">
        <ele>506.58</ele>
        <time>2020-10-18T07:40:36Z</time>
      </trkpt>
      <trkpt lat="43.55969" lon="5.70026">
        <ele>506.27</ele>
        <time>2020-10-18T07:40:41Z</time>
      </trkpt>
      <trkpt lat="43.55972" lon="5.7">
        <ele>505.61</ele>
        <time>2020-10-18T07:40:45Z</time>
      </trkpt>
      <trkpt lat="43.55973" lon="5.69974">
        <ele>504.91</ele>
        <time>2020-10-18T07:40:49Z</time>
      </trkpt>
      <trkpt lat="43.55975" lon="5.69945">
        <ele>503.98</ele>
        <time>2020-10-18T07:40:53Z</time>
      </trkpt>
      <trkpt lat="43.55977" lon="5.69918">
        <ele>503.41</ele>
        <time>2020-10-18T07:40:57Z</time>
      </trkpt>
      <trkpt lat="43.55978" lon="5.69888">
        <ele>502.06</ele>
        <time>2020-10-18T07:41:01Z</time>
      </trkpt>
      <trkpt lat="43.55975" lon="5.6986">
        <ele>501</ele>
        <time>2020-10-18T07:41:05Z</time>
      </trkpt>
      <trkpt lat="43.55973" lon="5.6983">
        <ele>499.92</ele>
        <time>2020-10-18T07:41:10Z</time>
      </trkpt>
      <trkpt lat="43.55971" lon="5.69804">
        <ele>499.45</ele>
        <time>2020-10-18T07:41:14Z</time>
      </trkpt>
      <trkpt lat="43.5597" lon="5.69775">
        <ele>497.73</ele>
        <time>2020-10-18T07:41:18Z</time>
      </trkpt>
      <trkpt lat="43.55975" lon="5.69742">
        <ele>496.26</ele>
        <time>2020-10-18T07:41:22Z</time>
      </trkpt>
      <trkpt lat="43.55979" lon="5.69714">
        <ele>495.21</ele>
        <time>2020-10-18T07:41:25Z</time>
      </trkpt>
      <trkpt lat="43.55975" lon="5.69687">
        <ele>495.39</ele>
        <time>2020-10-18T07:41:28Z</time>
      </trkpt>
      <trkpt lat="43.55966" lon="5.69659">
        <ele>495.09</ele>
        <time>2020-10-18T07:41:32Z</time>
      </trkpt>
      <trkpt lat="43.55965" lon="5.69629">
        <ele>493.6</ele>
        <time>2020-10-18T07:41:36Z</time>
      </trkpt>
      <trkpt lat="43.55966" lon="5.69605">
        <ele>492.05</ele>
        <time>2020-10-18T07:41:39Z</time>
      </trkpt>
      <trkpt lat="43.5597" lon="5.69574">
        <ele>491.19</ele>
        <time>2020-10-18T07:41:43Z</time>
      </trkpt>
      <trkpt lat="43.5597" lon="5.69544">
        <ele>490.36</ele>
        <time>2020-10-18T07:41:47Z</time>
      </trkpt>
      <trkpt lat="43.55969" lon="5.69518">
        <ele>489.71</ele>
        <time>2020-10-18T07:41:51Z</time>
      </trkpt>
      <trkpt lat="43.55971" lon="5.69488">
        <ele>489.69</ele>
        <time>2020-10-18T07:41:56Z</time>
      </trkpt>
      <trkpt lat="43.55974" lon="5.6946">
        <ele>490.04</ele>
        <time>2020-10-18T07:42:01Z</time>
      </trkpt>
      <trkpt lat="43.55982" lon="5.69436">
        <ele>489.77</ele>
        <time>2020-10-18T07:42:06Z</time>
      </trkpt>
      <trkpt lat="43.55993" lon="5.69411">
        <ele>489.74</ele>
        <time>2020-10-18T07:42:11Z</time>
      </trkpt>
      <trkpt lat="43.56005" lon="5.69389">
        <ele>489.45</ele>
        <time>2020-10-18T07:42:15Z</time>
      </trkpt>
      <trkpt lat="43.5602" lon="5.69368">
        <ele>489.17</ele>
        <time>2020-10-18T07:42:19Z</time>
      </trkpt>
      <trkpt lat="43.56037" lon="5.69345">
        <ele>488.77</ele>
        <time>2020-10-18T07:42:23Z</time>
      </trkpt>
      <trkpt lat="43.56053" lon="5.69327">
        <ele>487.9</ele>
        <time>2020-10-18T07:42:27Z</time>
      </trkpt>
      <trkpt lat="43.56052" lon="5.69297">
        <ele>487.24</ele>
        <time>2020-10-18T07:42:32Z</time>
      </trkpt>
      <trkpt lat="43.56039" lon="5.69273">
        <ele>486.41</ele>
        <time>2020-10-18T07:42:36Z</time>
      </trkpt>
      <trkpt lat="43.56024" lon="5.69248">
        <ele>485.14</ele>
        <time>2020-10-18T07:42:40Z</time>
      </trkpt>
      <trkpt lat="43.56013" lon="5.6922">
        <ele>484.12</ele>
        <time>2020-10-18T07:42:44Z</time>
      </trkpt>
      <trkpt lat="43.56" lon="5.69194">
        <ele>483.26</ele>
        <time>2020-10-18T07:42:48Z</time>
      </trkpt>
      <trkpt lat="43.5599" lon="5.69172">
        <ele>482.76</ele>
        <time>2020-10-18T07:42:52Z</time>
      </trkpt>
      <trkpt lat="43.55978" lon="5.6915">
        <ele>482.37</ele>
        <time>2020-10-18T07:42:57Z</time>
      </trkpt>
      <trkpt lat="43.55967" lon="5.69128">
        <ele>481.99</ele>
        <time>2020-10-18T07:43:02Z</time>
      </trkpt>
      <trkpt lat="43.55959" lon="5.69104">
        <ele>481.83</ele>
        <time>2020-10-18T07:43:07Z</time>
      </trkpt>
      <trkpt lat="43.5595" lon="5.69082">
        <ele>481.77</ele>
        <time>2020-10-18T07:43:12Z</time>
      </trkpt>
      <trkpt lat="43.55943" lon="5.69056">
        <ele>481.76</ele>
        <time>2020-10-18T07:43:18Z</time>
      </trkpt>
      <trkpt lat="43.5594" lon="5.69027">
        <ele>481.27</ele>
        <time>2020-10-18T07:43:24Z</time>
      </trkpt>
      <trkpt lat="43.55939" lon="5.68999">
        <ele>481.34</ele>
        <time>2020-10-18T07:43:30Z</time>
      </trkpt>
      <trkpt lat="43.55934" lon="5.68971">
        <ele>481.25</ele>
        <time>2020-10-18T07:43:36Z</time>
      </trkpt>
      <trkpt lat="43.55934" lon="5.68944">
        <ele>481.72</ele>
        <time>2020-10-18T07:43:42Z</time>
      </trkpt>
      <trkpt lat="43.5593" lon="5.68917">
        <ele>482.58</ele>
        <time>2020-10-18T07:43:49Z</time>
      </trkpt>
      <trkpt lat="43.5592" lon="5.68895">
        <ele>483.6</ele>
        <time>2020-10-18T07:43:57Z</time>
      </trkpt>
      <trkpt lat="43.55928" lon="5.68873">
        <ele>485.9</ele>
        <time>2020-10-18T07:44:09Z</time>
      </trkpt>
      <trkpt lat="43.55947" lon="5.68866">
        <ele>488.85</ele>
        <time>2020-10-18T07:44:20Z</time>
      </trkpt>
      <trkpt lat="43.55965" lon="5.68874">
        <ele>497.44</ele>
        <time>2020-10-18T07:44:34Z</time>
      </trkpt>
      <trkpt lat="43.55984" lon="5.68867">
        <ele>501.29</ele>
        <time>2020-10-18T07:44:47Z</time>
      </trkpt>
      <trkpt lat="43.56" lon="5.68855">
        <ele>505.35</ele>
        <time>2020-10-18T07:44:59Z</time>
      </trkpt>
      <trkpt lat="43.56017" lon="5.68847">
        <ele>509.47</ele>
        <time>2020-10-18T07:45:12Z</time>
      </trkpt>
      <trkpt lat="43.56035" lon="5.68837">
        <ele>511.2</ele>
        <time>2020-10-18T07:45:25Z</time>
      </trkpt>
      <trkpt lat="43.56053" lon="5.68826">
        <ele>514.2</ele>
        <time>2020-10-18T07:45:38Z</time>
      </trkpt>
      <trkpt lat="43.56071" lon="5.68832">
        <ele>516.98</ele>
        <time>2020-10-18T07:45:52Z</time>
      </trkpt>
      <trkpt lat="43.5609" lon="5.6884">
        <ele>520.39</ele>
        <time>2020-10-18T07:46:03Z</time>
      </trkpt>
      <trkpt lat="43.56109" lon="5.68844">
        <ele>522.04</ele>
        <time>2020-10-18T07:46:10Z</time>
      </trkpt>
      <trkpt lat="43.56127" lon="5.68844">
        <ele>522.15</ele>
        <time>2020-10-18T07:46:17Z</time>
      </trkpt>
      <trkpt lat="43.56145" lon="5.6885">
        <ele>521.5</ele>
        <time>2020-10-18T07:46:25Z</time>
      </trkpt>
      <trkpt lat="43.56162" lon="5.68862">
        <ele>520</ele>
        <time>2020-10-18T07:46:32Z</time>
      </trkpt>
      <trkpt lat="43.56177" lon="5.68874">
        <ele>517.4</ele>
        <time>2020-10-18T07:46:37Z</time>
      </trkpt>
      <trkpt lat="43.56193" lon="5.6889">
        <ele>516.32</ele>
        <time>2020-10-18T07:46:42Z</time>
      </trkpt>
      <trkpt lat="43.56212" lon="5.68903">
        <ele>515.37</ele>
        <time>2020-10-18T07:46:48Z</time>
      </trkpt>
      <trkpt lat="43.56229" lon="5.68911">
        <ele>515.99</ele>
        <time>2020-10-18T07:46:54Z</time>
      </trkpt>
      <trkpt lat="43.56245" lon="5.68923">
        <ele>516.11</ele>
        <time>2020-10-18T07:47:00Z</time>
      </trkpt>
      <trkpt lat="43.56265" lon="5.68923">
        <ele>515.37</ele>
        <time>2020-10-18T07:47:07Z</time>
      </trkpt>
      <trkpt lat="43.56279" lon="5.68903">
        <ele>513.81</ele>
        <time>2020-10-18T07:47:13Z</time>
      </trkpt>
      <trkpt lat="43.56283" lon="5.68874">
        <ele>511.14</ele>
        <time>2020-10-18T07:47:18Z</time>
      </trkpt>
      <trkpt lat="43.56283" lon="5.68848">
        <ele>509.48</ele>
        <time>2020-10-18T07:47:22Z</time>
      </trkpt>
      <trkpt lat="43.56282" lon="5.68816">
        <ele>507.94</ele>
        <time>2020-10-18T07:47:26Z</time>
      </trkpt>
      <trkpt lat="43.56273" lon="5.68789">
        <ele>507.64</ele>
        <time>2020-10-18T07:47:30Z</time>
      </trkpt>
      <trkpt lat="43.56257" lon="5.68771">
        <ele>507.15</ele>
        <time>2020-10-18T07:47:35Z</time>
      </trkpt>
      <trkpt lat="43.56241" lon="5.68758">
        <ele>508.34</ele>
        <time>2020-10-18T07:47:42Z</time>
      </trkpt>
      <trkpt lat="43.56223" lon="5.68748">
        <ele>510.49</ele>
        <time>2020-10-18T07:47:50Z</time>
      </trkpt>
      <trkpt lat="43.56206" lon="5.68735">
        <ele>512.55</ele>
        <time>2020-10-18T07:47:58Z</time>
      </trkpt>
      <trkpt lat="43.56195" lon="5.68712">
        <ele>515.5</ele>
        <time>2020-10-18T07:48:07Z</time>
      </trkpt>
      <trkpt lat="43.56184" lon="5.68689">
        <ele>518.17</ele>
        <time>2020-10-18T07:48:15Z</time>
      </trkpt>
      <trkpt lat="43.56178" lon="5.68664">
        <ele>519.4</ele>
        <time>2020-10-18T07:48:23Z</time>
      </trkpt>
      <trkpt lat="43.56179" lon="5.68637">
        <ele>519.6</ele>
        <time>2020-10-18T07:48:31Z</time>
      </trkpt>
      <trkpt lat="43.56177" lon="5.6861">
        <ele>520.84</ele>
        <time>2020-10-18T07:48:39Z</time>
      </trkpt>
      <trkpt lat="43.56174" lon="5.68585">
        <ele>520.97</ele>
        <time>2020-10-18T07:48:46Z</time>
      </trkpt>
      <trkpt lat="43.56171" lon="5.68559">
        <ele>521.92</ele>
        <time>2020-10-18T07:48:54Z</time>
      </trkpt>
      <trkpt lat="43.56162" lon="5.68535">
        <ele>522.06</ele>
        <time>2020-10-18T07:49:02Z</time>
      </trkpt>
      <trkpt lat="43.56147" lon="5.68521">
        <ele>522.31</ele>
        <time>2020-10-18T07:49:10Z</time>
      </trkpt>
      <trkpt lat="43.56131" lon="5.68505">
        <ele>523.68</ele>
        <time>2020-10-18T07:49:18Z</time>
      </trkpt>
      <trkpt lat="43.56116" lon="5.68485">
        <ele>525.97</ele>
        <time>2020-10-18T07:49:26Z</time>
      </trkpt>
      <trkpt lat="43.56106" lon="5.68463">
        <ele>526.25</ele>
        <time>2020-10-18T07:49:33Z</time>
      </trkpt>
      <trkpt lat="43.56097" lon="5.68441">
        <ele>526.6</ele>
        <time>2020-10-18T07:49:40Z</time>
      </trkpt>
      <trkpt lat="43.5609" lon="5.68415">
        <ele>526.85</ele>
        <time>2020-10-18T07:49:48Z</time>
      </trkpt>
      <trkpt lat="43.56083" lon="5.68389">
        <ele>527.03</ele>
        <time>2020-10-18T07:49:56Z</time>
      </trkpt>
      <trkpt lat="43.56084" lon="5.68363">
        <ele>526.47</ele>
        <time>2020-10-18T07:50:03Z</time>
      </trkpt>
      <trkpt lat="43.5609" lon="5.68336">
        <ele>525.84</ele>
        <time>2020-10-18T07:50:11Z</time>
      </trkpt>
      <trkpt lat="43.56096" lon="5.68311">
        <ele>526.24</ele>
        <time>2020-10-18T07:50:18Z</time>
      </trkpt>
      <trkpt lat="43.56104" lon="5.68285">
        <ele>527.72</ele>
        <time>2020-10-18T07:50:26Z</time>
      </trkpt>
      <trkpt lat="43.56119" lon="5.68269">
        <ele>527.49</ele>
        <time>2020-10-18T07:50:32Z</time>
      </trkpt>
      <trkpt lat="43.56137" lon="5.68252">
        <ele>525.33</ele>
        <time>2020-10-18T07:50:36Z</time>
      </trkpt>
      <trkpt lat="43.56151" lon="5.6823">
        <ele>524.13</ele>
        <time>2020-10-18T07:50:40Z</time>
      </trkpt>
      <trkpt lat="43.56155" lon="5.68205">
        <ele>523.27</ele>
        <time>2020-10-18T07:50:46Z</time>
      </trkpt>
      <trkpt lat="43.56166" lon="5.68183">
        <ele>523.07</ele>
        <time>2020-10-18T07:50:52Z</time>
      </trkpt>
      <trkpt lat="43.56181" lon="5.68167">
        <ele>523.62</ele>
        <time>2020-10-18T07:50:57Z</time>
      </trkpt>
      <trkpt lat="43.56196" lon="5.6815">
        <ele>523.93</ele>
        <time>2020-10-18T07:51:02Z</time>
      </trkpt>
      <trkpt lat="43.56209" lon="5.6813">
        <ele>524.72</ele>
        <time>2020-10-18T07:51:07Z</time>
      </trkpt>
      <trkpt lat="43.56223" lon="5.68114">
        <ele>525.56</ele>
        <time>2020-10-18T07:51:12Z</time>
      </trkpt>
      <trkpt lat="43.56239" lon="5.681">
        <ele>526.03</ele>
        <time>2020-10-18T07:51:17Z</time>
      </trkpt>
      <trkpt lat="43.56252" lon="5.68079">
        <ele>526.05</ele>
        <time>2020-10-18T07:51:23Z</time>
      </trkpt>
      <trkpt lat="43.5626" lon="5.68053">
        <ele>525.96</ele>
        <time>2020-10-18T07:51:28Z</time>
      </trkpt>
      <trkpt lat="43.56266" lon="5.68026">
        <ele>525.46</ele>
        <time>2020-10-18T07:51:33Z</time>
      </trkpt>
      <trkpt lat="43.56271" lon="5.68001">
        <ele>526</ele>
        <time>2020-10-18T07:51:38Z</time>
      </trkpt>
      <trkpt lat="43.56272" lon="5.67973">
        <ele>527.1</ele>
        <time>2020-10-18T07:51:44Z</time>
      </trkpt>
      <trkpt lat="43.56274" lon="5.67944">
        <ele>527.37</ele>
        <time>2020-10-18T07:51:50Z</time>
      </trkpt>
      <trkpt lat="43.56277" lon="5.67919">
        <ele>526.58</ele>
        <time>2020-10-18T07:51:56Z</time>
      </trkpt>
      <trkpt lat="43.56271" lon="5.67895">
        <ele>524.88</ele>
        <time>2020-10-18T07:52:05Z</time>
      </trkpt>
      <trkpt lat="43.5625" lon="5.67887">
        <ele>522.35</ele>
        <time>2020-10-18T07:52:11Z</time>
      </trkpt>
      <trkpt lat="43.56254" lon="5.67861">
        <ele>517.47</ele>
        <time>2020-10-18T07:52:22Z</time>
      </trkpt>
      <trkpt lat="43.56273" lon="5.67851">
        <ele>515.05</ele>
        <time>2020-10-18T07:52:29Z</time>
      </trkpt>
      <trkpt lat="43.56282" lon="5.67827">
        <ele>512.53</ele>
        <time>2020-10-18T07:53:00Z</time>
      </trkpt>
      <trkpt lat="43.56282" lon="5.67801">
        <ele>512.98</ele>
        <time>2020-10-18T07:53:09Z</time>
      </trkpt>
      <trkpt lat="43.56287" lon="5.67777">
        <ele>514.11</ele>
        <time>2020-10-18T07:53:16Z</time>
      </trkpt>
      <trkpt lat="43.56301" lon="5.67757">
        <ele>516.11</ele>
        <time>2020-10-18T07:53:24Z</time>
      </trkpt>
      <trkpt lat="43.56317" lon="5.67742">
        <ele>517.32</ele>
        <time>2020-10-18T07:53:31Z</time>
      </trkpt>
      <trkpt lat="43.56328" lon="5.6772">
        <ele>518.78</ele>
        <time>2020-10-18T07:53:39Z</time>
      </trkpt>
      <trkpt lat="43.56328" lon="5.67695">
        <ele>519.81</ele>
        <time>2020-10-18T07:53:47Z</time>
      </trkpt>
      <trkpt lat="43.56316" lon="5.67674">
        <ele>521.01</ele>
        <time>2020-10-18T07:53:56Z</time>
      </trkpt>
      <trkpt lat="43.56299" lon="5.67661">
        <ele>522.32</ele>
        <time>2020-10-18T07:54:05Z</time>
      </trkpt>
      <trkpt lat="43.56285" lon="5.67641">
        <ele>523.8</ele>
        <time>2020-10-18T07:54:13Z</time>
      </trkpt>
      <trkpt lat="43.5628" lon="5.67617">
        <ele>525.42</ele>
        <time>2020-10-18T07:54:21Z</time>
      </trkpt>
      <trkpt lat="43.56279" lon="5.6759">
        <ele>525.82</ele>
        <time>2020-10-18T07:54:29Z</time>
      </trkpt>
      <trkpt lat="43.56282" lon="5.67564">
        <ele>527.1</ele>
        <time>2020-10-18T07:54:37Z</time>
      </trkpt>
      <trkpt lat="43.5629" lon="5.67542">
        <ele>527.74</ele>
        <time>2020-10-18T07:54:45Z</time>
      </trkpt>
      <trkpt lat="43.56301" lon="5.67521">
        <ele>529.3</ele>
        <time>2020-10-18T07:54:53Z</time>
      </trkpt>
      <trkpt lat="43.5631" lon="5.67499">
        <ele>530.5</ele>
        <time>2020-10-18T07:55:01Z</time>
      </trkpt>
      <trkpt lat="43.56321" lon="5.67479">
        <ele>532.4</ele>
        <time>2020-10-18T07:55:10Z</time>
      </trkpt>
      <trkpt lat="43.56326" lon="5.67452">
        <ele>534.49</ele>
        <time>2020-10-18T07:55:18Z</time>
      </trkpt>
      <trkpt lat="43.56331" lon="5.67427">
        <ele>536.47</ele>
        <time>2020-10-18T07:55:26Z</time>
      </trkpt>
      <trkpt lat="43.56332" lon="5.674">
        <ele>539.85</ele>
        <time>2020-10-18T07:55:36Z</time>
      </trkpt>
      <trkpt lat="43.56325" lon="5.67375">
        <ele>541.08</ele>
        <time>2020-10-18T07:55:45Z</time>
      </trkpt>
      <trkpt lat="43.56318" lon="5.67349">
        <ele>540.73</ele>
        <time>2020-10-18T07:55:54Z</time>
      </trkpt>
      <trkpt lat="43.563" lon="5.67342">
        <ele>542.2</ele>
        <time>2020-10-18T07:56:05Z</time>
      </trkpt>
      <trkpt lat="43.56282" lon="5.67335">
        <ele>543.62</ele>
        <time>2020-10-18T07:56:13Z</time>
      </trkpt>
      <trkpt lat="43.56268" lon="5.67318">
        <ele>545.5</ele>
        <time>2020-10-18T07:56:21Z</time>
      </trkpt>
      <trkpt lat="43.56259" lon="5.67293">
        <ele>547.2</ele>
        <time>2020-10-18T07:56:29Z</time>
      </trkpt>
      <trkpt lat="43.56252" lon="5.67267">
        <ele>546.49</ele>
        <time>2020-10-18T07:56:37Z</time>
      </trkpt>
      <trkpt lat="43.56251" lon="5.6724">
        <ele>545.25</ele>
        <time>2020-10-18T07:56:45Z</time>
      </trkpt>
      <trkpt lat="43.56252" lon="5.67215">
        <ele>545.23</ele>
        <time>2020-10-18T07:56:52Z</time>
      </trkpt>
      <trkpt lat="43.56251" lon="5.67189">
        <ele>546.66</ele>
        <time>2020-10-18T07:57:00Z</time>
      </trkpt>
      <trkpt lat="43.5625" lon="5.67162">
        <ele>548.73</ele>
        <time>2020-10-18T07:57:08Z</time>
      </trkpt>
      <trkpt lat="43.56248" lon="5.67137">
        <ele>551.19</ele>
        <time>2020-10-18T07:57:16Z</time>
      </trkpt>
      <trkpt lat="43.56247" lon="5.6711">
        <ele>551.37</ele>
        <time>2020-10-18T07:57:24Z</time>
      </trkpt>
      <trkpt lat="43.56242" lon="5.67083">
        <ele>552.84</ele>
        <time>2020-10-18T07:57:33Z</time>
      </trkpt>
      <trkpt lat="43.56239" lon="5.67057">
        <ele>552.34</ele>
        <time>2020-10-18T07:57:41Z</time>
      </trkpt>
      <trkpt lat="43.56237" lon="5.6703">
        <ele>552.05</ele>
        <time>2020-10-18T07:57:49Z</time>
      </trkpt>
      <trkpt lat="43.56236" lon="5.67002">
        <ele>552.74</ele>
        <time>2020-10-18T07:57:57Z</time>
      </trkpt>
      <trkpt lat="43.56226" lon="5.6698">
        <ele>553.52</ele>
        <time>2020-10-18T07:58:05Z</time>
      </trkpt>
      <trkpt lat="43.56212" lon="5.66965">
        <ele>555</ele>
        <time>2020-10-18T07:58:14Z</time>
      </trkpt>
      <trkpt lat="43.56225" lon="5.66946">
        <ele>560.37</ele>
        <time>2020-10-18T07:58:35Z</time>
      </trkpt>
      <trkpt lat="43.56243" lon="5.66952">
        <ele>565.46</ele>
        <time>2020-10-18T07:58:44Z</time>
      </trkpt>
      <trkpt lat="43.56253" lon="5.66976">
        <ele>568.51</ele>
        <time>2020-10-18T07:58:51Z</time>
      </trkpt>
      <trkpt lat="43.56265" lon="5.66995">
        <ele>571.76</ele>
        <time>2020-10-18T07:58:59Z</time>
      </trkpt>
      <trkpt lat="43.5628" lon="5.67014">
        <ele>573.69</ele>
        <time>2020-10-18T07:59:07Z</time>
      </trkpt>
      <trkpt lat="43.56294" lon="5.67032">
        <ele>576.77</ele>
        <time>2020-10-18T07:59:16Z</time>
      </trkpt>
      <trkpt lat="43.56309" lon="5.67046">
        <ele>579.67</ele>
        <time>2020-10-18T07:59:27Z</time>
      </trkpt>
      <trkpt lat="43.56328" lon="5.67048">
        <ele>583.44</ele>
        <time>2020-10-18T07:59:38Z</time>
      </trkpt>
      <trkpt lat="43.56346" lon="5.67047">
        <ele>586.54</ele>
        <time>2020-10-18T07:59:46Z</time>
      </trkpt>
      <trkpt lat="43.56366" lon="5.6705">
        <ele>582.68</ele>
        <time>2020-10-18T07:59:53Z</time>
      </trkpt>
      <trkpt lat="43.56385" lon="5.67048">
        <ele>579.36</ele>
        <time>2020-10-18T08:00:01Z</time>
      </trkpt>
      <trkpt lat="43.56404" lon="5.67041">
        <ele>578.17</ele>
        <time>2020-10-18T08:00:09Z</time>
      </trkpt>
      <trkpt lat="43.56423" lon="5.67036">
        <ele>575.92</ele>
        <time>2020-10-18T08:00:16Z</time>
      </trkpt>
      <trkpt lat="43.56435" lon="5.67015">
        <ele>572.91</ele>
        <time>2020-10-18T08:00:33Z</time>
      </trkpt>
      <trkpt lat="43.56443" lon="5.66991">
        <ele>572.41</ele>
        <time>2020-10-18T08:00:40Z</time>
      </trkpt>
      <trkpt lat="43.56455" lon="5.66968">
        <ele>572.43</ele>
        <time>2020-10-18T08:00:50Z</time>
      </trkpt>
      <trkpt lat="43.56466" lon="5.66948">
        <ele>568.67</ele>
        <time>2020-10-18T08:01:01Z</time>
      </trkpt>
      <trkpt lat="43.56471" lon="5.66923">
        <ele>567.93</ele>
        <time>2020-10-18T08:01:19Z</time>
      </trkpt>
      <trkpt lat="43.56479" lon="5.66898">
        <ele>566.32</ele>
        <time>2020-10-18T08:01:27Z</time>
      </trkpt>
      <trkpt lat="43.56486" lon="5.66874">
        <ele>564.49</ele>
        <time>2020-10-18T08:01:38Z</time>
      </trkpt>
      <trkpt lat="43.5649" lon="5.6685">
        <ele>562.99</ele>
        <time>2020-10-18T08:01:46Z</time>
      </trkpt>
      <trkpt lat="43.56496" lon="5.66825">
        <ele>560.79</ele>
        <time>2020-10-18T08:02:02Z</time>
      </trkpt>
      <trkpt lat="43.56507" lon="5.66803">
        <ele>557.23</ele>
        <time>2020-10-18T08:02:21Z</time>
      </trkpt>
      <trkpt lat="43.56521" lon="5.66787">
        <ele>552.29</ele>
        <time>2020-10-18T08:02:31Z</time>
      </trkpt>
      <trkpt lat="43.56535" lon="5.66767">
        <ele>547.38</ele>
        <time>2020-10-18T08:02:39Z</time>
      </trkpt>
      <trkpt lat="43.56545" lon="5.66741">
        <ele>544.42</ele>
        <time>2020-10-18T08:02:45Z</time>
      </trkpt>
      <trkpt lat="43.56557" lon="5.66717">
        <ele>543.44</ele>
        <time>2020-10-18T08:02:48Z</time>
      </trkpt>
      <trkpt lat="43.5657" lon="5.66699">
        <ele>542.82</ele>
        <time>2020-10-18T08:02:50Z</time>
      </trkpt>
      <trkpt lat="43.56583" lon="5.66669">
        <ele>540.47</ele>
        <time>2020-10-18T08:02:53Z</time>
      </trkpt>
      <trkpt lat="43.566" lon="5.6665">
        <ele>537.95</ele>
        <time>2020-10-18T08:02:56Z</time>
      </trkpt>
      <trkpt lat="43.56618" lon="5.66638">
        <ele>535.92</ele>
        <time>2020-10-18T08:02:59Z</time>
      </trkpt>
      <trkpt lat="43.56635" lon="5.6663">
        <ele>522.75</ele>
        <time>2020-10-18T08:03:42Z</time>
      </trkpt>
      <trkpt lat="43.5665" lon="5.66613">
        <ele>520.66</ele>
        <time>2020-10-18T08:03:52Z</time>
      </trkpt>
      <trkpt lat="43.56664" lon="5.66594">
        <ele>520.45</ele>
        <time>2020-10-18T08:04:01Z</time>
      </trkpt>
      <trkpt lat="43.5668" lon="5.6658">
        <ele>520.66</ele>
        <time>2020-10-18T08:04:09Z</time>
      </trkpt>
      <trkpt lat="43.56694" lon="5.66563">
        <ele>520.06</ele>
        <time>2020-10-18T08:04:17Z</time>
      </trkpt>
      <trkpt lat="43.56714" lon="5.66554">
        <ele>519.3</ele>
        <time>2020-10-18T08:04:23Z</time>
      </trkpt>
      <trkpt lat="43.56735" lon="5.6654">
        <ele>518.52</ele>
        <time>2020-10-18T08:04:27Z</time>
      </trkpt>
      <trkpt lat="43.56757" lon="5.66527">
        <ele>516.39</ele>
        <time>2020-10-18T08:04:30Z</time>
      </trkpt>
      <trkpt lat="43.56777" lon="5.66511">
        <ele>514.3</ele>
        <time>2020-10-18T08:04:33Z</time>
      </trkpt>
      <trkpt lat="43.56796" lon="5.66491">
        <ele>512.03</ele>
        <time>2020-10-18T08:04:36Z</time>
      </trkpt>
      <trkpt lat="43.56815" lon="5.66463">
        <ele>509.76</ele>
        <time>2020-10-18T08:04:39Z</time>
      </trkpt>
      <trkpt lat="43.56827" lon="5.6644">
        <ele>508.67</ele>
        <time>2020-10-18T08:04:41Z</time>
      </trkpt>
      <trkpt lat="43.56839" lon="5.66417">
        <ele>507.4</ele>
        <time>2020-10-18T08:04:43Z</time>
      </trkpt>
      <trkpt lat="43.5685" lon="5.66393">
        <ele>506.36</ele>
        <time>2020-10-18T08:04:45Z</time>
      </trkpt>
      <trkpt lat="43.56861" lon="5.6637">
        <ele>505.27</ele>
        <time>2020-10-18T08:04:47Z</time>
      </trkpt>
      <trkpt lat="43.56871" lon="5.66347">
        <ele>504.18</ele>
        <time>2020-10-18T08:04:49Z</time>
      </trkpt>
      <trkpt lat="43.56882" lon="5.66327">
        <ele>502.64</ele>
        <time>2020-10-18T08:04:51Z</time>
      </trkpt>
      <trkpt lat="43.56891" lon="5.66304">
        <ele>501.32</ele>
        <time>2020-10-18T08:04:53Z</time>
      </trkpt>
      <trkpt lat="43.56896" lon="5.66278">
        <ele>499.41</ele>
        <time>2020-10-18T08:04:55Z</time>
      </trkpt>
      <trkpt lat="43.56899" lon="5.66252">
        <ele>497.91</ele>
        <time>2020-10-18T08:04:57Z</time>
      </trkpt>
      <trkpt lat="43.56907" lon="5.66229">
        <ele>496.34</ele>
        <time>2020-10-18T08:04:59Z</time>
      </trkpt>
      <trkpt lat="43.56923" lon="5.66207">
        <ele>494.03</ele>
        <time>2020-10-18T08:05:02Z</time>
      </trkpt>
      <trkpt lat="43.56941" lon="5.6619">
        <ele>492.16</ele>
        <time>2020-10-18T08:05:05Z</time>
      </trkpt>
      <trkpt lat="43.56958" lon="5.66175">
        <ele>490.95</ele>
        <time>2020-10-18T08:05:08Z</time>
      </trkpt>
      <trkpt lat="43.56975" lon="5.66159">
        <ele>489.44</ele>
        <time>2020-10-18T08:05:12Z</time>
      </trkpt>
      <trkpt lat="43.56993" lon="5.66142">
        <ele>487.67</ele>
        <time>2020-10-18T08:05:16Z</time>
      </trkpt>
      <trkpt lat="43.5701" lon="5.66127">
        <ele>486.41</ele>
        <time>2020-10-18T08:05:20Z</time>
      </trkpt>
      <trkpt lat="43.57027" lon="5.66115">
        <ele>485.22</ele>
        <time>2020-10-18T08:05:24Z</time>
      </trkpt>
      <trkpt lat="43.57042" lon="5.661">
        <ele>484.22</ele>
        <time>2020-10-18T08:05:28Z</time>
      </trkpt>
      <trkpt lat="43.57052" lon="5.66079">
        <ele>483.2</ele>
        <time>2020-10-18T08:05:32Z</time>
      </trkpt>
      <trkpt lat="43.5706" lon="5.66053">
        <ele>482.58</ele>
        <time>2020-10-18T08:05:36Z</time>
      </trkpt>
      <trkpt lat="43.57068" lon="5.66026">
        <ele>482.25</ele>
        <time>2020-10-18T08:05:40Z</time>
      </trkpt>
      <trkpt lat="43.57074" lon="5.66002">
        <ele>481.95</ele>
        <time>2020-10-18T08:05:44Z</time>
      </trkpt>
      <trkpt lat="43.5708" lon="5.65977">
        <ele>481.77</ele>
        <time>2020-10-18T08:05:50Z</time>
      </trkpt>
      <trkpt lat="43.57089" lon="5.6595">
        <ele>481.09</ele>
        <time>2020-10-18T08:05:56Z</time>
      </trkpt>
      <trkpt lat="43.57097" lon="5.65923">
        <ele>480.49</ele>
        <time>2020-10-18T08:06:01Z</time>
      </trkpt>
      <trkpt lat="43.57106" lon="5.65897">
        <ele>480.27</ele>
        <time>2020-10-18T08:06:06Z</time>
      </trkpt>
      <trkpt lat="43.57113" lon="5.65872">
        <ele>480.13</ele>
        <time>2020-10-18T08:06:11Z</time>
      </trkpt>
      <trkpt lat="43.57116" lon="5.65843">
        <ele>480.43</ele>
        <time>2020-10-18T08:06:17Z</time>
      </trkpt>
      <trkpt lat="43.57116" lon="5.65816">
        <ele>481.38</ele>
        <time>2020-10-18T08:06:23Z</time>
      </trkpt>
      <trkpt lat="43.57114" lon="5.65791">
        <ele>483.09</ele>
        <time>2020-10-18T08:06:29Z</time>
      </trkpt>
      <trkpt lat="43.57113" lon="5.65764">
        <ele>485.01</ele>
        <time>2020-10-18T08:06:36Z</time>
      </trkpt>
      <trkpt lat="43.57112" lon="5.65738">
        <ele>487.05</ele>
        <time>2020-10-18T08:06:42Z</time>
      </trkpt>
      <trkpt lat="43.57112" lon="5.65712">
        <ele>489.25</ele>
        <time>2020-10-18T08:06:48Z</time>
      </trkpt>
      <trkpt lat="43.5711" lon="5.65687">
        <ele>490.29</ele>
        <time>2020-10-18T08:06:54Z</time>
      </trkpt>
      <trkpt lat="43.57109" lon="5.65659">
        <ele>491.7</ele>
        <time>2020-10-18T08:07:00Z</time>
      </trkpt>
      <trkpt lat="43.5711" lon="5.65631">
        <ele>492.45</ele>
        <time>2020-10-18T08:07:07Z</time>
      </trkpt>
      <trkpt lat="43.57116" lon="5.65608">
        <ele>492.35</ele>
        <time>2020-10-18T08:07:15Z</time>
      </trkpt>
      <trkpt lat="43.57138" lon="5.656">
        <ele>492.38</ele>
        <time>2020-10-18T08:07:20Z</time>
      </trkpt>
      <trkpt lat="43.57149" lon="5.65577">
        <ele>491.85</ele>
        <time>2020-10-18T08:07:26Z</time>
      </trkpt>
      <trkpt lat="43.57151" lon="5.65551">
        <ele>492.03</ele>
        <time>2020-10-18T08:07:35Z</time>
      </trkpt>
      <trkpt lat="43.57155" lon="5.65524">
        <ele>492.82</ele>
        <time>2020-10-18T08:07:45Z</time>
      </trkpt>
      <trkpt lat="43.5716" lon="5.65498">
        <ele>494.7</ele>
        <time>2020-10-18T08:07:56Z</time>
      </trkpt>
      <trkpt lat="43.57166" lon="5.65474">
        <ele>496.48</ele>
        <time>2020-10-18T08:08:05Z</time>
      </trkpt>
      <trkpt lat="43.57172" lon="5.65449">
        <ele>499.75</ele>
        <time>2020-10-18T08:08:15Z</time>
      </trkpt>
      <trkpt lat="43.57176" lon="5.65423">
        <ele>502.55</ele>
        <time>2020-10-18T08:08:25Z</time>
      </trkpt>
      <trkpt lat="43.57175" lon="5.65396">
        <ele>506.83</ele>
        <time>2020-10-18T08:08:36Z</time>
      </trkpt>
      <trkpt lat="43.57179" lon="5.65371">
        <ele>510.01</ele>
        <time>2020-10-18T08:08:45Z</time>
      </trkpt>
      <trkpt lat="43.57182" lon="5.65345">
        <ele>511.9</ele>
        <time>2020-10-18T08:08:54Z</time>
      </trkpt>
      <trkpt lat="43.57183" lon="5.6532">
        <ele>514.4</ele>
        <time>2020-10-18T08:09:04Z</time>
      </trkpt>
      <trkpt lat="43.57185" lon="5.65293">
        <ele>516.3</ele>
        <time>2020-10-18T08:09:13Z</time>
      </trkpt>
      <trkpt lat="43.57186" lon="5.65268">
        <ele>518.7</ele>
        <time>2020-10-18T08:09:23Z</time>
      </trkpt>
      <trkpt lat="43.57186" lon="5.65242">
        <ele>519.9</ele>
        <time>2020-10-18T08:09:31Z</time>
      </trkpt>
      <trkpt lat="43.57184" lon="5.65217">
        <ele>520.42</ele>
        <time>2020-10-18T08:09:39Z</time>
      </trkpt>
      <trkpt lat="43.5718" lon="5.65191">
        <ele>522.4</ele>
        <time>2020-10-18T08:09:48Z</time>
      </trkpt>
      <trkpt lat="43.57178" lon="5.65164">
        <ele>524.37</ele>
        <time>2020-10-18T08:09:57Z</time>
      </trkpt>
      <trkpt lat="43.57175" lon="5.65139">
        <ele>525.44</ele>
        <time>2020-10-18T08:10:05Z</time>
      </trkpt>
      <trkpt lat="43.57176" lon="5.65112">
        <ele>525.62</ele>
        <time>2020-10-18T08:10:13Z</time>
      </trkpt>
      <trkpt lat="43.57179" lon="5.65087">
        <ele>526.3</ele>
        <time>2020-10-18T08:10:20Z</time>
      </trkpt>
      <trkpt lat="43.57177" lon="5.6506">
        <ele>527.22</ele>
        <time>2020-10-18T08:10:28Z</time>
      </trkpt>
      <trkpt lat="43.57174" lon="5.65034">
        <ele>528.87</ele>
        <time>2020-10-18T08:10:36Z</time>
      </trkpt>
      <trkpt lat="43.57172" lon="5.65009">
        <ele>529.21</ele>
        <time>2020-10-18T08:10:44Z</time>
      </trkpt>
      <trkpt lat="43.57171" lon="5.64981">
        <ele>529.88</ele>
        <time>2020-10-18T08:10:53Z</time>
      </trkpt>
      <trkpt lat="43.57168" lon="5.64954">
        <ele>530.64</ele>
        <time>2020-10-18T08:11:02Z</time>
      </trkpt>
      <trkpt lat="43.57167" lon="5.64928">
        <ele>530.93</ele>
        <time>2020-10-18T08:11:10Z</time>
      </trkpt>
      <trkpt lat="43.57183" lon="5.64941">
        <ele>533.68</ele>
        <time>2020-10-18T08:11:28Z</time>
      </trkpt>
      <trkpt lat="43.57188" lon="5.64968">
        <ele>533.37</ele>
        <time>2020-10-18T08:11:33Z</time>
      </trkpt>
      <trkpt lat="43.5719" lon="5.64993">
        <ele>532.66</ele>
        <time>2020-10-18T08:11:37Z</time>
      </trkpt>
      <trkpt lat="43.57198" lon="5.6502">
        <ele>532.08</ele>
        <time>2020-10-18T08:11:42Z</time>
      </trkpt>
      <trkpt lat="43.57215" lon="5.65039">
        <ele>531.97</ele>
        <time>2020-10-18T08:11:46Z</time>
      </trkpt>
      <trkpt lat="43.57222" lon="5.65068">
        <ele>531.22</ele>
        <time>2020-10-18T08:11:50Z</time>
      </trkpt>
      <trkpt lat="43.57227" lon="5.65096">
        <ele>529.76</ele>
        <time>2020-10-18T08:11:54Z</time>
      </trkpt>
      <trkpt lat="43.57232" lon="5.65121">
        <ele>528.64</ele>
        <time>2020-10-18T08:11:58Z</time>
      </trkpt>
      <trkpt lat="43.57241" lon="5.65144">
        <ele>526.42</ele>
        <time>2020-10-18T08:12:03Z</time>
      </trkpt>
      <trkpt lat="43.57257" lon="5.65158">
        <ele>526.24</ele>
        <time>2020-10-18T08:12:08Z</time>
      </trkpt>
      <trkpt lat="43.57262" lon="5.65187">
        <ele>526.34</ele>
        <time>2020-10-18T08:12:12Z</time>
      </trkpt>
      <trkpt lat="43.57264" lon="5.65218">
        <ele>525.5</ele>
        <time>2020-10-18T08:12:16Z</time>
      </trkpt>
      <trkpt lat="43.57266" lon="5.65247">
        <ele>524.21</ele>
        <time>2020-10-18T08:12:20Z</time>
      </trkpt>
      <trkpt lat="43.57269" lon="5.65276">
        <ele>521.87</ele>
        <time>2020-10-18T08:12:24Z</time>
      </trkpt>
      <trkpt lat="43.5727" lon="5.65308">
        <ele>520.57</ele>
        <time>2020-10-18T08:12:28Z</time>
      </trkpt>
      <trkpt lat="43.57273" lon="5.6534">
        <ele>518.95</ele>
        <time>2020-10-18T08:12:32Z</time>
      </trkpt>
      <trkpt lat="43.57271" lon="5.65366">
        <ele>517.45</ele>
        <time>2020-10-18T08:12:35Z</time>
      </trkpt>
      <trkpt lat="43.57269" lon="5.65392">
        <ele>516.28</ele>
        <time>2020-10-18T08:12:38Z</time>
      </trkpt>
      <trkpt lat="43.57269" lon="5.65421">
        <ele>514.79</ele>
        <time>2020-10-18T08:12:41Z</time>
      </trkpt>
      <trkpt lat="43.57267" lon="5.65452">
        <ele>512.28</ele>
        <time>2020-10-18T08:12:44Z</time>
      </trkpt>
      <trkpt lat="43.57265" lon="5.65483">
        <ele>509.1</ele>
        <time>2020-10-18T08:12:47Z</time>
      </trkpt>
      <trkpt lat="43.57265" lon="5.65514">
        <ele>506.64</ele>
        <time>2020-10-18T08:12:50Z</time>
      </trkpt>
      <trkpt lat="43.57275" lon="5.65539">
        <ele>505.14</ele>
        <time>2020-10-18T08:12:53Z</time>
      </trkpt>
      <trkpt lat="43.57283" lon="5.65565">
        <ele>503.79</ele>
        <time>2020-10-18T08:12:56Z</time>
      </trkpt>
      <trkpt lat="43.57289" lon="5.65592">
        <ele>502.81</ele>
        <time>2020-10-18T08:12:59Z</time>
      </trkpt>
      <trkpt lat="43.5729" lon="5.65619">
        <ele>501.88</ele>
        <time>2020-10-18T08:13:02Z</time>
      </trkpt>
      <trkpt lat="43.57291" lon="5.65651">
        <ele>501.29</ele>
        <time>2020-10-18T08:13:06Z</time>
      </trkpt>
      <trkpt lat="43.57295" lon="5.65676">
        <ele>501.07</ele>
        <time>2020-10-18T08:13:09Z</time>
      </trkpt>
      <trkpt lat="43.57292" lon="5.65708">
        <ele>499.8</ele>
        <time>2020-10-18T08:13:13Z</time>
      </trkpt>
      <trkpt lat="43.5729" lon="5.65737">
        <ele>499.49</ele>
        <time>2020-10-18T08:13:17Z</time>
      </trkpt>
      <trkpt lat="43.57287" lon="5.65769">
        <ele>499.11</ele>
        <time>2020-10-18T08:13:21Z</time>
      </trkpt>
      <trkpt lat="43.57295" lon="5.65798">
        <ele>498.1</ele>
        <time>2020-10-18T08:13:25Z</time>
      </trkpt>
      <trkpt lat="43.57308" lon="5.65823">
        <ele>496.9</ele>
        <time>2020-10-18T08:13:29Z</time>
      </trkpt>
      <trkpt lat="43.57327" lon="5.65831">
        <ele>495.59</ele>
        <time>2020-10-18T08:13:34Z</time>
      </trkpt>
      <trkpt lat="43.57341" lon="5.65812">
        <ele>495.48</ele>
        <time>2020-10-18T08:13:40Z</time>
      </trkpt>
      <trkpt lat="43.57345" lon="5.65788">
        <ele>494.68</ele>
        <time>2020-10-18T08:13:44Z</time>
      </trkpt>
      <trkpt lat="43.57363" lon="5.65797">
        <ele>491.89</ele>
        <time>2020-10-18T08:13:53Z</time>
      </trkpt>
      <trkpt lat="43.57371" lon="5.6577">
        <ele>489.43</ele>
        <time>2020-10-18T08:14:00Z</time>
      </trkpt>
      <trkpt lat="43.5738" lon="5.65745">
        <ele>488.65</ele>
        <time>2020-10-18T08:14:07Z</time>
      </trkpt>
      <trkpt lat="43.5739" lon="5.6572">
        <ele>487.87</ele>
        <time>2020-10-18T08:14:13Z</time>
      </trkpt>
      <trkpt lat="43.57395" lon="5.65693">
        <ele>487.39</ele>
        <time>2020-10-18T08:14:17Z</time>
      </trkpt>
      <trkpt lat="43.57397" lon="5.65665">
        <ele>486.89</ele>
        <time>2020-10-18T08:14:21Z</time>
      </trkpt>
      <trkpt lat="43.574" lon="5.65638">
        <ele>486</ele>
        <time>2020-10-18T08:14:25Z</time>
      </trkpt>
      <trkpt lat="43.57401" lon="5.6561">
        <ele>485.36</ele>
        <time>2020-10-18T08:14:29Z</time>
      </trkpt>
      <trkpt lat="43.57402" lon="5.65584">
        <ele>484.49</ele>
        <time>2020-10-18T08:14:36Z</time>
      </trkpt>
      <trkpt lat="43.57402" lon="5.65557">
        <ele>483.77</ele>
        <time>2020-10-18T08:14:48Z</time>
      </trkpt>
      <trkpt lat="43.57401" lon="5.65532">
        <ele>483.82</ele>
        <time>2020-10-18T08:14:57Z</time>
      </trkpt>
      <trkpt lat="43.57399" lon="5.65505">
        <ele>484.72</ele>
        <time>2020-10-18T08:15:04Z</time>
      </trkpt>
      <trkpt lat="43.57399" lon="5.65478">
        <ele>484.94</ele>
        <time>2020-10-18T08:15:10Z</time>
      </trkpt>
      <trkpt lat="43.57396" lon="5.65451">
        <ele>484.96</ele>
        <time>2020-10-18T08:15:17Z</time>
      </trkpt>
      <trkpt lat="43.57396" lon="5.65426">
        <ele>485.42</ele>
        <time>2020-10-18T08:15:23Z</time>
      </trkpt>
      <trkpt lat="43.57394" lon="5.65398">
        <ele>486.1</ele>
        <time>2020-10-18T08:15:29Z</time>
      </trkpt>
      <trkpt lat="43.57394" lon="5.6537">
        <ele>486.63</ele>
        <time>2020-10-18T08:15:35Z</time>
      </trkpt>
      <trkpt lat="43.57393" lon="5.65343">
        <ele>487.12</ele>
        <time>2020-10-18T08:15:41Z</time>
      </trkpt>
      <trkpt lat="43.57393" lon="5.65315">
        <ele>487.84</ele>
        <time>2020-10-18T08:15:48Z</time>
      </trkpt>
      <trkpt lat="43.57394" lon="5.6529">
        <ele>488.2</ele>
        <time>2020-10-18T08:15:53Z</time>
      </trkpt>
      <trkpt lat="43.57394" lon="5.65262">
        <ele>489.31</ele>
        <time>2020-10-18T08:16:00Z</time>
      </trkpt>
      <trkpt lat="43.57397" lon="5.65234">
        <ele>490.02</ele>
        <time>2020-10-18T08:16:06Z</time>
      </trkpt>
      <trkpt lat="43.57399" lon="5.65206">
        <ele>490.25</ele>
        <time>2020-10-18T08:16:11Z</time>
      </trkpt>
      <trkpt lat="43.57399" lon="5.65177">
        <ele>490.74</ele>
        <time>2020-10-18T08:16:17Z</time>
      </trkpt>
      <trkpt lat="43.57399" lon="5.65151">
        <ele>491.29</ele>
        <time>2020-10-18T08:16:23Z</time>
      </trkpt>
      <trkpt lat="43.57396" lon="5.65125">
        <ele>491.9</ele>
        <time>2020-10-18T08:16:32Z</time>
      </trkpt>
      <trkpt lat="43.5739" lon="5.65099">
        <ele>493.12</ele>
        <time>2020-10-18T08:16:40Z</time>
      </trkpt>
      <trkpt lat="43.57384" lon="5.65071">
        <ele>494.1</ele>
        <time>2020-10-18T08:16:48Z</time>
      </trkpt>
      <trkpt lat="43.57383" lon="5.65044">
        <ele>495.03</ele>
        <time>2020-10-18T08:16:54Z</time>
      </trkpt>
      <trkpt lat="43.57383" lon="5.65018">
        <ele>495.42</ele>
        <time>2020-10-18T08:16:59Z</time>
      </trkpt>
      <trkpt lat="43.57378" lon="5.64993">
        <ele>496.3</ele>
        <time>2020-10-18T08:17:06Z</time>
      </trkpt>
      <trkpt lat="43.57375" lon="5.64965">
        <ele>498.37</ele>
        <time>2020-10-18T08:17:13Z</time>
      </trkpt>
      <trkpt lat="43.57373" lon="5.64939">
        <ele>499.6</ele>
        <time>2020-10-18T08:17:19Z</time>
      </trkpt>
      <trkpt lat="43.57368" lon="5.6491">
        <ele>501.59</ele>
        <time>2020-10-18T08:18:15Z</time>
      </trkpt>
      <trkpt lat="43.57368" lon="5.64886">
        <ele>502.15</ele>
        <time>2020-10-18T08:20:08Z</time>
      </trkpt>
      <trkpt lat="43.57363" lon="5.64861">
        <ele>501.73</ele>
        <time>2020-10-18T08:20:17Z</time>
      </trkpt>
      <trkpt lat="43.57349" lon="5.64843">
        <ele>503</ele>
        <time>2020-10-18T08:20:27Z</time>
      </trkpt>
      <trkpt lat="43.57341" lon="5.64816">
        <ele>504.79</ele>
        <time>2020-10-18T08:20:34Z</time>
      </trkpt>
      <trkpt lat="43.57336" lon="5.64793">
        <ele>506.43</ele>
        <time>2020-10-18T08:20:42Z</time>
      </trkpt>
      <trkpt lat="43.5733" lon="5.64769">
        <ele>508.49</ele>
        <time>2020-10-18T08:20:50Z</time>
      </trkpt>
      <trkpt lat="43.57324" lon="5.64742">
        <ele>510.29</ele>
        <time>2020-10-18T08:20:58Z</time>
      </trkpt>
      <trkpt lat="43.57324" lon="5.64716">
        <ele>511.25</ele>
        <time>2020-10-18T08:21:03Z</time>
      </trkpt>
      <trkpt lat="43.57323" lon="5.64691">
        <ele>512.69</ele>
        <time>2020-10-18T08:21:09Z</time>
      </trkpt>
      <trkpt lat="43.57324" lon="5.64665">
        <ele>513.3</ele>
        <time>2020-10-18T08:21:14Z</time>
      </trkpt>
      <trkpt lat="43.5732" lon="5.64639">
        <ele>514.3</ele>
        <time>2020-10-18T08:21:20Z</time>
      </trkpt>
      <trkpt lat="43.57321" lon="5.64614">
        <ele>515.81</ele>
        <time>2020-10-18T08:21:27Z</time>
      </trkpt>
      <trkpt lat="43.57326" lon="5.6459">
        <ele>516.82</ele>
        <time>2020-10-18T08:21:35Z</time>
      </trkpt>
      <trkpt lat="43.5733" lon="5.64563">
        <ele>517.82</ele>
        <time>2020-10-18T08:21:42Z</time>
      </trkpt>
      <trkpt lat="43.57329" lon="5.64538">
        <ele>518.06</ele>
        <time>2020-10-18T08:21:48Z</time>
      </trkpt>
      <trkpt lat="43.57326" lon="5.64509">
        <ele>518.6</ele>
        <time>2020-10-18T08:21:55Z</time>
      </trkpt>
      <trkpt lat="43.57328" lon="5.64484">
        <ele>519.89</ele>
        <time>2020-10-18T08:22:01Z</time>
      </trkpt>
      <trkpt lat="43.57328" lon="5.64459">
        <ele>521.22</ele>
        <time>2020-10-18T08:22:07Z</time>
      </trkpt>
      <trkpt lat="43.5733" lon="5.64431">
        <ele>521.64</ele>
        <time>2020-10-18T08:22:13Z</time>
      </trkpt>
      <trkpt lat="43.57333" lon="5.64404">
        <ele>521.75</ele>
        <time>2020-10-18T08:22:19Z</time>
      </trkpt>
      <trkpt lat="43.57333" lon="5.64379">
        <ele>522.32</ele>
        <time>2020-10-18T08:22:25Z</time>
      </trkpt>
      <trkpt lat="43.57327" lon="5.64353">
        <ele>522.65</ele>
        <time>2020-10-18T08:22:32Z</time>
      </trkpt>
      <trkpt lat="43.57328" lon="5.64324">
        <ele>522.31</ele>
        <time>2020-10-18T08:22:39Z</time>
      </trkpt>
      <trkpt lat="43.57327" lon="5.64299">
        <ele>522.27</ele>
        <time>2020-10-18T08:22:45Z</time>
      </trkpt>
      <trkpt lat="43.57326" lon="5.64271">
        <ele>521.59</ele>
        <time>2020-10-18T08:22:51Z</time>
      </trkpt>
      <trkpt lat="43.5733" lon="5.64247">
        <ele>521.75</ele>
        <time>2020-10-18T08:22:57Z</time>
      </trkpt>
      <trkpt lat="43.57342" lon="5.64226">
        <ele>521.93</ele>
        <time>2020-10-18T08:23:06Z</time>
      </trkpt>
      <trkpt lat="43.57361" lon="5.64217">
        <ele>522.1</ele>
        <time>2020-10-18T08:23:13Z</time>
      </trkpt>
      <trkpt lat="43.57373" lon="5.64198">
        <ele>524.97</ele>
        <time>2020-10-18T08:23:21Z</time>
      </trkpt>
      <trkpt lat="43.57388" lon="5.64182">
        <ele>526.9</ele>
        <time>2020-10-18T08:23:31Z</time>
      </trkpt>
      <trkpt lat="43.574" lon="5.64164">
        <ele>529.29</ele>
        <time>2020-10-18T08:23:41Z</time>
      </trkpt>
      <trkpt lat="43.57405" lon="5.64139">
        <ele>531.5</ele>
        <time>2020-10-18T08:23:51Z</time>
      </trkpt>
      <trkpt lat="43.5741" lon="5.64114">
        <ele>533.9</ele>
        <time>2020-10-18T08:24:02Z</time>
      </trkpt>
      <trkpt lat="43.57425" lon="5.64087">
        <ele>529.01</ele>
        <time>2020-10-18T08:27:08Z</time>
      </trkpt>
      <trkpt lat="43.5743" lon="5.64062">
        <ele>526.93</ele>
        <time>2020-10-18T08:27:23Z</time>
      </trkpt>
      <trkpt lat="43.57432" lon="5.64035">
        <ele>527.43</ele>
        <time>2020-10-18T08:27:33Z</time>
      </trkpt>
      <trkpt lat="43.57432" lon="5.64009">
        <ele>528.49</ele>
        <time>2020-10-18T08:27:43Z</time>
      </trkpt>
      <trkpt lat="43.57435" lon="5.63984">
        <ele>530.8</ele>
        <time>2020-10-18T08:27:53Z</time>
      </trkpt>
      <trkpt lat="43.5744" lon="5.6396">
        <ele>533</ele>
        <time>2020-10-18T08:28:04Z</time>
      </trkpt>
      <trkpt lat="43.57446" lon="5.63936">
        <ele>534.98</ele>
        <time>2020-10-18T08:28:16Z</time>
      </trkpt>
      <trkpt lat="43.5745" lon="5.63912">
        <ele>537.12</ele>
        <time>2020-10-18T08:28:28Z</time>
      </trkpt>
      <trkpt lat="43.57452" lon="5.63886">
        <ele>538.6</ele>
        <time>2020-10-18T08:28:38Z</time>
      </trkpt>
      <trkpt lat="43.57454" lon="5.6386">
        <ele>541.18</ele>
        <time>2020-10-18T08:28:48Z</time>
      </trkpt>
      <trkpt lat="43.57454" lon="5.63833">
        <ele>541.45</ele>
        <time>2020-10-18T08:28:57Z</time>
      </trkpt>
      <trkpt lat="43.57456" lon="5.63806">
        <ele>540.94</ele>
        <time>2020-10-18T08:29:04Z</time>
      </trkpt>
      <trkpt lat="43.57459" lon="5.63777">
        <ele>539.14</ele>
        <time>2020-10-18T08:29:10Z</time>
      </trkpt>
      <trkpt lat="43.57462" lon="5.6375">
        <ele>538.07</ele>
        <time>2020-10-18T08:29:15Z</time>
      </trkpt>
      <trkpt lat="43.57464" lon="5.63725">
        <ele>538.13</ele>
        <time>2020-10-18T08:29:21Z</time>
      </trkpt>
      <trkpt lat="43.57464" lon="5.63696">
        <ele>539.19</ele>
        <time>2020-10-18T08:29:29Z</time>
      </trkpt>
      <trkpt lat="43.57458" lon="5.6367">
        <ele>539.79</ele>
        <time>2020-10-18T08:29:36Z</time>
      </trkpt>
      <trkpt lat="43.57452" lon="5.63645">
        <ele>541.2</ele>
        <time>2020-10-18T08:29:43Z</time>
      </trkpt>
      <trkpt lat="43.57448" lon="5.63618">
        <ele>543.67</ele>
        <time>2020-10-18T08:29:51Z</time>
      </trkpt>
      <trkpt lat="43.57445" lon="5.6359">
        <ele>545.4</ele>
        <time>2020-10-18T08:29:59Z</time>
      </trkpt>
      <trkpt lat="43.57427" lon="5.63579">
        <ele>546.89</ele>
        <time>2020-10-18T08:30:05Z</time>
      </trkpt>
      <trkpt lat="43.57407" lon="5.63588">
        <ele>547.78</ele>
        <time>2020-10-18T08:30:09Z</time>
      </trkpt>
      <trkpt lat="43.57385" lon="5.63588">
        <ele>548.56</ele>
        <time>2020-10-18T08:30:13Z</time>
      </trkpt>
      <trkpt lat="43.57369" lon="5.6357">
        <ele>549.2</ele>
        <time>2020-10-18T08:30:17Z</time>
      </trkpt>
      <trkpt lat="43.57361" lon="5.63544">
        <ele>549.72</ele>
        <time>2020-10-18T08:30:21Z</time>
      </trkpt>
      <trkpt lat="43.57356" lon="5.63514">
        <ele>550.6</ele>
        <time>2020-10-18T08:30:26Z</time>
      </trkpt>
      <trkpt lat="43.5735" lon="5.63489">
        <ele>551.6</ele>
        <time>2020-10-18T08:30:32Z</time>
      </trkpt>
      <trkpt lat="43.57347" lon="5.63464">
        <ele>552.68</ele>
        <time>2020-10-18T08:30:37Z</time>
      </trkpt>
      <trkpt lat="43.57347" lon="5.63437">
        <ele>553.42</ele>
        <time>2020-10-18T08:30:43Z</time>
      </trkpt>
      <trkpt lat="43.57346" lon="5.63409">
        <ele>554.04</ele>
        <time>2020-10-18T08:30:50Z</time>
      </trkpt>
      <trkpt lat="43.57343" lon="5.63382">
        <ele>554.43</ele>
        <time>2020-10-18T08:30:57Z</time>
      </trkpt>
      <trkpt lat="43.57337" lon="5.63359">
        <ele>555.49</ele>
        <time>2020-10-18T08:31:03Z</time>
      </trkpt>
      <trkpt lat="43.57337" lon="5.6333">
        <ele>556.7</ele>
        <time>2020-10-18T08:31:10Z</time>
      </trkpt>
      <trkpt lat="43.57341" lon="5.63302">
        <ele>557.82</ele>
        <time>2020-10-18T08:31:17Z</time>
      </trkpt>
      <trkpt lat="43.57338" lon="5.63275">
        <ele>558.4</ele>
        <time>2020-10-18T08:31:24Z</time>
      </trkpt>
      <trkpt lat="43.5733" lon="5.63253">
        <ele>558.83</ele>
        <time>2020-10-18T08:31:31Z</time>
      </trkpt>
      <trkpt lat="43.5731" lon="5.63243">
        <ele>559.33</ele>
        <time>2020-10-18T08:31:38Z</time>
      </trkpt>
      <trkpt lat="43.57296" lon="5.63225">
        <ele>559.52</ele>
        <time>2020-10-18T08:31:45Z</time>
      </trkpt>
      <trkpt lat="43.5729" lon="5.63199">
        <ele>561</ele>
        <time>2020-10-18T08:31:53Z</time>
      </trkpt>
      <trkpt lat="43.57276" lon="5.63219">
        <ele>561.77</ele>
        <time>2020-10-18T08:32:13Z</time>
      </trkpt>
      <trkpt lat="43.57273" lon="5.63245">
        <ele>561.45</ele>
        <time>2020-10-18T08:32:19Z</time>
      </trkpt>
      <trkpt lat="43.57269" lon="5.6327">
        <ele>561.17</ele>
        <time>2020-10-18T08:32:25Z</time>
      </trkpt>
      <trkpt lat="43.57264" lon="5.63298">
        <ele>560.87</ele>
        <time>2020-10-18T08:32:31Z</time>
      </trkpt>
      <trkpt lat="43.57261" lon="5.63324">
        <ele>559.69</ele>
        <time>2020-10-18T08:32:37Z</time>
      </trkpt>
      <trkpt lat="43.57259" lon="5.6335">
        <ele>559.45</ele>
        <time>2020-10-18T08:32:43Z</time>
      </trkpt>
      <trkpt lat="43.57258" lon="5.63378">
        <ele>558.97</ele>
        <time>2020-10-18T08:32:49Z</time>
      </trkpt>
      <trkpt lat="43.57258" lon="5.63406">
        <ele>558.47</ele>
        <time>2020-10-18T08:32:55Z</time>
      </trkpt>
      <trkpt lat="43.57252" lon="5.63433">
        <ele>557.77</ele>
        <time>2020-10-18T08:33:01Z</time>
      </trkpt>
      <trkpt lat="43.57241" lon="5.63457">
        <ele>557.65</ele>
        <time>2020-10-18T08:33:07Z</time>
      </trkpt>
      <trkpt lat="43.57232" lon="5.63481">
        <ele>557.75</ele>
        <time>2020-10-18T08:33:13Z</time>
      </trkpt>
      <trkpt lat="43.57223" lon="5.63505">
        <ele>557.79</ele>
        <time>2020-10-18T08:33:19Z</time>
      </trkpt>
      <trkpt lat="43.57217" lon="5.63529">
        <ele>557.19</ele>
        <time>2020-10-18T08:33:25Z</time>
      </trkpt>
      <trkpt lat="43.57214" lon="5.63556">
        <ele>556.46</ele>
        <time>2020-10-18T08:33:31Z</time>
      </trkpt>
      <trkpt lat="43.57206" lon="5.63581">
        <ele>555.19</ele>
        <time>2020-10-18T08:33:37Z</time>
      </trkpt>
      <trkpt lat="43.57196" lon="5.63606">
        <ele>554.73</ele>
        <time>2020-10-18T08:33:44Z</time>
      </trkpt>
      <trkpt lat="43.57191" lon="5.6363">
        <ele>554.57</ele>
        <time>2020-10-18T08:33:51Z</time>
      </trkpt>
      <trkpt lat="43.57186" lon="5.63656">
        <ele>554.44</ele>
        <time>2020-10-18T08:33:59Z</time>
      </trkpt>
      <trkpt lat="43.57177" lon="5.63679">
        <ele>554.73</ele>
        <time>2020-10-18T08:34:06Z</time>
      </trkpt>
      <trkpt lat="43.57164" lon="5.63697">
        <ele>555.43</ele>
        <time>2020-10-18T08:34:13Z</time>
      </trkpt>
      <trkpt lat="43.5715" lon="5.63712">
        <ele>557</ele>
        <time>2020-10-18T08:34:23Z</time>
      </trkpt>
      <trkpt lat="43.57134" lon="5.63726">
        <ele>558.22</ele>
        <time>2020-10-18T08:34:34Z</time>
      </trkpt>
      <trkpt lat="43.57132" lon="5.63753">
        <ele>560.3</ele>
        <time>2020-10-18T08:34:48Z</time>
      </trkpt>
      <trkpt lat="43.5713" lon="5.63778">
        <ele>563.37</ele>
        <time>2020-10-18T08:35:00Z</time>
      </trkpt>
      <trkpt lat="43.57133" lon="5.63803">
        <ele>565.66</ele>
        <time>2020-10-18T08:35:10Z</time>
      </trkpt>
      <trkpt lat="43.5713" lon="5.63827">
        <ele>567.1</ele>
        <time>2020-10-18T08:35:20Z</time>
      </trkpt>
      <trkpt lat="43.57129" lon="5.63853">
        <ele>568.42</ele>
        <time>2020-10-18T08:35:30Z</time>
      </trkpt>
      <trkpt lat="43.57127" lon="5.6388">
        <ele>569.02</ele>
        <time>2020-10-18T08:35:40Z</time>
      </trkpt>
      <trkpt lat="43.57123" lon="5.63905">
        <ele>569.73</ele>
        <time>2020-10-18T08:35:50Z</time>
      </trkpt>
      <trkpt lat="43.57114" lon="5.63928">
        <ele>570.53</ele>
        <time>2020-10-18T08:35:59Z</time>
      </trkpt>
      <trkpt lat="43.57104" lon="5.6395">
        <ele>571.68</ele>
        <time>2020-10-18T08:36:09Z</time>
      </trkpt>
      <trkpt lat="43.57098" lon="5.63975">
        <ele>573.02</ele>
        <time>2020-10-18T08:36:19Z</time>
      </trkpt>
      <trkpt lat="43.5709" lon="5.64">
        <ele>574.5</ele>
        <time>2020-10-18T08:36:29Z</time>
      </trkpt>
      <trkpt lat="43.57082" lon="5.64026">
        <ele>576.32</ele>
        <time>2020-10-18T08:36:39Z</time>
      </trkpt>
      <trkpt lat="43.57073" lon="5.64048">
        <ele>577.3</ele>
        <time>2020-10-18T08:36:47Z</time>
      </trkpt>
      <trkpt lat="43.57068" lon="5.64073">
        <ele>578.32</ele>
        <time>2020-10-18T08:36:55Z</time>
      </trkpt>
      <trkpt lat="43.5706" lon="5.64096">
        <ele>578.95</ele>
        <time>2020-10-18T08:37:03Z</time>
      </trkpt>
      <trkpt lat="43.5705" lon="5.64118">
        <ele>579.52</ele>
        <time>2020-10-18T08:37:10Z</time>
      </trkpt>
      <trkpt lat="43.57044" lon="5.64142">
        <ele>580.52</ele>
        <time>2020-10-18T08:37:19Z</time>
      </trkpt>
      <trkpt lat="43.57039" lon="5.64168">
        <ele>581.88</ele>
        <time>2020-10-18T08:37:29Z</time>
      </trkpt>
      <trkpt lat="43.57036" lon="5.64193">
        <ele>583.5</ele>
        <time>2020-10-18T08:37:38Z</time>
      </trkpt>
      <trkpt lat="43.57031" lon="5.6422">
        <ele>585.3</ele>
        <time>2020-10-18T08:37:48Z</time>
      </trkpt>
      <trkpt lat="43.57024" lon="5.64244">
        <ele>587.02</ele>
        <time>2020-10-18T08:37:57Z</time>
      </trkpt>
      <trkpt lat="43.57016" lon="5.64267">
        <ele>588.59</ele>
        <time>2020-10-18T08:38:06Z</time>
      </trkpt>
      <trkpt lat="43.57009" lon="5.6429">
        <ele>589.92</ele>
        <time>2020-10-18T08:38:15Z</time>
      </trkpt>
      <trkpt lat="43.57002" lon="5.64315">
        <ele>591.02</ele>
        <time>2020-10-18T08:38:24Z</time>
      </trkpt>
      <trkpt lat="43.56997" lon="5.6434">
        <ele>592.3</ele>
        <time>2020-10-18T08:38:32Z</time>
      </trkpt>
      <trkpt lat="43.56992" lon="5.64364">
        <ele>593.12</ele>
        <time>2020-10-18T08:38:40Z</time>
      </trkpt>
      <trkpt lat="43.56982" lon="5.64387">
        <ele>594.12</ele>
        <time>2020-10-18T08:38:49Z</time>
      </trkpt>
      <trkpt lat="43.56972" lon="5.6441">
        <ele>595.52</ele>
        <time>2020-10-18T08:38:58Z</time>
      </trkpt>
      <trkpt lat="43.56962" lon="5.64434">
        <ele>597.67</ele>
        <time>2020-10-18T08:39:07Z</time>
      </trkpt>
      <trkpt lat="43.56949" lon="5.64452">
        <ele>598.72</ele>
        <time>2020-10-18T08:39:15Z</time>
      </trkpt>
      <trkpt lat="43.56932" lon="5.64468">
        <ele>600.52</ele>
        <time>2020-10-18T08:39:24Z</time>
      </trkpt>
      <trkpt lat="43.56916" lon="5.64479">
        <ele>601.06</ele>
        <time>2020-10-18T08:39:30Z</time>
      </trkpt>
      <trkpt lat="43.56903" lon="5.64503">
        <ele>600.93</ele>
        <time>2020-10-18T08:39:35Z</time>
      </trkpt>
      <trkpt lat="43.5689" lon="5.64522">
        <ele>601.96</ele>
        <time>2020-10-18T08:39:40Z</time>
      </trkpt>
      <trkpt lat="43.56873" lon="5.64535">
        <ele>603.08</ele>
        <time>2020-10-18T08:39:47Z</time>
      </trkpt>
      <trkpt lat="43.56854" lon="5.64539">
        <ele>604.5</ele>
        <time>2020-10-18T08:39:54Z</time>
      </trkpt>
      <trkpt lat="43.56833" lon="5.64535">
        <ele>605.6</ele>
        <time>2020-10-18T08:40:02Z</time>
      </trkpt>
      <trkpt lat="43.56814" lon="5.64525">
        <ele>606.68</ele>
        <time>2020-10-18T08:40:09Z</time>
      </trkpt>
      <trkpt lat="43.56796" lon="5.64519">
        <ele>607.9</ele>
        <time>2020-10-18T08:40:16Z</time>
      </trkpt>
      <trkpt lat="43.56777" lon="5.64512">
        <ele>609.03</ele>
        <time>2020-10-18T08:40:23Z</time>
      </trkpt>
      <trkpt lat="43.56759" lon="5.64503">
        <ele>609.82</ele>
        <time>2020-10-18T08:40:31Z</time>
      </trkpt>
      <trkpt lat="43.56739" lon="5.64496">
        <ele>610.16</ele>
        <time>2020-10-18T08:40:38Z</time>
      </trkpt>
      <trkpt lat="43.56721" lon="5.64488">
        <ele>609.67</ele>
        <time>2020-10-18T08:40:45Z</time>
      </trkpt>
      <trkpt lat="43.56703" lon="5.64481">
        <ele>609.37</ele>
        <time>2020-10-18T08:40:52Z</time>
      </trkpt>
      <trkpt lat="43.56685" lon="5.64476">
        <ele>608.79</ele>
        <time>2020-10-18T08:40:58Z</time>
      </trkpt>
      <trkpt lat="43.56666" lon="5.64469">
        <ele>608.17</ele>
        <time>2020-10-18T08:41:05Z</time>
      </trkpt>
      <trkpt lat="43.56646" lon="5.64464">
        <ele>608.05</ele>
        <time>2020-10-18T08:41:12Z</time>
      </trkpt>
      <trkpt lat="43.56628" lon="5.64456">
        <ele>607.95</ele>
        <time>2020-10-18T08:41:19Z</time>
      </trkpt>
      <trkpt lat="43.5661" lon="5.64451">
        <ele>608.24</ele>
        <time>2020-10-18T08:41:25Z</time>
      </trkpt>
      <trkpt lat="43.56591" lon="5.64446">
        <ele>608.66</ele>
        <time>2020-10-18T08:41:34Z</time>
      </trkpt>
      <trkpt lat="43.56574" lon="5.64438">
        <ele>608.65</ele>
        <time>2020-10-18T08:41:40Z</time>
      </trkpt>
      <trkpt lat="43.56555" lon="5.6443">
        <ele>608.87</ele>
        <time>2020-10-18T08:41:46Z</time>
      </trkpt>
      <trkpt lat="43.56536" lon="5.64422">
        <ele>609.19</ele>
        <time>2020-10-18T08:41:52Z</time>
      </trkpt>
      <trkpt lat="43.56518" lon="5.64415">
        <ele>609.27</ele>
        <time>2020-10-18T08:41:57Z</time>
      </trkpt>
      <trkpt lat="43.565" lon="5.64407">
        <ele>608.32</ele>
        <time>2020-10-18T08:42:01Z</time>
      </trkpt>
      <trkpt lat="43.56482" lon="5.64399">
        <ele>607.78</ele>
        <time>2020-10-18T08:42:04Z</time>
      </trkpt>
      <trkpt lat="43.56462" lon="5.64396">
        <ele>606.48</ele>
        <time>2020-10-18T08:42:08Z</time>
      </trkpt>
      <trkpt lat="43.56457" lon="5.64426">
        <ele>603.95</ele>
        <time>2020-10-18T08:42:13Z</time>
      </trkpt>
      <trkpt lat="43.56455" lon="5.6445">
        <ele>602.65</ele>
        <time>2020-10-18T08:42:16Z</time>
      </trkpt>
      <trkpt lat="43.56446" lon="5.64479">
        <ele>601.04</ele>
        <time>2020-10-18T08:42:20Z</time>
      </trkpt>
      <trkpt lat="43.56449" lon="5.64509">
        <ele>599.22</ele>
        <time>2020-10-18T08:42:25Z</time>
      </trkpt>
      <trkpt lat="43.56455" lon="5.64535">
        <ele>598.16</ele>
        <time>2020-10-18T08:42:29Z</time>
      </trkpt>
      <trkpt lat="43.56465" lon="5.64559">
        <ele>597.83</ele>
        <time>2020-10-18T08:42:33Z</time>
      </trkpt>
      <trkpt lat="43.56472" lon="5.64588">
        <ele>598.92</ele>
        <time>2020-10-18T08:42:38Z</time>
      </trkpt>
      <trkpt lat="43.56475" lon="5.64615">
        <ele>599.14</ele>
        <time>2020-10-18T08:42:43Z</time>
      </trkpt>
      <trkpt lat="43.56479" lon="5.64641">
        <ele>599.64</ele>
        <time>2020-10-18T08:42:48Z</time>
      </trkpt>
      <trkpt lat="43.56486" lon="5.64665">
        <ele>598.69</ele>
        <time>2020-10-18T08:42:53Z</time>
      </trkpt>
      <trkpt lat="43.56493" lon="5.64695">
        <ele>597.1</ele>
        <time>2020-10-18T08:42:58Z</time>
      </trkpt>
      <trkpt lat="43.56486" lon="5.64719">
        <ele>596.3</ele>
        <time>2020-10-18T08:43:02Z</time>
      </trkpt>
      <trkpt lat="43.56472" lon="5.64746">
        <ele>595.16</ele>
        <time>2020-10-18T08:43:06Z</time>
      </trkpt>
      <trkpt lat="43.56457" lon="5.64764">
        <ele>594.12</ele>
        <time>2020-10-18T08:43:09Z</time>
      </trkpt>
      <trkpt lat="43.56443" lon="5.64784">
        <ele>592.96</ele>
        <time>2020-10-18T08:43:12Z</time>
      </trkpt>
      <trkpt lat="43.56428" lon="5.64803">
        <ele>591.88</ele>
        <time>2020-10-18T08:43:15Z</time>
      </trkpt>
      <trkpt lat="43.56411" lon="5.64825">
        <ele>590.92</ele>
        <time>2020-10-18T08:43:19Z</time>
      </trkpt>
      <trkpt lat="43.56394" lon="5.64834">
        <ele>589.82</ele>
        <time>2020-10-18T08:43:22Z</time>
      </trkpt>
      <trkpt lat="43.56375" lon="5.64837">
        <ele>589.21</ele>
        <time>2020-10-18T08:43:25Z</time>
      </trkpt>
      <trkpt lat="43.56356" lon="5.64832">
        <ele>588.59</ele>
        <time>2020-10-18T08:43:29Z</time>
      </trkpt>
      <trkpt lat="43.56334" lon="5.64827">
        <ele>588.07</ele>
        <time>2020-10-18T08:43:34Z</time>
      </trkpt>
      <trkpt lat="43.56317" lon="5.64808">
        <ele>587.85</ele>
        <time>2020-10-18T08:43:39Z</time>
      </trkpt>
      <trkpt lat="43.56306" lon="5.64789">
        <ele>587.95</ele>
        <time>2020-10-18T08:43:43Z</time>
      </trkpt>
      <trkpt lat="43.56293" lon="5.64765">
        <ele>588.05</ele>
        <time>2020-10-18T08:43:48Z</time>
      </trkpt>
      <trkpt lat="43.56282" lon="5.64742">
        <ele>588.52</ele>
        <time>2020-10-18T08:43:53Z</time>
      </trkpt>
      <trkpt lat="43.56267" lon="5.6472">
        <ele>588.65</ele>
        <time>2020-10-18T08:43:58Z</time>
      </trkpt>
      <trkpt lat="43.56248" lon="5.64716">
        <ele>587.74</ele>
        <time>2020-10-18T08:44:03Z</time>
      </trkpt>
      <trkpt lat="43.56228" lon="5.64718">
        <ele>586.58</ele>
        <time>2020-10-18T08:44:08Z</time>
      </trkpt>
      <trkpt lat="43.56206" lon="5.64723">
        <ele>585.69</ele>
        <time>2020-10-18T08:44:12Z</time>
      </trkpt>
      <trkpt lat="43.56186" lon="5.64724">
        <ele>584.88</ele>
        <time>2020-10-18T08:44:15Z</time>
      </trkpt>
      <trkpt lat="43.56164" lon="5.64723">
        <ele>584.45</ele>
        <time>2020-10-18T08:44:19Z</time>
      </trkpt>
      <trkpt lat="43.56147" lon="5.64732">
        <ele>584.11</ele>
        <time>2020-10-18T08:44:28Z</time>
      </trkpt>
      <trkpt lat="43.56134" lon="5.6475">
        <ele>585.02</ele>
        <time>2020-10-18T08:44:36Z</time>
      </trkpt>
      <trkpt lat="43.56118" lon="5.64766">
        <ele>585.7</ele>
        <time>2020-10-18T08:44:46Z</time>
      </trkpt>
      <trkpt lat="43.56106" lon="5.64784">
        <ele>587.68</ele>
        <time>2020-10-18T08:44:56Z</time>
      </trkpt>
      <trkpt lat="43.56103" lon="5.64811">
        <ele>589.83</ele>
        <time>2020-10-18T08:45:05Z</time>
      </trkpt>
      <trkpt lat="43.56106" lon="5.64836">
        <ele>592</ele>
        <time>2020-10-18T08:45:13Z</time>
      </trkpt>
      <trkpt lat="43.56116" lon="5.64859">
        <ele>593.62</ele>
        <time>2020-10-18T08:45:20Z</time>
      </trkpt>
      <trkpt lat="43.56126" lon="5.64885">
        <ele>595.55</ele>
        <time>2020-10-18T08:45:26Z</time>
      </trkpt>
      <trkpt lat="43.56128" lon="5.64913">
        <ele>596.18</ele>
        <time>2020-10-18T08:45:32Z</time>
      </trkpt>
      <trkpt lat="43.56128" lon="5.6494">
        <ele>596.75</ele>
        <time>2020-10-18T08:45:38Z</time>
      </trkpt>
      <trkpt lat="43.5613" lon="5.64967">
        <ele>598.29</ele>
        <time>2020-10-18T08:45:44Z</time>
      </trkpt>
      <trkpt lat="43.56134" lon="5.64993">
        <ele>598.41</ele>
        <time>2020-10-18T08:45:50Z</time>
      </trkpt>
      <trkpt lat="43.56139" lon="5.65017">
        <ele>597.49</ele>
        <time>2020-10-18T08:45:55Z</time>
      </trkpt>
      <trkpt lat="43.56145" lon="5.65045">
        <ele>597.06</ele>
        <time>2020-10-18T08:46:01Z</time>
      </trkpt>
      <trkpt lat="43.56152" lon="5.65073">
        <ele>597.69</ele>
        <time>2020-10-18T08:46:07Z</time>
      </trkpt>
      <trkpt lat="43.56158" lon="5.65099">
        <ele>598.95</ele>
        <time>2020-10-18T08:46:13Z</time>
      </trkpt>
      <trkpt lat="43.56166" lon="5.65123">
        <ele>600.34</ele>
        <time>2020-10-18T08:46:19Z</time>
      </trkpt>
      <trkpt lat="43.56174" lon="5.65146">
        <ele>600.69</ele>
        <time>2020-10-18T08:46:25Z</time>
      </trkpt>
      <trkpt lat="43.5618" lon="5.6517">
        <ele>601.26</ele>
        <time>2020-10-18T08:46:31Z</time>
      </trkpt>
      <trkpt lat="43.56184" lon="5.65198">
        <ele>600.95</ele>
        <time>2020-10-18T08:46:37Z</time>
      </trkpt>
      <trkpt lat="43.56185" lon="5.65227">
        <ele>601.68</ele>
        <time>2020-10-18T08:46:43Z</time>
      </trkpt>
      <trkpt lat="43.56186" lon="5.65252">
        <ele>602.44</ele>
        <time>2020-10-18T08:46:48Z</time>
      </trkpt>
      <trkpt lat="43.56189" lon="5.6528">
        <ele>602.11</ele>
        <time>2020-10-18T08:46:54Z</time>
      </trkpt>
      <trkpt lat="43.56191" lon="5.65308">
        <ele>602.83</ele>
        <time>2020-10-18T08:47:00Z</time>
      </trkpt>
      <trkpt lat="43.56189" lon="5.65334">
        <ele>603.02</ele>
        <time>2020-10-18T08:47:06Z</time>
      </trkpt>
      <trkpt lat="43.56186" lon="5.65359">
        <ele>603.24</ele>
        <time>2020-10-18T08:47:12Z</time>
      </trkpt>
      <trkpt lat="43.56183" lon="5.65384">
        <ele>603.84</ele>
        <time>2020-10-18T08:47:18Z</time>
      </trkpt>
      <trkpt lat="43.56178" lon="5.65408">
        <ele>603.41</ele>
        <time>2020-10-18T08:47:24Z</time>
      </trkpt>
      <trkpt lat="43.56177" lon="5.65436">
        <ele>603.07</ele>
        <time>2020-10-18T08:47:30Z</time>
      </trkpt>
      <trkpt lat="43.56179" lon="5.65465">
        <ele>602.95</ele>
        <time>2020-10-18T08:47:35Z</time>
      </trkpt>
      <trkpt lat="43.56178" lon="5.65496">
        <ele>602.94</ele>
        <time>2020-10-18T08:47:40Z</time>
      </trkpt>
      <trkpt lat="43.56175" lon="5.6552">
        <ele>602.57</ele>
        <time>2020-10-18T08:47:44Z</time>
      </trkpt>
      <trkpt lat="43.56172" lon="5.65547">
        <ele>602.29</ele>
        <time>2020-10-18T08:47:48Z</time>
      </trkpt>
      <trkpt lat="43.5617" lon="5.65574">
        <ele>601.78</ele>
        <time>2020-10-18T08:47:52Z</time>
      </trkpt>
      <trkpt lat="43.56171" lon="5.656">
        <ele>601.26</ele>
        <time>2020-10-18T08:47:56Z</time>
      </trkpt>
      <trkpt lat="43.56171" lon="5.65627">
        <ele>600.51</ele>
        <time>2020-10-18T08:48:00Z</time>
      </trkpt>
      <trkpt lat="43.56169" lon="5.65655">
        <ele>599.78</ele>
        <time>2020-10-18T08:48:04Z</time>
      </trkpt>
      <trkpt lat="43.56166" lon="5.65683">
        <ele>599.37</ele>
        <time>2020-10-18T08:48:08Z</time>
      </trkpt>
      <trkpt lat="43.5616" lon="5.65709">
        <ele>598.78</ele>
        <time>2020-10-18T08:48:12Z</time>
      </trkpt>
      <trkpt lat="43.56155" lon="5.65735">
        <ele>598.27</ele>
        <time>2020-10-18T08:48:16Z</time>
      </trkpt>
      <trkpt lat="43.56152" lon="5.65761">
        <ele>598.6</ele>
        <time>2020-10-18T08:48:20Z</time>
      </trkpt>
      <trkpt lat="43.56152" lon="5.65787">
        <ele>598.66</ele>
        <time>2020-10-18T08:48:24Z</time>
      </trkpt>
      <trkpt lat="43.56153" lon="5.65815">
        <ele>598.65</ele>
        <time>2020-10-18T08:48:28Z</time>
      </trkpt>
      <trkpt lat="43.56153" lon="5.65846">
        <ele>598.74</ele>
        <time>2020-10-18T08:48:32Z</time>
      </trkpt>
      <trkpt lat="43.5615" lon="5.65876">
        <ele>598.86</ele>
        <time>2020-10-18T08:48:36Z</time>
      </trkpt>
      <trkpt lat="43.56148" lon="5.65903">
        <ele>598.47</ele>
        <time>2020-10-18T08:48:40Z</time>
      </trkpt>
      <trkpt lat="43.56149" lon="5.65933">
        <ele>598.25</ele>
        <time>2020-10-18T08:48:44Z</time>
      </trkpt>
      <trkpt lat="43.5615" lon="5.65962">
        <ele>598.35</ele>
        <time>2020-10-18T08:48:48Z</time>
      </trkpt>
      <trkpt lat="43.56151" lon="5.65994">
        <ele>598.53</ele>
        <time>2020-10-18T08:48:52Z</time>
      </trkpt>
      <trkpt lat="43.5615" lon="5.6602">
        <ele>598.37</ele>
        <time>2020-10-18T08:48:55Z</time>
      </trkpt>
      <trkpt lat="43.56147" lon="5.66046">
        <ele>598.07</ele>
        <time>2020-10-18T08:48:58Z</time>
      </trkpt>
      <trkpt lat="43.56143" lon="5.66071">
        <ele>597.85</ele>
        <time>2020-10-18T08:49:01Z</time>
      </trkpt>
      <trkpt lat="43.5614" lon="5.66097">
        <ele>597.33</ele>
        <time>2020-10-18T08:49:04Z</time>
      </trkpt>
      <trkpt lat="43.56139" lon="5.66123">
        <ele>596.25</ele>
        <time>2020-10-18T08:49:07Z</time>
      </trkpt>
      <trkpt lat="43.56138" lon="5.6615">
        <ele>595.3</ele>
        <time>2020-10-18T08:49:10Z</time>
      </trkpt>
      <trkpt lat="43.56138" lon="5.66177">
        <ele>594.52</ele>
        <time>2020-10-18T08:49:13Z</time>
      </trkpt>
      <trkpt lat="43.56135" lon="5.66203">
        <ele>593.81</ele>
        <time>2020-10-18T08:49:16Z</time>
      </trkpt>
      <trkpt lat="43.5613" lon="5.66233">
        <ele>593.27</ele>
        <time>2020-10-18T08:49:20Z</time>
      </trkpt>
      <trkpt lat="43.56127" lon="5.66262">
        <ele>592.69</ele>
        <time>2020-10-18T08:49:24Z</time>
      </trkpt>
      <trkpt lat="43.56126" lon="5.66287">
        <ele>592.57</ele>
        <time>2020-10-18T08:49:27Z</time>
      </trkpt>
      <trkpt lat="43.56125" lon="5.66313">
        <ele>592.57</ele>
        <time>2020-10-18T08:49:30Z</time>
      </trkpt>
      <trkpt lat="43.56123" lon="5.66342">
        <ele>592.37</ele>
        <time>2020-10-18T08:49:33Z</time>
      </trkpt>
      <trkpt lat="43.56119" lon="5.66369">
        <ele>591.97</ele>
        <time>2020-10-18T08:49:36Z</time>
      </trkpt>
      <trkpt lat="43.56116" lon="5.66396">
        <ele>591.56</ele>
        <time>2020-10-18T08:49:39Z</time>
      </trkpt>
      <trkpt lat="43.56113" lon="5.66424">
        <ele>591.37</ele>
        <time>2020-10-18T08:49:42Z</time>
      </trkpt>
      <trkpt lat="43.56105" lon="5.66451">
        <ele>591.07</ele>
        <time>2020-10-18T08:49:45Z</time>
      </trkpt>
      <trkpt lat="43.56098" lon="5.66476">
        <ele>590.85</ele>
        <time>2020-10-18T08:49:48Z</time>
      </trkpt>
      <trkpt lat="43.56092" lon="5.66503">
        <ele>590.65</ele>
        <time>2020-10-18T08:49:51Z</time>
      </trkpt>
      <trkpt lat="43.56087" lon="5.66531">
        <ele>590.37</ele>
        <time>2020-10-18T08:49:54Z</time>
      </trkpt>
      <trkpt lat="43.56083" lon="5.6656">
        <ele>589.99</ele>
        <time>2020-10-18T08:49:57Z</time>
      </trkpt>
      <trkpt lat="43.56081" lon="5.66589">
        <ele>589.67</ele>
        <time>2020-10-18T08:50:00Z</time>
      </trkpt>
      <trkpt lat="43.56078" lon="5.66619">
        <ele>588.63</ele>
        <time>2020-10-18T08:50:03Z</time>
      </trkpt>
      <trkpt lat="43.56074" lon="5.66651">
        <ele>587.44</ele>
        <time>2020-10-18T08:50:06Z</time>
      </trkpt>
      <trkpt lat="43.56074" lon="5.66683">
        <ele>585.99</ele>
        <time>2020-10-18T08:50:09Z</time>
      </trkpt>
      <trkpt lat="43.56081" lon="5.66715">
        <ele>584.49</ele>
        <time>2020-10-18T08:50:12Z</time>
      </trkpt>
      <trkpt lat="43.56088" lon="5.66749">
        <ele>582.26</ele>
        <time>2020-10-18T08:50:15Z</time>
      </trkpt>
      <trkpt lat="43.56096" lon="5.66784">
        <ele>579.81</ele>
        <time>2020-10-18T08:50:18Z</time>
      </trkpt>
      <trkpt lat="43.56101" lon="5.66809">
        <ele>578.07</ele>
        <time>2020-10-18T08:50:20Z</time>
      </trkpt>
      <trkpt lat="43.56107" lon="5.66833">
        <ele>576.29</ele>
        <time>2020-10-18T08:50:22Z</time>
      </trkpt>
      <trkpt lat="43.5611" lon="5.66858">
        <ele>574.49</ele>
        <time>2020-10-18T08:50:24Z</time>
      </trkpt>
      <trkpt lat="43.56109" lon="5.66885">
        <ele>572.5</ele>
        <time>2020-10-18T08:50:26Z</time>
      </trkpt>
      <trkpt lat="43.56108" lon="5.66912">
        <ele>570.59</ele>
        <time>2020-10-18T08:50:28Z</time>
      </trkpt>
      <trkpt lat="43.56108" lon="5.6694">
        <ele>568.77</ele>
        <time>2020-10-18T08:50:30Z</time>
      </trkpt>
      <trkpt lat="43.56107" lon="5.66968">
        <ele>566.88</ele>
        <time>2020-10-18T08:50:32Z</time>
      </trkpt>
      <trkpt lat="43.56106" lon="5.67">
        <ele>564.44</ele>
        <time>2020-10-18T08:50:35Z</time>
      </trkpt>
      <trkpt lat="43.56104" lon="5.67026">
        <ele>560.74</ele>
        <time>2020-10-18T08:50:40Z</time>
      </trkpt>
      <trkpt lat="43.56102" lon="5.67052">
        <ele>556.32</ele>
        <time>2020-10-18T08:50:47Z</time>
      </trkpt>
      <trkpt lat="43.56101" lon="5.67081">
        <ele>553.95</ele>
        <time>2020-10-18T08:50:52Z</time>
      </trkpt>
      <trkpt lat="43.56101" lon="5.67111">
        <ele>551.68</ele>
        <time>2020-10-18T08:50:56Z</time>
      </trkpt>
      <trkpt lat="43.56102" lon="5.67138">
        <ele>550.33</ele>
        <time>2020-10-18T08:50:59Z</time>
      </trkpt>
      <trkpt lat="43.561" lon="5.67164">
        <ele>549.05</ele>
        <time>2020-10-18T08:51:02Z</time>
      </trkpt>
      <trkpt lat="43.56093" lon="5.67189">
        <ele>547.77</ele>
        <time>2020-10-18T08:51:05Z</time>
      </trkpt>
      <trkpt lat="43.56082" lon="5.67209">
        <ele>546.55</ele>
        <time>2020-10-18T08:51:08Z</time>
      </trkpt>
      <trkpt lat="43.56064" lon="5.67222">
        <ele>544.67</ele>
        <time>2020-10-18T08:51:12Z</time>
      </trkpt>
      <trkpt lat="43.56049" lon="5.67238">
        <ele>542.49</ele>
        <time>2020-10-18T08:51:16Z</time>
      </trkpt>
      <trkpt lat="43.56032" lon="5.67248">
        <ele>539.92</ele>
        <time>2020-10-18T08:51:20Z</time>
      </trkpt>
      <trkpt lat="43.56017" lon="5.67264">
        <ele>537.4</ele>
        <time>2020-10-18T08:51:24Z</time>
      </trkpt>
      <trkpt lat="43.56" lon="5.67275">
        <ele>533.38</ele>
        <time>2020-10-18T08:51:31Z</time>
      </trkpt>
      <trkpt lat="43.55984" lon="5.67295">
        <ele>531</ele>
        <time>2020-10-18T08:51:35Z</time>
      </trkpt>
      <trkpt lat="43.55963" lon="5.67312">
        <ele>528.97</ele>
        <time>2020-10-18T08:51:39Z</time>
      </trkpt>
      <trkpt lat="43.55944" lon="5.67329">
        <ele>527.33</ele>
        <time>2020-10-18T08:51:43Z</time>
      </trkpt>
      <trkpt lat="43.55928" lon="5.67348">
        <ele>526.02</ele>
        <time>2020-10-18T08:51:47Z</time>
      </trkpt>
      <trkpt lat="43.55911" lon="5.6736">
        <ele>524.6</ele>
        <time>2020-10-18T08:51:52Z</time>
      </trkpt>
      <trkpt lat="43.55892" lon="5.67363">
        <ele>522.62</ele>
        <time>2020-10-18T08:51:59Z</time>
      </trkpt>
      <trkpt lat="43.55881" lon="5.67385">
        <ele>521</ele>
        <time>2020-10-18T08:52:06Z</time>
      </trkpt>
      <trkpt lat="43.55877" lon="5.67412">
        <ele>520.84</ele>
        <time>2020-10-18T08:52:14Z</time>
      </trkpt>
      <trkpt lat="43.55871" lon="5.67437">
        <ele>522.29</ele>
        <time>2020-10-18T08:52:23Z</time>
      </trkpt>
      <trkpt lat="43.55856" lon="5.67451">
        <ele>525.16</ele>
        <time>2020-10-18T08:52:31Z</time>
      </trkpt>
      <trkpt lat="43.55836" lon="5.67459">
        <ele>527.85</ele>
        <time>2020-10-18T08:52:39Z</time>
      </trkpt>
      <trkpt lat="43.5582" lon="5.67469">
        <ele>529.29</ele>
        <time>2020-10-18T08:52:45Z</time>
      </trkpt>
      <trkpt lat="43.55802" lon="5.67477">
        <ele>531.05</ele>
        <time>2020-10-18T08:52:51Z</time>
      </trkpt>
      <trkpt lat="43.55784" lon="5.67486">
        <ele>533.05</ele>
        <time>2020-10-18T08:52:57Z</time>
      </trkpt>
      <trkpt lat="43.55771" lon="5.67505">
        <ele>536.46</ele>
        <time>2020-10-18T08:53:07Z</time>
      </trkpt>
      <trkpt lat="43.55783" lon="5.67525">
        <ele>537.24</ele>
        <time>2020-10-18T08:53:12Z</time>
      </trkpt>
      <trkpt lat="43.55798" lon="5.67549">
        <ele>537.62</ele>
        <time>2020-10-18T08:53:17Z</time>
      </trkpt>
      <trkpt lat="43.5581" lon="5.67574">
        <ele>537.73</ele>
        <time>2020-10-18T08:53:21Z</time>
      </trkpt>
      <trkpt lat="43.55817" lon="5.67599">
        <ele>538.22</ele>
        <time>2020-10-18T08:53:26Z</time>
      </trkpt>
      <trkpt lat="43.55829" lon="5.6762">
        <ele>538.54</ele>
        <time>2020-10-18T08:53:31Z</time>
      </trkpt>
      <trkpt lat="43.55843" lon="5.67637">
        <ele>538.48</ele>
        <time>2020-10-18T08:53:35Z</time>
      </trkpt>
      <trkpt lat="43.55859" lon="5.67658">
        <ele>538.1</ele>
        <time>2020-10-18T08:53:39Z</time>
      </trkpt>
      <trkpt lat="43.55875" lon="5.67679">
        <ele>537.3</ele>
        <time>2020-10-18T08:53:43Z</time>
      </trkpt>
      <trkpt lat="43.55892" lon="5.67698">
        <ele>537.13</ele>
        <time>2020-10-18T08:53:47Z</time>
      </trkpt>
      <trkpt lat="43.55908" lon="5.67715">
        <ele>537.13</ele>
        <time>2020-10-18T08:53:51Z</time>
      </trkpt>
      <trkpt lat="43.55923" lon="5.67734">
        <ele>536.97</ele>
        <time>2020-10-18T08:53:55Z</time>
      </trkpt>
      <trkpt lat="43.55934" lon="5.67761">
        <ele>536.51</ele>
        <time>2020-10-18T08:53:59Z</time>
      </trkpt>
      <trkpt lat="43.55943" lon="5.67788">
        <ele>535.91</ele>
        <time>2020-10-18T08:54:03Z</time>
      </trkpt>
      <trkpt lat="43.55952" lon="5.67815">
        <ele>535.77</ele>
        <time>2020-10-18T08:54:07Z</time>
      </trkpt>
      <trkpt lat="43.55954" lon="5.67846">
        <ele>535.22</ele>
        <time>2020-10-18T08:54:11Z</time>
      </trkpt>
      <trkpt lat="43.55954" lon="5.67876">
        <ele>535.26</ele>
        <time>2020-10-18T08:54:15Z</time>
      </trkpt>
      <trkpt lat="43.55952" lon="5.67907">
        <ele>534.22</ele>
        <time>2020-10-18T08:54:19Z</time>
      </trkpt>
      <trkpt lat="43.55941" lon="5.67933">
        <ele>533.57</ele>
        <time>2020-10-18T08:54:23Z</time>
      </trkpt>
      <trkpt lat="43.55929" lon="5.67959">
        <ele>532.64</ele>
        <time>2020-10-18T08:54:27Z</time>
      </trkpt>
      <trkpt lat="43.55925" lon="5.67989">
        <ele>532.15</ele>
        <time>2020-10-18T08:54:31Z</time>
      </trkpt>
      <trkpt lat="43.55919" lon="5.6802">
        <ele>531</ele>
        <time>2020-10-18T08:54:35Z</time>
      </trkpt>
      <trkpt lat="43.55909" lon="5.68048">
        <ele>529.74</ele>
        <time>2020-10-18T08:54:39Z</time>
      </trkpt>
      <trkpt lat="43.55891" lon="5.68063">
        <ele>528.46</ele>
        <time>2020-10-18T08:54:43Z</time>
      </trkpt>
      <trkpt lat="43.55878" lon="5.68083">
        <ele>527.12</ele>
        <time>2020-10-18T08:54:47Z</time>
      </trkpt>
      <trkpt lat="43.55878" lon="5.68113">
        <ele>525.53</ele>
        <time>2020-10-18T08:54:51Z</time>
      </trkpt>
      <trkpt lat="43.55884" lon="5.68143">
        <ele>524.23</ele>
        <time>2020-10-18T08:54:55Z</time>
      </trkpt>
      <trkpt lat="43.559" lon="5.68165">
        <ele>523.77</ele>
        <time>2020-10-18T08:54:59Z</time>
      </trkpt>
      <trkpt lat="43.55918" lon="5.68178">
        <ele>522.81</ele>
        <time>2020-10-18T08:55:02Z</time>
      </trkpt>
      <trkpt lat="43.55936" lon="5.68183">
        <ele>522.77</ele>
        <time>2020-10-18T08:55:05Z</time>
      </trkpt>
      <trkpt lat="43.55955" lon="5.68186">
        <ele>523.4</ele>
        <time>2020-10-18T08:55:09Z</time>
      </trkpt>
      <trkpt lat="43.55975" lon="5.68188">
        <ele>525.24</ele>
        <time>2020-10-18T08:55:14Z</time>
      </trkpt>
      <trkpt lat="43.55994" lon="5.68197">
        <ele>527.98</ele>
        <time>2020-10-18T08:55:20Z</time>
      </trkpt>
      <trkpt lat="43.56001" lon="5.68221">
        <ele>529.19</ele>
        <time>2020-10-18T08:55:25Z</time>
      </trkpt>
      <trkpt lat="43.56002" lon="5.6825">
        <ele>529.87</ele>
        <time>2020-10-18T08:55:30Z</time>
      </trkpt>
      <trkpt lat="43.55995" lon="5.68274">
        <ele>530.5</ele>
        <time>2020-10-18T08:55:34Z</time>
      </trkpt>
      <trkpt lat="43.5599" lon="5.68299">
        <ele>529.88</ele>
        <time>2020-10-18T08:55:38Z</time>
      </trkpt>
      <trkpt lat="43.55983" lon="5.68325">
        <ele>529.29</ele>
        <time>2020-10-18T08:55:42Z</time>
      </trkpt>
      <trkpt lat="43.55966" lon="5.68346">
        <ele>528.54</ele>
        <time>2020-10-18T08:55:46Z</time>
      </trkpt>
      <trkpt lat="43.55947" lon="5.68365">
        <ele>528.1</ele>
        <time>2020-10-18T08:55:50Z</time>
      </trkpt>
      <trkpt lat="43.55937" lon="5.68386">
        <ele>527.4</ele>
        <time>2020-10-18T08:55:53Z</time>
      </trkpt>
      <trkpt lat="43.55925" lon="5.68405">
        <ele>526.28</ele>
        <time>2020-10-18T08:55:56Z</time>
      </trkpt>
      <trkpt lat="43.55907" lon="5.68417">
        <ele>524.83</ele>
        <time>2020-10-18T08:55:59Z</time>
      </trkpt>
      <trkpt lat="43.5589" lon="5.68439">
        <ele>523.62</ele>
        <time>2020-10-18T08:56:03Z</time>
      </trkpt>
      <trkpt lat="43.55882" lon="5.68466">
        <ele>522.07</ele>
        <time>2020-10-18T08:56:06Z</time>
      </trkpt>
      <trkpt lat="43.55879" lon="5.68498">
        <ele>520.29</ele>
        <time>2020-10-18T08:56:09Z</time>
      </trkpt>
      <trkpt lat="43.55883" lon="5.68529">
        <ele>518.67</ele>
        <time>2020-10-18T08:56:12Z</time>
      </trkpt>
      <trkpt lat="43.55894" lon="5.68558">
        <ele>517.19</ele>
        <time>2020-10-18T08:56:15Z</time>
      </trkpt>
      <trkpt lat="43.55907" lon="5.68581">
        <ele>515.85</ele>
        <time>2020-10-18T08:56:18Z</time>
      </trkpt>
      <trkpt lat="43.55923" lon="5.686">
        <ele>514.92</ele>
        <time>2020-10-18T08:56:21Z</time>
      </trkpt>
      <trkpt lat="43.55939" lon="5.68614">
        <ele>513.83</ele>
        <time>2020-10-18T08:56:24Z</time>
      </trkpt>
      <trkpt lat="43.55954" lon="5.68629">
        <ele>512.57</ele>
        <time>2020-10-18T08:56:27Z</time>
      </trkpt>
      <trkpt lat="43.55971" lon="5.68647">
        <ele>511.48</ele>
        <time>2020-10-18T08:56:30Z</time>
      </trkpt>
      <trkpt lat="43.55984" lon="5.68675">
        <ele>509.75</ele>
        <time>2020-10-18T08:56:33Z</time>
      </trkpt>
      <trkpt lat="43.55997" lon="5.68696">
        <ele>508.82</ele>
        <time>2020-10-18T08:56:36Z</time>
      </trkpt>
      <trkpt lat="43.56007" lon="5.68717">
        <ele>508.65</ele>
        <time>2020-10-18T08:56:39Z</time>
      </trkpt>
      <trkpt lat="43.56014" lon="5.6874">
        <ele>507.64</ele>
        <time>2020-10-18T08:56:42Z</time>
      </trkpt>
      <trkpt lat="43.56029" lon="5.68763">
        <ele>506.54</ele>
        <time>2020-10-18T08:56:46Z</time>
      </trkpt>
      <trkpt lat="43.56042" lon="5.68784">
        <ele>506.84</ele>
        <time>2020-10-18T08:56:51Z</time>
      </trkpt>
      <trkpt lat="43.56053" lon="5.68807">
        <ele>505.73</ele>
        <time>2020-10-18T08:56:56Z</time>
      </trkpt>
      <trkpt lat="43.56045" lon="5.68834">
        <ele>503.8</ele>
        <time>2020-10-18T08:57:02Z</time>
      </trkpt>
      <trkpt lat="43.56027" lon="5.68847">
        <ele>503.35</ele>
        <time>2020-10-18T08:57:07Z</time>
      </trkpt>
      <trkpt lat="43.56006" lon="5.68856">
        <ele>503.45</ele>
        <time>2020-10-18T08:57:12Z</time>
      </trkpt>
      <trkpt lat="43.55989" lon="5.68872">
        <ele>502.44</ele>
        <time>2020-10-18T08:57:17Z</time>
      </trkpt>
      <trkpt lat="43.55968" lon="5.68875">
        <ele>500.25</ele>
        <time>2020-10-18T08:57:22Z</time>
      </trkpt>
      <trkpt lat="43.55947" lon="5.68867">
        <ele>498.55</ele>
        <time>2020-10-18T08:57:26Z</time>
      </trkpt>
      <trkpt lat="43.55928" lon="5.68874">
        <ele>496.8</ele>
        <time>2020-10-18T08:57:29Z</time>
      </trkpt>
      <trkpt lat="43.55909" lon="5.68881">
        <ele>494.74</ele>
        <time>2020-10-18T08:57:33Z</time>
      </trkpt>
      <trkpt lat="43.55889" lon="5.68886">
        <ele>490.88</ele>
        <time>2020-10-18T08:57:40Z</time>
      </trkpt>
      <trkpt lat="43.55868" lon="5.68888">
        <ele>488.97</ele>
        <time>2020-10-18T08:57:45Z</time>
      </trkpt>
      <trkpt lat="43.5585" lon="5.6888">
        <ele>487.33</ele>
        <time>2020-10-18T08:57:49Z</time>
      </trkpt>
      <trkpt lat="43.55832" lon="5.68867">
        <ele>485.82</ele>
        <time>2020-10-18T08:57:55Z</time>
      </trkpt>
      <trkpt lat="43.55812" lon="5.68858">
        <ele>484.58</ele>
        <time>2020-10-18T08:58:01Z</time>
      </trkpt>
      <trkpt lat="43.55795" lon="5.68848">
        <ele>483.67</ele>
        <time>2020-10-18T08:58:08Z</time>
      </trkpt>
      <trkpt lat="43.55782" lon="5.6883">
        <ele>484.4</ele>
        <time>2020-10-18T08:58:18Z</time>
      </trkpt>
      <trkpt lat="43.55768" lon="5.68812">
        <ele>493.75</ele>
        <time>2020-10-18T09:02:19Z</time>
      </trkpt>
      <trkpt lat="43.55751" lon="5.68803">
        <ele>494.01</ele>
        <time>2020-10-18T09:02:25Z</time>
      </trkpt>
      <trkpt lat="43.5573" lon="5.688">
        <ele>495</ele>
        <time>2020-10-18T09:02:33Z</time>
      </trkpt>
      <trkpt lat="43.55712" lon="5.68794">
        <ele>495.93</ele>
        <time>2020-10-18T09:02:41Z</time>
      </trkpt>
      <trkpt lat="43.55692" lon="5.68793">
        <ele>497.92</ele>
        <time>2020-10-18T09:02:49Z</time>
      </trkpt>
      <trkpt lat="43.55675" lon="5.68801">
        <ele>498.8</ele>
        <time>2020-10-18T09:02:57Z</time>
      </trkpt>
      <trkpt lat="43.55656" lon="5.688">
        <ele>500.99</ele>
        <time>2020-10-18T09:03:06Z</time>
      </trkpt>
      <trkpt lat="43.55636" lon="5.68797">
        <ele>503.09</ele>
        <time>2020-10-18T09:03:14Z</time>
      </trkpt>
      <trkpt lat="43.55617" lon="5.6879">
        <ele>503.52</ele>
        <time>2020-10-18T09:03:21Z</time>
      </trkpt>
      <trkpt lat="43.55599" lon="5.68789">
        <ele>504.2</ele>
        <time>2020-10-18T09:03:27Z</time>
      </trkpt>
      <trkpt lat="43.55581" lon="5.68788">
        <ele>505.3</ele>
        <time>2020-10-18T09:03:33Z</time>
      </trkpt>
      <trkpt lat="43.55561" lon="5.6879">
        <ele>506.3</ele>
        <time>2020-10-18T09:03:40Z</time>
      </trkpt>
      <trkpt lat="43.55541" lon="5.68796">
        <ele>506.45</ele>
        <time>2020-10-18T09:03:47Z</time>
      </trkpt>
      <trkpt lat="43.55543" lon="5.68822">
        <ele>505.52</ele>
        <time>2020-10-18T09:03:56Z</time>
      </trkpt>
      <trkpt lat="43.55556" lon="5.68841">
        <ele>504.3</ele>
        <time>2020-10-18T09:04:01Z</time>
      </trkpt>
      <trkpt lat="43.55568" lon="5.68861">
        <ele>502.6</ele>
        <time>2020-10-18T09:04:05Z</time>
      </trkpt>
      <trkpt lat="43.55583" lon="5.68883">
        <ele>501.1</ele>
        <time>2020-10-18T09:04:10Z</time>
      </trkpt>
      <trkpt lat="43.55597" lon="5.68902">
        <ele>500.42</ele>
        <time>2020-10-18T09:04:15Z</time>
      </trkpt>
      <trkpt lat="43.55609" lon="5.68924">
        <ele>500.09</ele>
        <time>2020-10-18T09:04:20Z</time>
      </trkpt>
      <trkpt lat="43.55619" lon="5.68948">
        <ele>499.03</ele>
        <time>2020-10-18T09:04:25Z</time>
      </trkpt>
      <trkpt lat="43.55628" lon="5.6897">
        <ele>497.98</ele>
        <time>2020-10-18T09:04:30Z</time>
      </trkpt>
      <trkpt lat="43.5564" lon="5.68994">
        <ele>497.62</ele>
        <time>2020-10-18T09:04:36Z</time>
      </trkpt>
      <trkpt lat="43.55654" lon="5.69015">
        <ele>497.6</ele>
        <time>2020-10-18T09:04:42Z</time>
      </trkpt>
      <trkpt lat="43.55665" lon="5.69035">
        <ele>497.52</ele>
        <time>2020-10-18T09:04:48Z</time>
      </trkpt>
      <trkpt lat="43.55674" lon="5.6906">
        <ele>498.27</ele>
        <time>2020-10-18T09:04:54Z</time>
      </trkpt>
      <trkpt lat="43.55678" lon="5.69088">
        <ele>498.48</ele>
        <time>2020-10-18T09:05:00Z</time>
      </trkpt>
      <trkpt lat="43.55687" lon="5.69112">
        <ele>500.27</ele>
        <time>2020-10-18T09:05:06Z</time>
      </trkpt>
      <trkpt lat="43.55696" lon="5.69137">
        <ele>501.14</ele>
        <time>2020-10-18T09:05:13Z</time>
      </trkpt>
      <trkpt lat="43.55703" lon="5.69161">
        <ele>502.4</ele>
        <time>2020-10-18T09:05:20Z</time>
      </trkpt>
      <trkpt lat="43.55709" lon="5.69185">
        <ele>503.82</ele>
        <time>2020-10-18T09:05:27Z</time>
      </trkpt>
      <trkpt lat="43.5571" lon="5.6921">
        <ele>505.7</ele>
        <time>2020-10-18T09:05:34Z</time>
      </trkpt>
      <trkpt lat="43.55713" lon="5.69236">
        <ele>506.39</ele>
        <time>2020-10-18T09:05:41Z</time>
      </trkpt>
      <trkpt lat="43.55716" lon="5.69264">
        <ele>507.47</ele>
        <time>2020-10-18T09:05:49Z</time>
      </trkpt>
      <trkpt lat="43.55719" lon="5.69292">
        <ele>509.56</ele>
        <time>2020-10-18T09:05:57Z</time>
      </trkpt>
      <trkpt lat="43.55723" lon="5.69317">
        <ele>511.38</ele>
        <time>2020-10-18T09:06:04Z</time>
      </trkpt>
      <trkpt lat="43.55727" lon="5.69344">
        <ele>511.79</ele>
        <time>2020-10-18T09:06:11Z</time>
      </trkpt>
      <trkpt lat="43.55731" lon="5.69371">
        <ele>511.98</ele>
        <time>2020-10-18T09:06:18Z</time>
      </trkpt>
      <trkpt lat="43.55735" lon="5.69397">
        <ele>512.71</ele>
        <time>2020-10-18T09:06:24Z</time>
      </trkpt>
      <trkpt lat="43.5574" lon="5.69423">
        <ele>513.01</ele>
        <time>2020-10-18T09:06:30Z</time>
      </trkpt>
      <trkpt lat="43.55746" lon="5.69452">
        <ele>513.53</ele>
        <time>2020-10-18T09:06:36Z</time>
      </trkpt>
      <trkpt lat="43.55752" lon="5.69478">
        <ele>512.63</ele>
        <time>2020-10-18T09:06:41Z</time>
      </trkpt>
      <trkpt lat="43.55759" lon="5.69503">
        <ele>512.61</ele>
        <time>2020-10-18T09:06:46Z</time>
      </trkpt>
      <trkpt lat="43.55766" lon="5.6953">
        <ele>512.77</ele>
        <time>2020-10-18T09:06:51Z</time>
      </trkpt>
      <trkpt lat="43.55772" lon="5.6956">
        <ele>511.62</ele>
        <time>2020-10-18T09:06:56Z</time>
      </trkpt>
      <trkpt lat="43.55775" lon="5.6959">
        <ele>510.52</ele>
        <time>2020-10-18T09:07:01Z</time>
      </trkpt>
      <trkpt lat="43.55776" lon="5.6962">
        <ele>510.07</ele>
        <time>2020-10-18T09:07:06Z</time>
      </trkpt>
      <trkpt lat="43.55777" lon="5.69646">
        <ele>508.98</ele>
        <time>2020-10-18T09:07:11Z</time>
      </trkpt>
      <trkpt lat="43.5578" lon="5.69671">
        <ele>508.94</ele>
        <time>2020-10-18T09:07:16Z</time>
      </trkpt>
      <trkpt lat="43.55783" lon="5.697">
        <ele>509.32</ele>
        <time>2020-10-18T09:07:22Z</time>
      </trkpt>
      <trkpt lat="43.55784" lon="5.69726">
        <ele>509.92</ele>
        <time>2020-10-18T09:07:27Z</time>
      </trkpt>
      <trkpt lat="43.55788" lon="5.69751">
        <ele>510.29</ele>
        <time>2020-10-18T09:07:32Z</time>
      </trkpt>
      <trkpt lat="43.55794" lon="5.69779">
        <ele>511.76</ele>
        <time>2020-10-18T09:07:38Z</time>
      </trkpt>
      <trkpt lat="43.55802" lon="5.69804">
        <ele>511.7</ele>
        <time>2020-10-18T09:07:43Z</time>
      </trkpt>
      <trkpt lat="43.55807" lon="5.6983">
        <ele>510.48</ele>
        <time>2020-10-18T09:07:48Z</time>
      </trkpt>
      <trkpt lat="43.55811" lon="5.69858">
        <ele>510.19</ele>
        <time>2020-10-18T09:07:53Z</time>
      </trkpt>
      <trkpt lat="43.55814" lon="5.6989">
        <ele>508.86</ele>
        <time>2020-10-18T09:07:58Z</time>
      </trkpt>
      <trkpt lat="43.55814" lon="5.69917">
        <ele>507.84</ele>
        <time>2020-10-18T09:08:02Z</time>
      </trkpt>
      <trkpt lat="43.55819" lon="5.69945">
        <ele>506.54</ele>
        <time>2020-10-18T09:08:06Z</time>
      </trkpt>
      <trkpt lat="43.5583" lon="5.6997">
        <ele>505.38</ele>
        <time>2020-10-18T09:08:10Z</time>
      </trkpt>
      <trkpt lat="43.55843" lon="5.69993">
        <ele>505.3</ele>
        <time>2020-10-18T09:08:14Z</time>
      </trkpt>
      <trkpt lat="43.55857" lon="5.70016">
        <ele>505.06</ele>
        <time>2020-10-18T09:08:18Z</time>
      </trkpt>
      <trkpt lat="43.55868" lon="5.70039">
        <ele>504.59</ele>
        <time>2020-10-18T09:08:22Z</time>
      </trkpt>
      <trkpt lat="43.55878" lon="5.70063">
        <ele>503.75</ele>
        <time>2020-10-18T09:08:26Z</time>
      </trkpt>
      <trkpt lat="43.5589" lon="5.7009">
        <ele>503.2</ele>
        <time>2020-10-18T09:08:30Z</time>
      </trkpt>
      <trkpt lat="43.55903" lon="5.70112">
        <ele>502.04</ele>
        <time>2020-10-18T09:08:34Z</time>
      </trkpt>
      <trkpt lat="43.55918" lon="5.7013">
        <ele>501.14</ele>
        <time>2020-10-18T09:08:39Z</time>
      </trkpt>
      <trkpt lat="43.55928" lon="5.70154">
        <ele>499.89</ele>
        <time>2020-10-18T09:08:47Z</time>
      </trkpt>
      <trkpt lat="43.55922" lon="5.70178">
        <ele>500.98</ele>
        <time>2020-10-18T09:08:55Z</time>
      </trkpt>
      <trkpt lat="43.55912" lon="5.70202">
        <ele>501.48</ele>
        <time>2020-10-18T09:09:02Z</time>
      </trkpt>
      <trkpt lat="43.55906" lon="5.70227">
        <ele>498.97</ele>
        <time>2020-10-18T09:09:36Z</time>
      </trkpt>
      <trkpt lat="43.55896" lon="5.70253">
        <ele>499.05</ele>
        <time>2020-10-18T09:09:42Z</time>
      </trkpt>
      <trkpt lat="43.55884" lon="5.70276">
        <ele>497.86</ele>
        <time>2020-10-18T09:09:47Z</time>
      </trkpt>
      <trkpt lat="43.55875" lon="5.703">
        <ele>495.15</ele>
        <time>2020-10-18T09:09:53Z</time>
      </trkpt>
      <trkpt lat="43.55867" lon="5.70326">
        <ele>491.62</ele>
        <time>2020-10-18T09:10:00Z</time>
      </trkpt>
      <trkpt lat="43.55856" lon="5.70352">
        <ele>488.39</ele>
        <time>2020-10-18T09:10:06Z</time>
      </trkpt>
      <trkpt lat="43.55849" lon="5.70376">
        <ele>485.14</ele>
        <time>2020-10-18T09:10:11Z</time>
      </trkpt>
      <trkpt lat="43.5585" lon="5.70403">
        <ele>480.85</ele>
        <time>2020-10-18T09:10:18Z</time>
      </trkpt>
      <trkpt lat="43.55866" lon="5.70418">
        <ele>478.92</ele>
        <time>2020-10-18T09:10:24Z</time>
      </trkpt>
      <trkpt lat="43.55884" lon="5.70426">
        <ele>478.47</ele>
        <time>2020-10-18T09:10:31Z</time>
      </trkpt>
      <trkpt lat="43.55884" lon="5.70453">
        <ele>478.99</ele>
        <time>2020-10-18T09:10:38Z</time>
      </trkpt>
      <trkpt lat="43.55879" lon="5.70481">
        <ele>477.79</ele>
        <time>2020-10-18T09:10:43Z</time>
      </trkpt>
      <trkpt lat="43.55867" lon="5.70507">
        <ele>475.84</ele>
        <time>2020-10-18T09:10:49Z</time>
      </trkpt>
      <trkpt lat="43.5585" lon="5.70526">
        <ele>474.48</ele>
        <time>2020-10-18T09:10:53Z</time>
      </trkpt>
      <trkpt lat="43.55833" lon="5.70548">
        <ele>471.82</ele>
        <time>2020-10-18T09:10:57Z</time>
      </trkpt>
      <trkpt lat="43.55813" lon="5.70563">
        <ele>470.04</ele>
        <time>2020-10-18T09:11:01Z</time>
      </trkpt>
      <trkpt lat="43.55798" lon="5.70578">
        <ele>469.03</ele>
        <time>2020-10-18T09:11:04Z</time>
      </trkpt>
      <trkpt lat="43.55779" lon="5.70599">
        <ele>467.37</ele>
        <time>2020-10-18T09:11:08Z</time>
      </trkpt>
      <trkpt lat="43.55756" lon="5.70605">
        <ele>465.74</ele>
        <time>2020-10-18T09:11:12Z</time>
      </trkpt>
      <trkpt lat="43.55737" lon="5.70601">
        <ele>464.22</ele>
        <time>2020-10-18T09:11:16Z</time>
      </trkpt>
      <trkpt lat="43.55716" lon="5.70611">
        <ele>460.28</ele>
        <time>2020-10-18T09:11:21Z</time>
      </trkpt>
      <trkpt lat="43.557" lon="5.70624">
        <ele>457.99</ele>
        <time>2020-10-18T09:11:24Z</time>
      </trkpt>
      <trkpt lat="43.55682" lon="5.70646">
        <ele>455.39</ele>
        <time>2020-10-18T09:11:28Z</time>
      </trkpt>
      <trkpt lat="43.55668" lon="5.70662">
        <ele>453.22</ele>
        <time>2020-10-18T09:11:31Z</time>
      </trkpt>
      <trkpt lat="43.55649" lon="5.70676">
        <ele>451.14</ele>
        <time>2020-10-18T09:11:35Z</time>
      </trkpt>
      <trkpt lat="43.55631" lon="5.70671">
        <ele>449.72</ele>
        <time>2020-10-18T09:11:40Z</time>
      </trkpt>
      <trkpt lat="43.55623" lon="5.70645">
        <ele>447.91</ele>
        <time>2020-10-18T09:12:31Z</time>
      </trkpt>
      <trkpt lat="43.55622" lon="5.70619">
        <ele>450.41</ele>
        <time>2020-10-18T09:12:39Z</time>
      </trkpt>
      <trkpt lat="43.55622" lon="5.70594">
        <ele>454.02</ele>
        <time>2020-10-18T09:12:47Z</time>
      </trkpt>
      <trkpt lat="43.55606" lon="5.7058">
        <ele>457.77</ele>
        <time>2020-10-18T09:12:57Z</time>
      </trkpt>
      <trkpt lat="43.55588" lon="5.70592">
        <ele>460.08</ele>
        <time>2020-10-18T09:13:06Z</time>
      </trkpt>
      <trkpt lat="43.5557" lon="5.706">
        <ele>461.4</ele>
        <time>2020-10-18T09:13:13Z</time>
      </trkpt>
      <trkpt lat="43.55551" lon="5.70607">
        <ele>462.4</ele>
        <time>2020-10-18T09:13:19Z</time>
      </trkpt>
      <trkpt lat="43.5553" lon="5.70613">
        <ele>463.24</ele>
        <time>2020-10-18T09:13:25Z</time>
      </trkpt>
      <trkpt lat="43.55513" lon="5.7062">
        <ele>462.71</ele>
        <time>2020-10-18T09:13:29Z</time>
      </trkpt>
      <trkpt lat="43.55493" lon="5.70626">
        <ele>461.86</ele>
        <time>2020-10-18T09:13:33Z</time>
      </trkpt>
      <trkpt lat="43.55474" lon="5.70636">
        <ele>462.03</ele>
        <time>2020-10-18T09:13:37Z</time>
      </trkpt>
      <trkpt lat="43.55455" lon="5.70646">
        <ele>462.34</ele>
        <time>2020-10-18T09:13:42Z</time>
      </trkpt>
      <trkpt lat="43.55435" lon="5.70654">
        <ele>462.05</ele>
        <time>2020-10-18T09:13:47Z</time>
      </trkpt>
      <trkpt lat="43.55416" lon="5.7066">
        <ele>461.66</ele>
        <time>2020-10-18T09:13:52Z</time>
      </trkpt>
      <trkpt lat="43.55397" lon="5.70667">
        <ele>460.69</ele>
        <time>2020-10-18T09:13:57Z</time>
      </trkpt>
      <trkpt lat="43.55376" lon="5.70672">
        <ele>459.4</ele>
        <time>2020-10-18T09:14:02Z</time>
      </trkpt>
      <trkpt lat="43.55356" lon="5.70673">
        <ele>458.65</ele>
        <time>2020-10-18T09:14:07Z</time>
      </trkpt>
      <trkpt lat="43.55335" lon="5.70672">
        <ele>457.73</ele>
        <time>2020-10-18T09:14:12Z</time>
      </trkpt>
      <trkpt lat="43.55313" lon="5.7067">
        <ele>457.05</ele>
        <time>2020-10-18T09:14:17Z</time>
      </trkpt>
      <trkpt lat="43.55291" lon="5.70666">
        <ele>455.01</ele>
        <time>2020-10-18T09:14:22Z</time>
      </trkpt>
      <trkpt lat="43.55269" lon="5.70664">
        <ele>455.22</ele>
        <time>2020-10-18T09:14:27Z</time>
      </trkpt>
      <trkpt lat="43.55249" lon="5.70661">
        <ele>455.45</ele>
        <time>2020-10-18T09:14:31Z</time>
      </trkpt>
      <trkpt lat="43.55228" lon="5.70657">
        <ele>454.7</ele>
        <time>2020-10-18T09:14:35Z</time>
      </trkpt>
      <trkpt lat="43.55208" lon="5.70653">
        <ele>454.6</ele>
        <time>2020-10-18T09:14:39Z</time>
      </trkpt>
      <trkpt lat="43.55186" lon="5.70649">
        <ele>453.91</ele>
        <time>2020-10-18T09:14:43Z</time>
      </trkpt>
      <trkpt lat="43.55163" lon="5.70644">
        <ele>452.33</ele>
        <time>2020-10-18T09:14:47Z</time>
      </trkpt>
      <trkpt lat="43.5514" lon="5.70637">
        <ele>450.92</ele>
        <time>2020-10-18T09:14:51Z</time>
      </trkpt>
      <trkpt lat="43.55119" lon="5.70631">
        <ele>449.59</ele>
        <time>2020-10-18T09:14:55Z</time>
      </trkpt>
      <trkpt lat="43.55101" lon="5.70627">
        <ele>449.17</ele>
        <time>2020-10-18T09:14:59Z</time>
      </trkpt>
      <trkpt lat="43.5508" lon="5.70619">
        <ele>448.73</ele>
        <time>2020-10-18T09:15:04Z</time>
      </trkpt>
      <trkpt lat="43.55059" lon="5.70616">
        <ele>449.58</ele>
        <time>2020-10-18T09:15:09Z</time>
      </trkpt>
      <trkpt lat="43.55039" lon="5.70613">
        <ele>451.11</ele>
        <time>2020-10-18T09:15:14Z</time>
      </trkpt>
      <trkpt lat="43.55018" lon="5.70612">
        <ele>452.09</ele>
        <time>2020-10-18T09:15:19Z</time>
      </trkpt>
      <trkpt lat="43.54999" lon="5.7061">
        <ele>453.35</ele>
        <time>2020-10-18T09:15:24Z</time>
      </trkpt>
      <trkpt lat="43.5498" lon="5.70608">
        <ele>454.17</ele>
        <time>2020-10-18T09:15:28Z</time>
      </trkpt>
      <trkpt lat="43.54961" lon="5.70606">
        <ele>455.49</ele>
        <time>2020-10-18T09:15:32Z</time>
      </trkpt>
      <trkpt lat="43.54941" lon="5.70602">
        <ele>456.22</ele>
        <time>2020-10-18T09:15:36Z</time>
      </trkpt>
      <trkpt lat="43.5492" lon="5.70599">
        <ele>456.15</ele>
        <time>2020-10-18T09:15:40Z</time>
      </trkpt>
      <trkpt lat="43.54898" lon="5.70595">
        <ele>455.75</ele>
        <time>2020-10-18T09:15:44Z</time>
      </trkpt>
      <trkpt lat="43.54877" lon="5.70596">
        <ele>455.43</ele>
        <time>2020-10-18T09:15:48Z</time>
      </trkpt>
      <trkpt lat="43.54857" lon="5.70599">
        <ele>455.9</ele>
        <time>2020-10-18T09:15:52Z</time>
      </trkpt>
      <trkpt lat="43.54837" lon="5.70601">
        <ele>456.9</ele>
        <time>2020-10-18T09:15:57Z</time>
      </trkpt>
      <trkpt lat="43.54817" lon="5.70601">
        <ele>458.06</ele>
        <time>2020-10-18T09:16:02Z</time>
      </trkpt>
      <trkpt lat="43.54798" lon="5.70594">
        <ele>458.41</ele>
        <time>2020-10-18T09:16:08Z</time>
      </trkpt>
      <trkpt lat="43.54779" lon="5.70591">
        <ele>459.77</ele>
        <time>2020-10-18T09:16:14Z</time>
      </trkpt>
      <trkpt lat="43.54758" lon="5.70587">
        <ele>461.31</ele>
        <time>2020-10-18T09:16:20Z</time>
      </trkpt>
      <trkpt lat="43.5474" lon="5.70586">
        <ele>462.76</ele>
        <time>2020-10-18T09:16:25Z</time>
      </trkpt>
      <trkpt lat="43.54722" lon="5.70581">
        <ele>464.19</ele>
        <time>2020-10-18T09:16:30Z</time>
      </trkpt>
      <trkpt lat="43.54702" lon="5.70577">
        <ele>465.02</ele>
        <time>2020-10-18T09:16:35Z</time>
      </trkpt>
      <trkpt lat="43.54683" lon="5.7057">
        <ele>465.05</ele>
        <time>2020-10-18T09:16:40Z</time>
      </trkpt>
      <trkpt lat="43.54665" lon="5.7056">
        <ele>462.58</ele>
        <time>2020-10-18T09:16:46Z</time>
      </trkpt>
      <trkpt lat="43.54644" lon="5.70569">
        <ele>455.81</ele>
        <time>2020-10-18T09:16:52Z</time>
      </trkpt>
      <trkpt lat="43.54632" lon="5.70587">
        <ele>452.62</ele>
        <time>2020-10-18T09:16:56Z</time>
      </trkpt>
      <trkpt lat="43.54618" lon="5.7061">
        <ele>451.14</ele>
        <time>2020-10-18T09:17:00Z</time>
      </trkpt>
      <trkpt lat="43.54602" lon="5.70632">
        <ele>450.1</ele>
        <time>2020-10-18T09:17:04Z</time>
      </trkpt>
      <trkpt lat="43.54588" lon="5.7065">
        <ele>449.04</ele>
        <time>2020-10-18T09:17:07Z</time>
      </trkpt>
      <trkpt lat="43.54572" lon="5.70675">
        <ele>447.98</ele>
        <time>2020-10-18T09:17:11Z</time>
      </trkpt>
      <trkpt lat="43.54558" lon="5.70694">
        <ele>447.49</ele>
        <time>2020-10-18T09:17:14Z</time>
      </trkpt>
      <trkpt lat="43.54544" lon="5.70715">
        <ele>447.08</ele>
        <time>2020-10-18T09:17:17Z</time>
      </trkpt>
      <trkpt lat="43.54531" lon="5.70736">
        <ele>446.42</ele>
        <time>2020-10-18T09:17:20Z</time>
      </trkpt>
      <trkpt lat="43.54518" lon="5.70757">
        <ele>445.72</ele>
        <time>2020-10-18T09:17:23Z</time>
      </trkpt>
      <trkpt lat="43.54503" lon="5.7078">
        <ele>444.9</ele>
        <time>2020-10-18T09:17:26Z</time>
      </trkpt>
      <trkpt lat="43.54488" lon="5.70803">
        <ele>443.98</ele>
        <time>2020-10-18T09:17:29Z</time>
      </trkpt>
      <trkpt lat="43.54475" lon="5.70824">
        <ele>443.08</ele>
        <time>2020-10-18T09:17:32Z</time>
      </trkpt>
      <trkpt lat="43.54464" lon="5.70852">
        <ele>440.26</ele>
        <time>2020-10-18T09:17:35Z</time>
      </trkpt>
      <trkpt lat="43.54453" lon="5.70877">
        <ele>438.56</ele>
        <time>2020-10-18T09:17:38Z</time>
      </trkpt>
      <trkpt lat="43.54443" lon="5.70898">
        <ele>437.46</ele>
        <time>2020-10-18T09:17:41Z</time>
      </trkpt>
      <trkpt lat="43.54434" lon="5.70921">
        <ele>436.43</ele>
        <time>2020-10-18T09:17:44Z</time>
      </trkpt>
      <trkpt lat="43.54422" lon="5.7094">
        <ele>435.32</ele>
        <time>2020-10-18T09:17:47Z</time>
      </trkpt>
      <trkpt lat="43.54409" lon="5.70957">
        <ele>434.7</ele>
        <time>2020-10-18T09:17:50Z</time>
      </trkpt>
      <trkpt lat="43.5439" lon="5.70976">
        <ele>434.08</ele>
        <time>2020-10-18T09:17:54Z</time>
      </trkpt>
      <trkpt lat="43.54372" lon="5.70996">
        <ele>433.3</ele>
        <time>2020-10-18T09:17:58Z</time>
      </trkpt>
      <trkpt lat="43.54357" lon="5.71017">
        <ele>432.75</ele>
        <time>2020-10-18T09:18:02Z</time>
      </trkpt>
      <trkpt lat="43.54343" lon="5.71039">
        <ele>432.65</ele>
        <time>2020-10-18T09:18:06Z</time>
      </trkpt>
      <trkpt lat="43.54325" lon="5.71058">
        <ele>432.55</ele>
        <time>2020-10-18T09:18:10Z</time>
      </trkpt>
      <trkpt lat="43.54314" lon="5.71083">
        <ele>432.45</ele>
        <time>2020-10-18T09:18:14Z</time>
      </trkpt>
      <trkpt lat="43.54301" lon="5.71102">
        <ele>432.33</ele>
        <time>2020-10-18T09:18:18Z</time>
      </trkpt>
      <trkpt lat="43.54284" lon="5.7112">
        <ele>431.77</ele>
        <time>2020-10-18T09:18:23Z</time>
      </trkpt>
      <trkpt lat="43.54272" lon="5.71138">
        <ele>431.1</ele>
        <time>2020-10-18T09:18:28Z</time>
      </trkpt>
      <trkpt lat="43.54261" lon="5.7116">
        <ele>431.22</ele>
        <time>2020-10-18T09:18:34Z</time>
      </trkpt>
      <trkpt lat="43.54251" lon="5.71182">
        <ele>431.82</ele>
        <time>2020-10-18T09:18:40Z</time>
      </trkpt>
      <trkpt lat="43.5424" lon="5.71203">
        <ele>432.5</ele>
        <time>2020-10-18T09:18:46Z</time>
      </trkpt>
      <trkpt lat="43.54226" lon="5.71222">
        <ele>433.32</ele>
        <time>2020-10-18T09:18:53Z</time>
      </trkpt>
      <trkpt lat="43.54214" lon="5.71242">
        <ele>434.62</ele>
        <time>2020-10-18T09:19:00Z</time>
      </trkpt>
      <trkpt lat="43.54201" lon="5.71262">
        <ele>436</ele>
        <time>2020-10-18T09:19:08Z</time>
      </trkpt>
      <trkpt lat="43.5419" lon="5.71284">
        <ele>437.68</ele>
        <time>2020-10-18T09:19:15Z</time>
      </trkpt>
      <trkpt lat="43.5418" lon="5.71305">
        <ele>440.42</ele>
        <time>2020-10-18T09:19:22Z</time>
      </trkpt>
      <trkpt lat="43.54168" lon="5.71325">
        <ele>443.45</ele>
        <time>2020-10-18T09:19:30Z</time>
      </trkpt>
      <trkpt lat="43.54155" lon="5.71347">
        <ele>445.69</ele>
        <time>2020-10-18T09:19:39Z</time>
      </trkpt>
      <trkpt lat="43.5414" lon="5.71367">
        <ele>446.32</ele>
        <time>2020-10-18T09:19:47Z</time>
      </trkpt>
      <trkpt lat="43.54124" lon="5.71384">
        <ele>447.66</ele>
        <time>2020-10-18T09:19:54Z</time>
      </trkpt>
      <trkpt lat="43.54111" lon="5.71402">
        <ele>449.79</ele>
        <time>2020-10-18T09:20:01Z</time>
      </trkpt>
      <trkpt lat="43.54096" lon="5.71419">
        <ele>450.79</ele>
        <time>2020-10-18T09:20:08Z</time>
      </trkpt>
      <trkpt lat="43.54081" lon="5.71435">
        <ele>452.4</ele>
        <time>2020-10-18T09:20:15Z</time>
      </trkpt>
      <trkpt lat="43.54066" lon="5.71453">
        <ele>454.67</ele>
        <time>2020-10-18T09:20:22Z</time>
      </trkpt>
      <trkpt lat="43.5405" lon="5.7147">
        <ele>456.12</ele>
        <time>2020-10-18T09:20:29Z</time>
      </trkpt>
      <trkpt lat="43.54036" lon="5.71488">
        <ele>457.02</ele>
        <time>2020-10-18T09:20:35Z</time>
      </trkpt>
      <trkpt lat="43.54022" lon="5.71505">
        <ele>457.22</ele>
        <time>2020-10-18T09:20:40Z</time>
      </trkpt>
      <trkpt lat="43.54005" lon="5.71521">
        <ele>458</ele>
        <time>2020-10-18T09:20:45Z</time>
      </trkpt>
      <trkpt lat="43.53987" lon="5.71532">
        <ele>458.5</ele>
        <time>2020-10-18T09:20:50Z</time>
      </trkpt>
      <trkpt lat="43.53967" lon="5.7154">
        <ele>458.84</ele>
        <time>2020-10-18T09:20:56Z</time>
      </trkpt>
      <trkpt lat="43.53947" lon="5.71543">
        <ele>456.94</ele>
        <time>2020-10-18T09:21:35Z</time>
      </trkpt>
      <trkpt lat="43.53927" lon="5.71546">
        <ele>456.79</ele>
        <time>2020-10-18T09:21:41Z</time>
      </trkpt>
      <trkpt lat="43.53903" lon="5.7155">
        <ele>455.72</ele>
        <time>2020-10-18T09:21:45Z</time>
      </trkpt>
      <trkpt lat="43.53882" lon="5.71553">
        <ele>454.74</ele>
        <time>2020-10-18T09:21:48Z</time>
      </trkpt>
      <trkpt lat="43.53858" lon="5.71555">
        <ele>453.37</ele>
        <time>2020-10-18T09:21:51Z</time>
      </trkpt>
      <trkpt lat="43.5384" lon="5.71557">
        <ele>452.35</ele>
        <time>2020-10-18T09:21:53Z</time>
      </trkpt>
      <trkpt lat="43.53821" lon="5.7156">
        <ele>451</ele>
        <time>2020-10-18T09:21:55Z</time>
      </trkpt>
      <trkpt lat="43.53803" lon="5.71563">
        <ele>449.72</ele>
        <time>2020-10-18T09:21:57Z</time>
      </trkpt>
      <trkpt lat="43.53784" lon="5.71566">
        <ele>448.58</ele>
        <time>2020-10-18T09:21:59Z</time>
      </trkpt>
      <trkpt lat="43.5376" lon="5.7157">
        <ele>446.99</ele>
        <time>2020-10-18T09:22:02Z</time>
      </trkpt>
      <trkpt lat="43.53738" lon="5.71574">
        <ele>444.14</ele>
        <time>2020-10-18T09:22:06Z</time>
      </trkpt>
      <trkpt lat="43.53722" lon="5.71563">
        <ele>441.05</ele>
        <time>2020-10-18T09:22:12Z</time>
      </trkpt>
      <trkpt lat="43.53704" lon="5.71565">
        <ele>438.52</ele>
        <time>2020-10-18T09:22:19Z</time>
      </trkpt>
      <trkpt lat="43.53684" lon="5.71565">
        <ele>437.55</ele>
        <time>2020-10-18T09:22:26Z</time>
      </trkpt>
      <trkpt lat="43.53664" lon="5.7157">
        <ele>436.8</ele>
        <time>2020-10-18T09:22:33Z</time>
      </trkpt>
      <trkpt lat="43.53644" lon="5.7157">
        <ele>434.92</ele>
        <time>2020-10-18T09:22:43Z</time>
      </trkpt>
      <trkpt lat="43.53623" lon="5.71572">
        <ele>433.62</ele>
        <time>2020-10-18T09:22:49Z</time>
      </trkpt>
      <trkpt lat="43.53603" lon="5.71581">
        <ele>433.37</ele>
        <time>2020-10-18T09:22:54Z</time>
      </trkpt>
      <trkpt lat="43.53584" lon="5.71591">
        <ele>432.1</ele>
        <time>2020-10-18T09:23:00Z</time>
      </trkpt>
      <trkpt lat="43.53566" lon="5.71603">
        <ele>431.11</ele>
        <time>2020-10-18T09:23:05Z</time>
      </trkpt>
      <trkpt lat="43.53548" lon="5.71617">
        <ele>429.6</ele>
        <time>2020-10-18T09:23:11Z</time>
      </trkpt>
      <trkpt lat="43.53531" lon="5.71629">
        <ele>427.61</ele>
        <time>2020-10-18T09:23:17Z</time>
      </trkpt>
      <trkpt lat="43.53515" lon="5.71646">
        <ele>426.14</ele>
        <time>2020-10-18T09:23:23Z</time>
      </trkpt>
      <trkpt lat="43.53496" lon="5.7166">
        <ele>424.9</ele>
        <time>2020-10-18T09:23:28Z</time>
      </trkpt>
      <trkpt lat="43.53477" lon="5.71676">
        <ele>424.69</ele>
        <time>2020-10-18T09:23:33Z</time>
      </trkpt>
      <trkpt lat="43.53461" lon="5.71693">
        <ele>424.17</ele>
        <time>2020-10-18T09:23:38Z</time>
      </trkpt>
      <trkpt lat="43.53446" lon="5.71712">
        <ele>423.44</ele>
        <time>2020-10-18T09:23:42Z</time>
      </trkpt>
      <trkpt lat="43.53434" lon="5.71738">
        <ele>423.29</ele>
        <time>2020-10-18T09:23:47Z</time>
      </trkpt>
      <trkpt lat="43.53424" lon="5.71761">
        <ele>422.87</ele>
        <time>2020-10-18T09:23:51Z</time>
      </trkpt>
      <trkpt lat="43.53412" lon="5.71783">
        <ele>422.59</ele>
        <time>2020-10-18T09:23:55Z</time>
      </trkpt>
      <trkpt lat="43.53401" lon="5.71805">
        <ele>422.56</ele>
        <time>2020-10-18T09:23:59Z</time>
      </trkpt>
      <trkpt lat="43.5339" lon="5.71829">
        <ele>422.74</ele>
        <time>2020-10-18T09:24:03Z</time>
      </trkpt>
      <trkpt lat="43.53378" lon="5.71852">
        <ele>422.37</ele>
        <time>2020-10-18T09:24:07Z</time>
      </trkpt>
      <trkpt lat="43.53371" lon="5.71876">
        <ele>422.17</ele>
        <time>2020-10-18T09:24:11Z</time>
      </trkpt>
      <trkpt lat="43.53361" lon="5.71901">
        <ele>421.89</ele>
        <time>2020-10-18T09:24:16Z</time>
      </trkpt>
      <trkpt lat="43.53354" lon="5.71925">
        <ele>422.82</ele>
        <time>2020-10-18T09:24:20Z</time>
      </trkpt>
      <trkpt lat="43.53349" lon="5.7195">
        <ele>423.56</ele>
        <time>2020-10-18T09:24:24Z</time>
      </trkpt>
      <trkpt lat="43.53347" lon="5.71976">
        <ele>424.22</ele>
        <time>2020-10-18T09:24:28Z</time>
      </trkpt>
      <trkpt lat="43.53343" lon="5.72005">
        <ele>426.04</ele>
        <time>2020-10-18T09:24:33Z</time>
      </trkpt>
      <trkpt lat="43.53339" lon="5.7203">
        <ele>427.57</ele>
        <time>2020-10-18T09:24:37Z</time>
      </trkpt>
      <trkpt lat="43.53334" lon="5.72058">
        <ele>428.1</ele>
        <time>2020-10-18T09:24:41Z</time>
      </trkpt>
      <trkpt lat="43.53329" lon="5.72089">
        <ele>429</ele>
        <time>2020-10-18T09:24:45Z</time>
      </trkpt>
      <trkpt lat="43.53326" lon="5.72115">
        <ele>429.44</ele>
        <time>2020-10-18T09:24:49Z</time>
      </trkpt>
      <trkpt lat="43.53327" lon="5.72145">
        <ele>430.19</ele>
        <time>2020-10-18T09:24:53Z</time>
      </trkpt>
      <trkpt lat="43.53331" lon="5.72173">
        <ele>431.37</ele>
        <time>2020-10-18T09:24:57Z</time>
      </trkpt>
      <trkpt lat="43.53338" lon="5.72202">
        <ele>433.13</ele>
        <time>2020-10-18T09:25:01Z</time>
      </trkpt>
      <trkpt lat="43.53342" lon="5.7223">
        <ele>434.63</ele>
        <time>2020-10-18T09:25:05Z</time>
      </trkpt>
      <trkpt lat="43.53349" lon="5.72258">
        <ele>435.85</ele>
        <time>2020-10-18T09:25:09Z</time>
      </trkpt>
      <trkpt lat="43.53354" lon="5.72284">
        <ele>436.93</ele>
        <time>2020-10-18T09:25:13Z</time>
      </trkpt>
      <trkpt lat="43.53361" lon="5.72313">
        <ele>438.65</ele>
        <time>2020-10-18T09:25:17Z</time>
      </trkpt>
      <trkpt lat="43.53369" lon="5.72341">
        <ele>439.57</ele>
        <time>2020-10-18T09:25:21Z</time>
      </trkpt>
      <trkpt lat="43.53376" lon="5.72368">
        <ele>440.76</ele>
        <time>2020-10-18T09:25:25Z</time>
      </trkpt>
      <trkpt lat="43.5338" lon="5.72394">
        <ele>441.44</ele>
        <time>2020-10-18T09:25:29Z</time>
      </trkpt>
      <trkpt lat="43.53387" lon="5.7242">
        <ele>441.42</ele>
        <time>2020-10-18T09:25:33Z</time>
      </trkpt>
      <trkpt lat="43.53384" lon="5.72445">
        <ele>437.36</ele>
        <time>2020-10-18T09:25:36Z</time>
      </trkpt>
      <trkpt lat="43.53378" lon="5.7247">
        <ele>433.62</ele>
        <time>2020-10-18T09:25:40Z</time>
      </trkpt>
      <trkpt lat="43.53365" lon="5.7249">
        <ele>430.41</ele>
        <time>2020-10-18T09:25:44Z</time>
      </trkpt>
      <trkpt lat="43.53351" lon="5.72507">
        <ele>427.13</ele>
        <time>2020-10-18T09:25:48Z</time>
      </trkpt>
      <trkpt lat="43.53333" lon="5.72523">
        <ele>424.64</ele>
        <time>2020-10-18T09:25:53Z</time>
      </trkpt>
      <trkpt lat="43.53318" lon="5.72537">
        <ele>421.29</ele>
        <time>2020-10-18T09:25:57Z</time>
      </trkpt>
      <trkpt lat="43.53305" lon="5.72555">
        <ele>418.87</ele>
        <time>2020-10-18T09:26:01Z</time>
      </trkpt>
      <trkpt lat="43.53292" lon="5.72575">
        <ele>417.62</ele>
        <time>2020-10-18T09:26:05Z</time>
      </trkpt>
      <trkpt lat="43.53276" lon="5.72596">
        <ele>416.83</ele>
        <time>2020-10-18T09:26:09Z</time>
      </trkpt>
      <trkpt lat="43.53259" lon="5.72616">
        <ele>415.62</ele>
        <time>2020-10-18T09:26:13Z</time>
      </trkpt>
      <trkpt lat="43.53241" lon="5.72633">
        <ele>414.58</ele>
        <time>2020-10-18T09:26:17Z</time>
      </trkpt>
      <trkpt lat="43.5322" lon="5.72647">
        <ele>413.54</ele>
        <time>2020-10-18T09:26:21Z</time>
      </trkpt>
      <trkpt lat="43.53204" lon="5.72664">
        <ele>412.67</ele>
        <time>2020-10-18T09:26:25Z</time>
      </trkpt>
      <trkpt lat="43.53191" lon="5.72687">
        <ele>412.58</ele>
        <time>2020-10-18T09:26:29Z</time>
      </trkpt>
      <trkpt lat="43.53172" lon="5.72704">
        <ele>412.83</ele>
        <time>2020-10-18T09:26:33Z</time>
      </trkpt>
      <trkpt lat="43.53152" lon="5.72715">
        <ele>412.68</ele>
        <time>2020-10-18T09:26:37Z</time>
      </trkpt>
      <trkpt lat="43.53134" lon="5.72728">
        <ele>412.67</ele>
        <time>2020-10-18T09:26:41Z</time>
      </trkpt>
      <trkpt lat="43.53116" lon="5.72744">
        <ele>413.27</ele>
        <time>2020-10-18T09:26:46Z</time>
      </trkpt>
      <trkpt lat="43.53099" lon="5.72764">
        <ele>414.21</ele>
        <time>2020-10-18T09:26:51Z</time>
      </trkpt>
      <trkpt lat="43.53083" lon="5.72784">
        <ele>415.01</ele>
        <time>2020-10-18T09:26:56Z</time>
      </trkpt>
      <trkpt lat="43.53067" lon="5.72804">
        <ele>415.22</ele>
        <time>2020-10-18T09:27:01Z</time>
      </trkpt>
      <trkpt lat="43.5305" lon="5.72822">
        <ele>415.23</ele>
        <time>2020-10-18T09:27:06Z</time>
      </trkpt>
      <trkpt lat="43.53035" lon="5.72846">
        <ele>414.93</ele>
        <time>2020-10-18T09:27:11Z</time>
      </trkpt>
      <trkpt lat="43.53026" lon="5.72869">
        <ele>415.97</ele>
        <time>2020-10-18T09:27:15Z</time>
      </trkpt>
      <trkpt lat="43.53014" lon="5.72894">
        <ele>415.67</ele>
        <time>2020-10-18T09:27:20Z</time>
      </trkpt>
      <trkpt lat="43.52999" lon="5.72907">
        <ele>414.57</ele>
        <time>2020-10-18T09:27:24Z</time>
      </trkpt>
      <trkpt lat="43.52978" lon="5.72918">
        <ele>413.97</ele>
        <time>2020-10-18T09:27:29Z</time>
      </trkpt>
      <trkpt lat="43.52961" lon="5.72927">
        <ele>413.57</ele>
        <time>2020-10-18T09:27:33Z</time>
      </trkpt>
      <trkpt lat="43.52944" lon="5.72936">
        <ele>412.46</ele>
        <time>2020-10-18T09:27:37Z</time>
      </trkpt>
      <trkpt lat="43.52926" lon="5.72945">
        <ele>410.26</ele>
        <time>2020-10-18T09:27:41Z</time>
      </trkpt>
      <trkpt lat="43.52906" lon="5.72953">
        <ele>408.57</ele>
        <time>2020-10-18T09:27:45Z</time>
      </trkpt>
      <trkpt lat="43.52883" lon="5.72962">
        <ele>406.64</ele>
        <time>2020-10-18T09:27:49Z</time>
      </trkpt>
      <trkpt lat="43.52864" lon="5.72967">
        <ele>404.88</ele>
        <time>2020-10-18T09:27:52Z</time>
      </trkpt>
      <trkpt lat="43.52843" lon="5.72964">
        <ele>402.82</ele>
        <time>2020-10-18T09:27:55Z</time>
      </trkpt>
      <trkpt lat="43.52822" lon="5.72953">
        <ele>400.61</ele>
        <time>2020-10-18T09:27:58Z</time>
      </trkpt>
      <trkpt lat="43.52801" lon="5.72944">
        <ele>398.26</ele>
        <time>2020-10-18T09:28:01Z</time>
      </trkpt>
      <trkpt lat="43.52781" lon="5.72936">
        <ele>396.2</ele>
        <time>2020-10-18T09:28:04Z</time>
      </trkpt>
      <trkpt lat="43.52762" lon="5.72929">
        <ele>393.95</ele>
        <time>2020-10-18T09:28:08Z</time>
      </trkpt>
      <trkpt lat="43.52744" lon="5.72931">
        <ele>391.68</ele>
        <time>2020-10-18T09:28:12Z</time>
      </trkpt>
      <trkpt lat="43.52726" lon="5.72938">
        <ele>388.68</ele>
        <time>2020-10-18T09:28:16Z</time>
      </trkpt>
      <trkpt lat="43.52707" lon="5.72955">
        <ele>384.85</ele>
        <time>2020-10-18T09:28:21Z</time>
      </trkpt>
      <trkpt lat="43.52692" lon="5.72972">
        <ele>382.26</ele>
        <time>2020-10-18T09:28:25Z</time>
      </trkpt>
      <trkpt lat="43.5267" lon="5.72973">
        <ele>379.6</ele>
        <time>2020-10-18T09:28:29Z</time>
      </trkpt>
      <trkpt lat="43.5265" lon="5.72966">
        <ele>377.96</ele>
        <time>2020-10-18T09:28:32Z</time>
      </trkpt>
      <trkpt lat="43.52628" lon="5.7296">
        <ele>375.5</ele>
        <time>2020-10-18T09:28:36Z</time>
      </trkpt>
      <trkpt lat="43.52607" lon="5.72955">
        <ele>372.46</ele>
        <time>2020-10-18T09:28:40Z</time>
      </trkpt>
      <trkpt lat="43.52584" lon="5.72949">
        <ele>369.32</ele>
        <time>2020-10-18T09:28:44Z</time>
      </trkpt>
      <trkpt lat="43.52566" lon="5.72945">
        <ele>366.9</ele>
        <time>2020-10-18T09:28:48Z</time>
      </trkpt>
      <trkpt lat="43.52545" lon="5.72942">
        <ele>364.14</ele>
        <time>2020-10-18T09:28:52Z</time>
      </trkpt>
      <trkpt lat="43.52525" lon="5.7293">
        <ele>360.85</ele>
        <time>2020-10-18T09:28:56Z</time>
      </trkpt>
      <trkpt lat="43.52506" lon="5.72921">
        <ele>357.57</ele>
        <time>2020-10-18T09:29:01Z</time>
      </trkpt>
      <trkpt lat="43.52487" lon="5.72923">
        <ele>354.55</ele>
        <time>2020-10-18T09:29:06Z</time>
      </trkpt>
      <trkpt lat="43.52468" lon="5.72921">
        <ele>350.44</ele>
        <time>2020-10-18T09:29:13Z</time>
      </trkpt>
      <trkpt lat="43.52446" lon="5.72914">
        <ele>347.34</ele>
        <time>2020-10-18T09:29:19Z</time>
      </trkpt>
      <trkpt lat="43.52429" lon="5.72904">
        <ele>345.37</ele>
        <time>2020-10-18T09:29:22Z</time>
      </trkpt>
      <trkpt lat="43.5241" lon="5.72898">
        <ele>343.89</ele>
        <time>2020-10-18T09:29:25Z</time>
      </trkpt>
      <trkpt lat="43.52387" lon="5.72898">
        <ele>342.01</ele>
        <time>2020-10-18T09:29:29Z</time>
      </trkpt>
      <trkpt lat="43.52364" lon="5.72899">
        <ele>341.08</ele>
        <time>2020-10-18T09:29:33Z</time>
      </trkpt>
      <trkpt lat="43.52345" lon="5.72901">
        <ele>340.95</ele>
        <time>2020-10-18T09:29:37Z</time>
      </trkpt>
      <trkpt lat="43.52324" lon="5.72906">
        <ele>341.43</ele>
        <time>2020-10-18T09:30:13Z</time>
      </trkpt>
      <trkpt lat="43.52305" lon="5.72911">
        <ele>341.65</ele>
        <time>2020-10-18T09:30:19Z</time>
      </trkpt>
      <trkpt lat="43.52287" lon="5.72913">
        <ele>341.09</ele>
        <time>2020-10-18T09:30:23Z</time>
      </trkpt>
      <trkpt lat="43.52265" lon="5.72914">
        <ele>339.82</ele>
        <time>2020-10-18T09:30:28Z</time>
      </trkpt>
      <trkpt lat="43.52244" lon="5.72918">
        <ele>336.92</ele>
        <time>2020-10-18T09:30:33Z</time>
      </trkpt>
      <trkpt lat="43.52225" lon="5.72926">
        <ele>334.19</ele>
        <time>2020-10-18T09:30:38Z</time>
      </trkpt>
      <trkpt lat="43.52203" lon="5.72937">
        <ele>331.72</ele>
        <time>2020-10-18T09:30:42Z</time>
      </trkpt>
      <trkpt lat="43.52181" lon="5.72946">
        <ele>328.37</ele>
        <time>2020-10-18T09:30:46Z</time>
      </trkpt>
      <trkpt lat="43.5216" lon="5.72948">
        <ele>324.93</ele>
        <time>2020-10-18T09:30:50Z</time>
      </trkpt>
      <trkpt lat="43.52137" lon="5.72946">
        <ele>319.71</ele>
        <time>2020-10-18T09:30:55Z</time>
      </trkpt>
      <trkpt lat="43.52118" lon="5.72945">
        <ele>316.06</ele>
        <time>2020-10-18T09:30:59Z</time>
      </trkpt>
      <trkpt lat="43.52094" lon="5.72935">
        <ele>311.53</ele>
        <time>2020-10-18T09:31:03Z</time>
      </trkpt>
      <trkpt lat="43.52079" lon="5.72918">
        <ele>308.39</ele>
        <time>2020-10-18T09:31:06Z</time>
      </trkpt>
      <trkpt lat="43.52061" lon="5.72905">
        <ele>304.48</ele>
        <time>2020-10-18T09:31:10Z</time>
      </trkpt>
      <trkpt lat="43.52038" lon="5.72905">
        <ele>302.43</ele>
        <time>2020-10-18T09:31:14Z</time>
      </trkpt>
      <trkpt lat="43.5202" lon="5.72911">
        <ele>300.49</ele>
        <time>2020-10-18T09:31:18Z</time>
      </trkpt>
      <trkpt lat="43.51997" lon="5.72913">
        <ele>298.53</ele>
        <time>2020-10-18T09:31:22Z</time>
      </trkpt>
      <trkpt lat="43.5198" lon="5.72904">
        <ele>295.8</ele>
        <time>2020-10-18T09:31:26Z</time>
      </trkpt>
      <trkpt lat="43.5196" lon="5.72892">
        <ele>292.88</ele>
        <time>2020-10-18T09:31:31Z</time>
      </trkpt>
      <trkpt lat="43.51937" lon="5.72894">
        <ele>289.67</ele>
        <time>2020-10-18T09:31:35Z</time>
      </trkpt>
      <trkpt lat="43.51919" lon="5.72893">
        <ele>287.72</ele>
        <time>2020-10-18T09:31:38Z</time>
      </trkpt>
      <trkpt lat="43.51897" lon="5.72894">
        <ele>285.03</ele>
        <time>2020-10-18T09:31:42Z</time>
      </trkpt>
      <trkpt lat="43.51876" lon="5.72897">
        <ele>282.66</ele>
        <time>2020-10-18T09:31:46Z</time>
      </trkpt>
      <trkpt lat="43.51858" lon="5.729">
        <ele>281.87</ele>
        <time>2020-10-18T09:31:50Z</time>
      </trkpt>
      <trkpt lat="43.51839" lon="5.72905">
        <ele>281.51</ele>
        <time>2020-10-18T09:31:54Z</time>
      </trkpt>
      <trkpt lat="43.5182" lon="5.7291">
        <ele>281.2</ele>
        <time>2020-10-18T09:31:58Z</time>
      </trkpt>
      <trkpt lat="43.51801" lon="5.72911">
        <ele>281.34</ele>
        <time>2020-10-18T09:32:02Z</time>
      </trkpt>
      <trkpt lat="43.51779" lon="5.72913">
        <ele>281.34</ele>
        <time>2020-10-18T09:32:06Z</time>
      </trkpt>
      <trkpt lat="43.51755" lon="5.72915">
        <ele>280.98</ele>
        <time>2020-10-18T09:32:10Z</time>
      </trkpt>
      <trkpt lat="43.51737" lon="5.72917">
        <ele>281.01</ele>
        <time>2020-10-18T09:32:13Z</time>
      </trkpt>
      <trkpt lat="43.51719" lon="5.72916">
        <ele>280.57</ele>
        <time>2020-10-18T09:32:16Z</time>
      </trkpt>
      <trkpt lat="43.51701" lon="5.72919">
        <ele>280.63</ele>
        <time>2020-10-18T09:32:19Z</time>
      </trkpt>
      <trkpt lat="43.51681" lon="5.72923">
        <ele>281.02</ele>
        <time>2020-10-18T09:32:23Z</time>
      </trkpt>
      <trkpt lat="43.51662" lon="5.72926">
        <ele>281.32</ele>
        <time>2020-10-18T09:32:27Z</time>
      </trkpt>
      <trkpt lat="43.51641" lon="5.72929">
        <ele>282.22</ele>
        <time>2020-10-18T09:32:32Z</time>
      </trkpt>
      <trkpt lat="43.51622" lon="5.72933">
        <ele>283.59</ele>
        <time>2020-10-18T09:32:38Z</time>
      </trkpt>
      <trkpt lat="43.51604" lon="5.72947">
        <ele>285.12</ele>
        <time>2020-10-18T09:32:45Z</time>
      </trkpt>
      <trkpt lat="43.51584" lon="5.72953">
        <ele>287.78</ele>
        <time>2020-10-18T09:32:51Z</time>
      </trkpt>
      <trkpt lat="43.51565" lon="5.72958">
        <ele>292.2</ele>
        <time>2020-10-18T09:32:58Z</time>
      </trkpt>
      <trkpt lat="43.51547" lon="5.72972">
        <ele>294.3</ele>
        <time>2020-10-18T09:33:04Z</time>
      </trkpt>
      <trkpt lat="43.51533" lon="5.72988">
        <ele>295.57</ele>
        <time>2020-10-18T09:33:08Z</time>
      </trkpt>
      <trkpt lat="43.51518" lon="5.73007">
        <ele>297.54</ele>
        <time>2020-10-18T09:33:12Z</time>
      </trkpt>
      <trkpt lat="43.515" lon="5.73025">
        <ele>299.15</ele>
        <time>2020-10-18T09:33:16Z</time>
      </trkpt>
      <trkpt lat="43.51485" lon="5.73043">
        <ele>300.37</ele>
        <time>2020-10-18T09:33:20Z</time>
      </trkpt>
      <trkpt lat="43.51468" lon="5.73058">
        <ele>300.8</ele>
        <time>2020-10-18T09:33:23Z</time>
      </trkpt>
      <trkpt lat="43.51451" lon="5.73076">
        <ele>300.67</ele>
        <time>2020-10-18T09:33:26Z</time>
      </trkpt>
      <trkpt lat="43.51427" lon="5.73088">
        <ele>300.33</ele>
        <time>2020-10-18T09:33:29Z</time>
      </trkpt>
      <trkpt lat="43.51407" lon="5.73101">
        <ele>299.43</ele>
        <time>2020-10-18T09:33:32Z</time>
      </trkpt>
      <trkpt lat="43.5139" lon="5.73117">
        <ele>298.12</ele>
        <time>2020-10-18T09:33:35Z</time>
      </trkpt>
      <trkpt lat="43.51371" lon="5.73132">
        <ele>297.38</ele>
        <time>2020-10-18T09:33:38Z</time>
      </trkpt>
      <trkpt lat="43.5135" lon="5.73154">
        <ele>296.09</ele>
        <time>2020-10-18T09:33:41Z</time>
      </trkpt>
      <trkpt lat="43.51333" lon="5.73166">
        <ele>295.02</ele>
        <time>2020-10-18T09:33:43Z</time>
      </trkpt>
      <trkpt lat="43.51315" lon="5.73176">
        <ele>294.05</ele>
        <time>2020-10-18T09:33:45Z</time>
      </trkpt>
      <trkpt lat="43.51298" lon="5.73185">
        <ele>293.04</ele>
        <time>2020-10-18T09:33:47Z</time>
      </trkpt>
      <trkpt lat="43.51279" lon="5.73195">
        <ele>290.87</ele>
        <time>2020-10-18T09:33:49Z</time>
      </trkpt>
      <trkpt lat="43.51259" lon="5.73204">
        <ele>289.58</ele>
        <time>2020-10-18T09:33:51Z</time>
      </trkpt>
      <trkpt lat="43.51239" lon="5.73215">
        <ele>288.22</ele>
        <time>2020-10-18T09:33:53Z</time>
      </trkpt>
      <trkpt lat="43.51221" lon="5.73225">
        <ele>287</ele>
        <time>2020-10-18T09:33:55Z</time>
      </trkpt>
      <trkpt lat="43.51205" lon="5.73237">
        <ele>285.54</ele>
        <time>2020-10-18T09:33:57Z</time>
      </trkpt>
      <trkpt lat="43.51189" lon="5.7325">
        <ele>284.28</ele>
        <time>2020-10-18T09:33:59Z</time>
      </trkpt>
      <trkpt lat="43.51172" lon="5.73259">
        <ele>283</ele>
        <time>2020-10-18T09:34:01Z</time>
      </trkpt>
      <trkpt lat="43.51148" lon="5.73265">
        <ele>279.84</ele>
        <time>2020-10-18T09:34:04Z</time>
      </trkpt>
      <trkpt lat="43.51128" lon="5.73276">
        <ele>275.04</ele>
        <time>2020-10-18T09:34:08Z</time>
      </trkpt>
      <trkpt lat="43.51106" lon="5.73286">
        <ele>270.52</ele>
        <time>2020-10-18T09:34:12Z</time>
      </trkpt>
      <trkpt lat="43.51087" lon="5.73294">
        <ele>267.5</ele>
        <time>2020-10-18T09:34:15Z</time>
      </trkpt>
      <trkpt lat="43.51067" lon="5.73302">
        <ele>264.83</ele>
        <time>2020-10-18T09:34:18Z</time>
      </trkpt>
      <trkpt lat="43.51047" lon="5.7331">
        <ele>262.22</ele>
        <time>2020-10-18T09:34:21Z</time>
      </trkpt>
      <trkpt lat="43.51027" lon="5.73319">
        <ele>260.03</ele>
        <time>2020-10-18T09:34:24Z</time>
      </trkpt>
      <trkpt lat="43.51008" lon="5.73324">
        <ele>258.57</ele>
        <time>2020-10-18T09:34:27Z</time>
      </trkpt>
      <trkpt lat="43.5099" lon="5.73321">
        <ele>257.35</ele>
        <time>2020-10-18T09:34:30Z</time>
      </trkpt>
      <trkpt lat="43.50971" lon="5.73318">
        <ele>256.5</ele>
        <time>2020-10-18T09:34:33Z</time>
      </trkpt>
      <trkpt lat="43.50948" lon="5.73314">
        <ele>256.35</ele>
        <time>2020-10-18T09:34:37Z</time>
      </trkpt>
      <trkpt lat="43.50929" lon="5.7331">
        <ele>256.21</ele>
        <time>2020-10-18T09:34:41Z</time>
      </trkpt>
      <trkpt lat="43.50907" lon="5.73308">
        <ele>255.93</ele>
        <time>2020-10-18T09:34:45Z</time>
      </trkpt>
      <trkpt lat="43.50885" lon="5.73309">
        <ele>256.94</ele>
        <time>2020-10-18T09:34:49Z</time>
      </trkpt>
      <trkpt lat="43.50863" lon="5.73313">
        <ele>256.86</ele>
        <time>2020-10-18T09:34:53Z</time>
      </trkpt>
      <trkpt lat="43.50844" lon="5.7332">
        <ele>257.02</ele>
        <time>2020-10-18T09:34:57Z</time>
      </trkpt>
      <trkpt lat="43.50826" lon="5.73329">
        <ele>256.96</ele>
        <time>2020-10-18T09:35:02Z</time>
      </trkpt>
      <trkpt lat="43.50806" lon="5.73342">
        <ele>256.36</ele>
        <time>2020-10-18T09:35:07Z</time>
      </trkpt>
      <trkpt lat="43.50788" lon="5.73352">
        <ele>256.64</ele>
        <time>2020-10-18T09:35:11Z</time>
      </trkpt>
      <trkpt lat="43.50771" lon="5.73362">
        <ele>256.76</ele>
        <time>2020-10-18T09:35:15Z</time>
      </trkpt>
      <trkpt lat="43.50754" lon="5.73372">
        <ele>256.8</ele>
        <time>2020-10-18T09:35:19Z</time>
      </trkpt>
      <trkpt lat="43.50736" lon="5.73382">
        <ele>257.1</ele>
        <time>2020-10-18T09:35:23Z</time>
      </trkpt>
      <trkpt lat="43.50717" lon="5.73393">
        <ele>256.77</ele>
        <time>2020-10-18T09:35:27Z</time>
      </trkpt>
      <trkpt lat="43.50695" lon="5.73406">
        <ele>255.53</ele>
        <time>2020-10-18T09:35:31Z</time>
      </trkpt>
      <trkpt lat="43.50678" lon="5.73416">
        <ele>254.23</ele>
        <time>2020-10-18T09:35:34Z</time>
      </trkpt>
      <trkpt lat="43.50659" lon="5.73427">
        <ele>253.19</ele>
        <time>2020-10-18T09:35:39Z</time>
      </trkpt>
      <trkpt lat="43.50641" lon="5.7344">
        <ele>252.65</ele>
        <time>2020-10-18T09:35:44Z</time>
      </trkpt>
      <trkpt lat="43.50654" lon="5.73459">
        <ele>253.7</ele>
        <time>2020-10-18T09:35:50Z</time>
      </trkpt>
      <trkpt lat="43.50672" lon="5.73471">
        <ele>254.88</ele>
        <time>2020-10-18T09:35:55Z</time>
      </trkpt>
      <trkpt lat="43.50692" lon="5.73484">
        <ele>256.47</ele>
        <time>2020-10-18T09:36:00Z</time>
      </trkpt>
      <trkpt lat="43.50708" lon="5.73495">
        <ele>258.32</ele>
        <time>2020-10-18T09:36:04Z</time>
      </trkpt>
      <trkpt lat="43.50725" lon="5.73505">
        <ele>259.76</ele>
        <time>2020-10-18T09:36:08Z</time>
      </trkpt>
      <trkpt lat="43.5074" lon="5.73518">
        <ele>302</ele>
      </trkpt>
    </trkseg>
  </trk>
</gpx>